<?xml version="1.0" encoding="UTF-8" standalone="no" ?>
<gpx xmlns="http://www.topografix.com/GPX/1/1" xmlns:xsi="http://www.w3.org/2001/XMLSchema-instance" xsi:schemaLocation="http://www.topografix.com/GPX/1/1 http://www.topografix.com/GPX/1/1/gpx.xsd" version="1.1" creator="VisuGPX - https://www.visugpx.com">
  <metadata>
    <name>LA COLLE DU ROUET</name>
    <desc><![CDATA[Petit tour dans la forêt domaniale de la colle du rouet. ]]></desc>
  </metadata>
  <trk>
    <name><![CDATA[Tracé actuel: 10 NOV 2016 08:22]]></name>
    <trkseg>
      <trkpt lat="43.50747" lon="6.59981">
        <ele>38.11</ele>
        <time>2016-11-10T07:22:57Z</time>
      </trkpt>
      <trkpt lat="43.50748" lon="6.59977">
        <ele>38.11</ele>
        <time>2016-11-10T07:22:58Z</time>
      </trkpt>
      <trkpt lat="43.50748" lon="6.59979">
        <ele>42.44</ele>
        <time>2016-11-10T07:23:19Z</time>
      </trkpt>
      <trkpt lat="43.50749" lon="6.59978">
        <ele>45.8</ele>
        <time>2016-11-10T07:23:22Z</time>
      </trkpt>
      <trkpt lat="43.50748" lon="6.5998">
        <ele>49.16</ele>
        <time>2016-11-10T07:23:26Z</time>
      </trkpt>
      <trkpt lat="43.50747" lon="6.5998">
        <ele>50.13</ele>
        <time>2016-11-10T07:23:27Z</time>
      </trkpt>
      <trkpt lat="43.50743" lon="6.59981">
        <ele>54.45</ele>
        <time>2016-11-10T07:23:33Z</time>
      </trkpt>
      <trkpt lat="43.50743" lon="6.5998">
        <ele>57.82</ele>
        <time>2016-11-10T07:23:38Z</time>
      </trkpt>
      <trkpt lat="43.50742" lon="6.5998">
        <ele>61.18</ele>
        <time>2016-11-10T07:23:44Z</time>
      </trkpt>
      <trkpt lat="43.50739" lon="6.5998">
        <ele>62.14</ele>
        <time>2016-11-10T07:23:46Z</time>
      </trkpt>
      <trkpt lat="43.50725" lon="6.59981">
        <ele>65.51</ele>
        <time>2016-11-10T07:23:56Z</time>
      </trkpt>
      <trkpt lat="43.50723" lon="6.59981">
        <ele>65.99</ele>
        <time>2016-11-10T07:23:57Z</time>
      </trkpt>
      <trkpt lat="43.50705" lon="6.59975">
        <ele>68.87</ele>
        <time>2016-11-10T07:24:12Z</time>
      </trkpt>
      <trkpt lat="43.50692" lon="6.59979">
        <ele>69.83</ele>
        <time>2016-11-10T07:24:22Z</time>
      </trkpt>
      <trkpt lat="43.50686" lon="6.59982">
        <ele>70.31</ele>
        <time>2016-11-10T07:24:27Z</time>
      </trkpt>
      <trkpt lat="43.5068" lon="6.59991">
        <ele>71.27</ele>
        <time>2016-11-10T07:24:35Z</time>
      </trkpt>
      <trkpt lat="43.50676" lon="6.59995">
        <ele>71.76</ele>
        <time>2016-11-10T07:24:38Z</time>
      </trkpt>
      <trkpt lat="43.50674" lon="6.59997">
        <ele>71.76</ele>
        <time>2016-11-10T07:24:39Z</time>
      </trkpt>
      <trkpt lat="43.50669" lon="6.60007">
        <ele>72.72</ele>
        <time>2016-11-10T07:24:46Z</time>
      </trkpt>
      <trkpt lat="43.50667" lon="6.60013">
        <ele>72.72</ele>
        <time>2016-11-10T07:24:51Z</time>
      </trkpt>
      <trkpt lat="43.50664" lon="6.60017">
        <ele>73.2</ele>
        <time>2016-11-10T07:24:54Z</time>
      </trkpt>
      <trkpt lat="43.50655" lon="6.60031">
        <ele>74.16</ele>
        <time>2016-11-10T07:25:05Z</time>
      </trkpt>
      <trkpt lat="43.50652" lon="6.60034">
        <ele>74.64</ele>
        <time>2016-11-10T07:25:08Z</time>
      </trkpt>
      <trkpt lat="43.50641" lon="6.60051">
        <ele>75.6</ele>
        <time>2016-11-10T07:25:20Z</time>
      </trkpt>
      <trkpt lat="43.50639" lon="6.60054">
        <ele>76.08</ele>
        <time>2016-11-10T07:25:23Z</time>
      </trkpt>
      <trkpt lat="43.50627" lon="6.60073">
        <ele>77.04</ele>
        <time>2016-11-10T07:25:35Z</time>
      </trkpt>
      <trkpt lat="43.50622" lon="6.6008">
        <ele>77.52</ele>
        <time>2016-11-10T07:25:40Z</time>
      </trkpt>
      <trkpt lat="43.50613" lon="6.60098">
        <ele>78</ele>
        <time>2016-11-10T07:25:53Z</time>
      </trkpt>
      <trkpt lat="43.50611" lon="6.601">
        <ele>78.48</ele>
        <time>2016-11-10T07:25:55Z</time>
      </trkpt>
      <trkpt lat="43.50601" lon="6.60116">
        <ele>79.45</ele>
        <time>2016-11-10T07:26:06Z</time>
      </trkpt>
      <trkpt lat="43.50591" lon="6.60127">
        <ele>79.93</ele>
        <time>2016-11-10T07:26:16Z</time>
      </trkpt>
      <trkpt lat="43.50583" lon="6.60138">
        <ele>79.93</ele>
        <time>2016-11-10T07:26:22Z</time>
      </trkpt>
      <trkpt lat="43.50573" lon="6.60156">
        <ele>79.45</ele>
        <time>2016-11-10T07:26:33Z</time>
      </trkpt>
      <trkpt lat="43.5057" lon="6.6016">
        <ele>79.93</ele>
        <time>2016-11-10T07:26:36Z</time>
      </trkpt>
      <trkpt lat="43.50565" lon="6.60162">
        <ele>79.45</ele>
        <time>2016-11-10T07:26:41Z</time>
      </trkpt>
      <trkpt lat="43.50549" lon="6.60177">
        <ele>79.45</ele>
        <time>2016-11-10T07:26:53Z</time>
      </trkpt>
      <trkpt lat="43.50544" lon="6.60183">
        <ele>79.45</ele>
        <time>2016-11-10T07:26:58Z</time>
      </trkpt>
      <trkpt lat="43.5053" lon="6.60199">
        <ele>79.93</ele>
        <time>2016-11-10T07:27:10Z</time>
      </trkpt>
      <trkpt lat="43.50521" lon="6.60205">
        <ele>79.93</ele>
        <time>2016-11-10T07:27:17Z</time>
      </trkpt>
      <trkpt lat="43.50514" lon="6.60209">
        <ele>79.45</ele>
        <time>2016-11-10T07:27:22Z</time>
      </trkpt>
      <trkpt lat="43.50502" lon="6.60216">
        <ele>79.45</ele>
        <time>2016-11-10T07:27:30Z</time>
      </trkpt>
      <trkpt lat="43.50487" lon="6.60228">
        <ele>78.97</ele>
        <time>2016-11-10T07:27:41Z</time>
      </trkpt>
      <trkpt lat="43.50477" lon="6.60236">
        <ele>78.97</ele>
        <time>2016-11-10T07:27:48Z</time>
      </trkpt>
      <trkpt lat="43.5046" lon="6.60247">
        <ele>77.52</ele>
        <time>2016-11-10T07:28:03Z</time>
      </trkpt>
      <trkpt lat="43.50451" lon="6.60253">
        <ele>77.04</ele>
        <time>2016-11-10T07:28:09Z</time>
      </trkpt>
      <trkpt lat="43.50439" lon="6.60262">
        <ele>76.08</ele>
        <time>2016-11-10T07:28:17Z</time>
      </trkpt>
      <trkpt lat="43.5043" lon="6.60269">
        <ele>75.6</ele>
        <time>2016-11-10T07:28:25Z</time>
      </trkpt>
      <trkpt lat="43.50428" lon="6.6027">
        <ele>75.12</ele>
        <time>2016-11-10T07:28:27Z</time>
      </trkpt>
      <trkpt lat="43.50422" lon="6.60274">
        <ele>74.64</ele>
        <time>2016-11-10T07:28:32Z</time>
      </trkpt>
      <trkpt lat="43.5041" lon="6.60282">
        <ele>73.68</ele>
        <time>2016-11-10T07:28:41Z</time>
      </trkpt>
      <trkpt lat="43.50398" lon="6.6029">
        <ele>72.72</ele>
        <time>2016-11-10T07:28:51Z</time>
      </trkpt>
      <trkpt lat="43.50396" lon="6.6029">
        <ele>72.72</ele>
        <time>2016-11-10T07:28:53Z</time>
      </trkpt>
      <trkpt lat="43.50389" lon="6.60293">
        <ele>72.24</ele>
        <time>2016-11-10T07:28:59Z</time>
      </trkpt>
      <trkpt lat="43.50386" lon="6.60295">
        <ele>71.27</ele>
        <time>2016-11-10T07:29:02Z</time>
      </trkpt>
      <trkpt lat="43.5038" lon="6.603">
        <ele>70.79</ele>
        <time>2016-11-10T07:29:07Z</time>
      </trkpt>
      <trkpt lat="43.50367" lon="6.60311">
        <ele>69.83</ele>
        <time>2016-11-10T07:29:17Z</time>
      </trkpt>
      <trkpt lat="43.50351" lon="6.60323">
        <ele>69.35</ele>
        <time>2016-11-10T07:29:28Z</time>
      </trkpt>
      <trkpt lat="43.50347" lon="6.60323">
        <ele>68.87</ele>
        <time>2016-11-10T07:29:31Z</time>
      </trkpt>
      <trkpt lat="43.50329" lon="6.60332">
        <ele>68.87</ele>
        <time>2016-11-10T07:29:42Z</time>
      </trkpt>
      <trkpt lat="43.50318" lon="6.6034">
        <ele>68.87</ele>
        <time>2016-11-10T07:29:49Z</time>
      </trkpt>
      <trkpt lat="43.50307" lon="6.60343">
        <ele>68.87</ele>
        <time>2016-11-10T07:29:59Z</time>
      </trkpt>
      <trkpt lat="43.50305" lon="6.60344">
        <ele>68.87</ele>
        <time>2016-11-10T07:30:01Z</time>
      </trkpt>
      <trkpt lat="43.50295" lon="6.60348">
        <ele>68.87</ele>
        <time>2016-11-10T07:30:08Z</time>
      </trkpt>
      <trkpt lat="43.50289" lon="6.60352">
        <ele>68.39</ele>
        <time>2016-11-10T07:30:13Z</time>
      </trkpt>
      <trkpt lat="43.50281" lon="6.60356">
        <ele>68.39</ele>
        <time>2016-11-10T07:30:19Z</time>
      </trkpt>
      <trkpt lat="43.50262" lon="6.60359">
        <ele>68.39</ele>
        <time>2016-11-10T07:30:32Z</time>
      </trkpt>
      <trkpt lat="43.50259" lon="6.60361">
        <ele>68.87</ele>
        <time>2016-11-10T07:30:34Z</time>
      </trkpt>
      <trkpt lat="43.50247" lon="6.6037">
        <ele>68.87</ele>
        <time>2016-11-10T07:30:44Z</time>
      </trkpt>
      <trkpt lat="43.50234" lon="6.60372">
        <ele>68.39</ele>
        <time>2016-11-10T07:30:53Z</time>
      </trkpt>
      <trkpt lat="43.50232" lon="6.60371">
        <ele>68.39</ele>
        <time>2016-11-10T07:30:54Z</time>
      </trkpt>
      <trkpt lat="43.50228" lon="6.60373">
        <ele>68.87</ele>
        <time>2016-11-10T07:30:58Z</time>
      </trkpt>
      <trkpt lat="43.50218" lon="6.60378">
        <ele>68.87</ele>
        <time>2016-11-10T07:31:05Z</time>
      </trkpt>
      <trkpt lat="43.50207" lon="6.60384">
        <ele>68.39</ele>
        <time>2016-11-10T07:31:13Z</time>
      </trkpt>
      <trkpt lat="43.50197" lon="6.60396">
        <ele>68.39</ele>
        <time>2016-11-10T07:31:22Z</time>
      </trkpt>
      <trkpt lat="43.5019" lon="6.60403">
        <ele>68.39</ele>
        <time>2016-11-10T07:31:30Z</time>
      </trkpt>
      <trkpt lat="43.5019" lon="6.60406">
        <ele>68.39</ele>
        <time>2016-11-10T07:31:32Z</time>
      </trkpt>
      <trkpt lat="43.50193" lon="6.60413">
        <ele>68.39</ele>
        <time>2016-11-10T07:31:44Z</time>
      </trkpt>
      <trkpt lat="43.50197" lon="6.60417">
        <ele>68.39</ele>
        <time>2016-11-10T07:31:55Z</time>
      </trkpt>
      <trkpt lat="43.50196" lon="6.60416">
        <ele>68.87</ele>
        <time>2016-11-10T07:32:08Z</time>
      </trkpt>
      <trkpt lat="43.50197" lon="6.60418">
        <ele>67.91</ele>
        <time>2016-11-10T07:32:26Z</time>
      </trkpt>
      <trkpt lat="43.50196" lon="6.60417">
        <ele>68.39</ele>
        <time>2016-11-10T07:32:47Z</time>
      </trkpt>
      <trkpt lat="43.50193" lon="6.60421">
        <ele>68.39</ele>
        <time>2016-11-10T07:32:58Z</time>
      </trkpt>
      <trkpt lat="43.5019" lon="6.60424">
        <ele>68.87</ele>
        <time>2016-11-10T07:33:26Z</time>
      </trkpt>
      <trkpt lat="43.5019" lon="6.60422">
        <ele>68.87</ele>
        <time>2016-11-10T07:33:59Z</time>
      </trkpt>
      <trkpt lat="43.50193" lon="6.6042">
        <ele>69.83</ele>
        <time>2016-11-10T07:34:22Z</time>
      </trkpt>
      <trkpt lat="43.50194" lon="6.60421">
        <ele>68.87</ele>
        <time>2016-11-10T07:34:34Z</time>
      </trkpt>
      <trkpt lat="43.50194" lon="6.60412">
        <ele>68.87</ele>
        <time>2016-11-10T07:34:56Z</time>
      </trkpt>
      <trkpt lat="43.50193" lon="6.6041">
        <ele>68.87</ele>
        <time>2016-11-10T07:34:58Z</time>
      </trkpt>
      <trkpt lat="43.50192" lon="6.60403">
        <ele>68.87</ele>
        <time>2016-11-10T07:35:03Z</time>
      </trkpt>
      <trkpt lat="43.50193" lon="6.60401">
        <ele>69.35</ele>
        <time>2016-11-10T07:35:05Z</time>
      </trkpt>
      <trkpt lat="43.50191" lon="6.60396">
        <ele>69.35</ele>
        <time>2016-11-10T07:35:09Z</time>
      </trkpt>
      <trkpt lat="43.50173" lon="6.604">
        <ele>69.35</ele>
        <time>2016-11-10T07:35:21Z</time>
      </trkpt>
      <trkpt lat="43.50166" lon="6.604">
        <ele>69.35</ele>
        <time>2016-11-10T07:35:26Z</time>
      </trkpt>
      <trkpt lat="43.5016" lon="6.60402">
        <ele>69.35</ele>
        <time>2016-11-10T07:35:30Z</time>
      </trkpt>
      <trkpt lat="43.50155" lon="6.60405">
        <ele>68.87</ele>
        <time>2016-11-10T07:35:34Z</time>
      </trkpt>
      <trkpt lat="43.50134" lon="6.60409">
        <ele>69.35</ele>
        <time>2016-11-10T07:35:49Z</time>
      </trkpt>
      <trkpt lat="43.50114" lon="6.60415">
        <ele>70.31</ele>
        <time>2016-11-10T07:36:02Z</time>
      </trkpt>
      <trkpt lat="43.50093" lon="6.60424">
        <ele>69.83</ele>
        <time>2016-11-10T07:36:17Z</time>
      </trkpt>
      <trkpt lat="43.50087" lon="6.60427">
        <ele>69.83</ele>
        <time>2016-11-10T07:36:26Z</time>
      </trkpt>
      <trkpt lat="43.50065" lon="6.60439">
        <ele>69.35</ele>
        <time>2016-11-10T07:36:43Z</time>
      </trkpt>
      <trkpt lat="43.50062" lon="6.6044">
        <ele>69.35</ele>
        <time>2016-11-10T07:36:45Z</time>
      </trkpt>
      <trkpt lat="43.50044" lon="6.60451">
        <ele>69.35</ele>
        <time>2016-11-10T07:37:00Z</time>
      </trkpt>
      <trkpt lat="43.50026" lon="6.60464">
        <ele>68.87</ele>
        <time>2016-11-10T07:37:14Z</time>
      </trkpt>
      <trkpt lat="43.50008" lon="6.60478">
        <ele>68.39</ele>
        <time>2016-11-10T07:37:28Z</time>
      </trkpt>
      <trkpt lat="43.49991" lon="6.60491">
        <ele>68.39</ele>
        <time>2016-11-10T07:37:42Z</time>
      </trkpt>
      <trkpt lat="43.49971" lon="6.60503">
        <ele>67.91</ele>
        <time>2016-11-10T07:37:58Z</time>
      </trkpt>
      <trkpt lat="43.49957" lon="6.60513">
        <ele>67.91</ele>
        <time>2016-11-10T07:38:10Z</time>
      </trkpt>
      <trkpt lat="43.49957" lon="6.60514">
        <ele>67.91</ele>
        <time>2016-11-10T07:38:13Z</time>
      </trkpt>
      <trkpt lat="43.49941" lon="6.60522">
        <ele>67.91</ele>
        <time>2016-11-10T07:38:26Z</time>
      </trkpt>
      <trkpt lat="43.49932" lon="6.60527">
        <ele>68.39</ele>
        <time>2016-11-10T07:38:33Z</time>
      </trkpt>
      <trkpt lat="43.49926" lon="6.60529">
        <ele>68.87</ele>
        <time>2016-11-10T07:38:41Z</time>
      </trkpt>
      <trkpt lat="43.49923" lon="6.60531">
        <ele>68.87</ele>
        <time>2016-11-10T07:38:44Z</time>
      </trkpt>
      <trkpt lat="43.49904" lon="6.60542">
        <ele>69.35</ele>
        <time>2016-11-10T07:38:59Z</time>
      </trkpt>
      <trkpt lat="43.49889" lon="6.60555">
        <ele>69.35</ele>
        <time>2016-11-10T07:39:12Z</time>
      </trkpt>
      <trkpt lat="43.49872" lon="6.60564">
        <ele>70.31</ele>
        <time>2016-11-10T07:39:26Z</time>
      </trkpt>
      <trkpt lat="43.49864" lon="6.6057">
        <ele>70.79</ele>
        <time>2016-11-10T07:39:40Z</time>
      </trkpt>
      <trkpt lat="43.49865" lon="6.60574">
        <ele>70.79</ele>
        <time>2016-11-10T07:40:11Z</time>
      </trkpt>
      <trkpt lat="43.49866" lon="6.60576">
        <ele>71.27</ele>
        <time>2016-11-10T07:40:41Z</time>
      </trkpt>
      <trkpt lat="43.49867" lon="6.60579">
        <ele>71.27</ele>
        <time>2016-11-10T07:41:02Z</time>
      </trkpt>
      <trkpt lat="43.49867" lon="6.60579">
        <ele>70.79</ele>
        <time>2016-11-10T07:41:18Z</time>
      </trkpt>
      <trkpt lat="43.49867" lon="6.60579">
        <ele>71.27</ele>
        <time>2016-11-10T07:41:22Z</time>
      </trkpt>
      <trkpt lat="43.49867" lon="6.60584">
        <ele>71.27</ele>
        <time>2016-11-10T07:41:25Z</time>
      </trkpt>
      <trkpt lat="43.4987" lon="6.60596">
        <ele>70.79</ele>
        <time>2016-11-10T07:41:33Z</time>
      </trkpt>
      <trkpt lat="43.4987" lon="6.6061">
        <ele>70.79</ele>
        <time>2016-11-10T07:41:41Z</time>
      </trkpt>
      <trkpt lat="43.49872" lon="6.6062">
        <ele>71.27</ele>
        <time>2016-11-10T07:41:47Z</time>
      </trkpt>
      <trkpt lat="43.49879" lon="6.60636">
        <ele>70.31</ele>
        <time>2016-11-10T07:41:58Z</time>
      </trkpt>
      <trkpt lat="43.49886" lon="6.6065">
        <ele>70.31</ele>
        <time>2016-11-10T07:42:13Z</time>
      </trkpt>
      <trkpt lat="43.49887" lon="6.60651">
        <ele>70.31</ele>
        <time>2016-11-10T07:42:33Z</time>
      </trkpt>
      <trkpt lat="43.49899" lon="6.60662">
        <ele>69.35</ele>
        <time>2016-11-10T07:42:47Z</time>
      </trkpt>
      <trkpt lat="43.49911" lon="6.6067">
        <ele>67.43</ele>
        <time>2016-11-10T07:42:59Z</time>
      </trkpt>
      <trkpt lat="43.49912" lon="6.60671">
        <ele>69.83</ele>
        <time>2016-11-10T07:43:00Z</time>
      </trkpt>
      <trkpt lat="43.49918" lon="6.60676">
        <ele>65.51</ele>
        <time>2016-11-10T07:43:06Z</time>
      </trkpt>
      <trkpt lat="43.49919" lon="6.60677">
        <ele>71.27</ele>
        <time>2016-11-10T07:43:07Z</time>
      </trkpt>
      <trkpt lat="43.4992" lon="6.60678">
        <ele>67.91</ele>
        <time>2016-11-10T07:43:08Z</time>
      </trkpt>
      <trkpt lat="43.49935" lon="6.60689">
        <ele>67.43</ele>
        <time>2016-11-10T07:43:22Z</time>
      </trkpt>
      <trkpt lat="43.49947" lon="6.60699">
        <ele>66.47</ele>
        <time>2016-11-10T07:43:34Z</time>
      </trkpt>
      <trkpt lat="43.4995" lon="6.60702">
        <ele>65.99</ele>
        <time>2016-11-10T07:43:37Z</time>
      </trkpt>
      <trkpt lat="43.49962" lon="6.60714">
        <ele>65.99</ele>
        <time>2016-11-10T07:43:52Z</time>
      </trkpt>
      <trkpt lat="43.49962" lon="6.60714">
        <ele>65.51</ele>
        <time>2016-11-10T07:43:55Z</time>
      </trkpt>
      <trkpt lat="43.4997" lon="6.60722">
        <ele>62.14</ele>
        <time>2016-11-10T07:44:02Z</time>
      </trkpt>
      <trkpt lat="43.49971" lon="6.60723">
        <ele>65.99</ele>
        <time>2016-11-10T07:44:03Z</time>
      </trkpt>
      <trkpt lat="43.49974" lon="6.60729">
        <ele>61.18</ele>
        <time>2016-11-10T07:44:08Z</time>
      </trkpt>
      <trkpt lat="43.49976" lon="6.6073">
        <ele>67.43</ele>
        <time>2016-11-10T07:44:09Z</time>
      </trkpt>
      <trkpt lat="43.49976" lon="6.60732">
        <ele>64.55</ele>
        <time>2016-11-10T07:44:10Z</time>
      </trkpt>
      <trkpt lat="43.49986" lon="6.60747">
        <ele>64.55</ele>
        <time>2016-11-10T07:44:23Z</time>
      </trkpt>
      <trkpt lat="43.49998" lon="6.60762">
        <ele>62.62</ele>
        <time>2016-11-10T07:44:35Z</time>
      </trkpt>
      <trkpt lat="43.50005" lon="6.60768">
        <ele>62.14</ele>
        <time>2016-11-10T07:44:41Z</time>
      </trkpt>
      <trkpt lat="43.50016" lon="6.6078">
        <ele>61.66</ele>
        <time>2016-11-10T07:44:53Z</time>
      </trkpt>
      <trkpt lat="43.5002" lon="6.60783">
        <ele>61.18</ele>
        <time>2016-11-10T07:44:58Z</time>
      </trkpt>
      <trkpt lat="43.50028" lon="6.60796">
        <ele>61.18</ele>
        <time>2016-11-10T07:45:12Z</time>
      </trkpt>
      <trkpt lat="43.50032" lon="6.60803">
        <ele>61.18</ele>
        <time>2016-11-10T07:45:17Z</time>
      </trkpt>
      <trkpt lat="43.50043" lon="6.6082">
        <ele>60.7</ele>
        <time>2016-11-10T07:45:31Z</time>
      </trkpt>
      <trkpt lat="43.50057" lon="6.60835">
        <ele>60.7</ele>
        <time>2016-11-10T07:45:46Z</time>
      </trkpt>
      <trkpt lat="43.50059" lon="6.60835">
        <ele>60.7</ele>
        <time>2016-11-10T07:45:47Z</time>
      </trkpt>
      <trkpt lat="43.50065" lon="6.6084">
        <ele>60.7</ele>
        <time>2016-11-10T07:45:52Z</time>
      </trkpt>
      <trkpt lat="43.5007" lon="6.60845">
        <ele>60.7</ele>
        <time>2016-11-10T07:45:57Z</time>
      </trkpt>
      <trkpt lat="43.50083" lon="6.6086">
        <ele>60.7</ele>
        <time>2016-11-10T07:46:10Z</time>
      </trkpt>
      <trkpt lat="43.5009" lon="6.60868">
        <ele>60.7</ele>
        <time>2016-11-10T07:46:16Z</time>
      </trkpt>
      <trkpt lat="43.50097" lon="6.60876">
        <ele>59.74</ele>
        <time>2016-11-10T07:46:22Z</time>
      </trkpt>
      <trkpt lat="43.50109" lon="6.60897">
        <ele>58.78</ele>
        <time>2016-11-10T07:46:37Z</time>
      </trkpt>
      <trkpt lat="43.50113" lon="6.60904">
        <ele>58.3</ele>
        <time>2016-11-10T07:46:42Z</time>
      </trkpt>
      <trkpt lat="43.50116" lon="6.60909">
        <ele>58.3</ele>
        <time>2016-11-10T07:46:46Z</time>
      </trkpt>
      <trkpt lat="43.50121" lon="6.60926">
        <ele>57.82</ele>
        <time>2016-11-10T07:46:58Z</time>
      </trkpt>
      <trkpt lat="43.50122" lon="6.60928">
        <ele>57.82</ele>
        <time>2016-11-10T07:47:00Z</time>
      </trkpt>
      <trkpt lat="43.50133" lon="6.60941">
        <ele>58.3</ele>
        <time>2016-11-10T07:47:12Z</time>
      </trkpt>
      <trkpt lat="43.50136" lon="6.6095">
        <ele>58.3</ele>
        <time>2016-11-10T07:47:19Z</time>
      </trkpt>
      <trkpt lat="43.50144" lon="6.60957">
        <ele>58.78</ele>
        <time>2016-11-10T07:47:33Z</time>
      </trkpt>
      <trkpt lat="43.50146" lon="6.60959">
        <ele>58.78</ele>
        <time>2016-11-10T07:47:35Z</time>
      </trkpt>
      <trkpt lat="43.50157" lon="6.60969">
        <ele>58.78</ele>
        <time>2016-11-10T07:47:49Z</time>
      </trkpt>
      <trkpt lat="43.50166" lon="6.60973">
        <ele>60.7</ele>
        <time>2016-11-10T07:48:01Z</time>
      </trkpt>
      <trkpt lat="43.50168" lon="6.60974">
        <ele>55.89</ele>
        <time>2016-11-10T07:48:03Z</time>
      </trkpt>
      <trkpt lat="43.50169" lon="6.60975">
        <ele>58.3</ele>
        <time>2016-11-10T07:48:04Z</time>
      </trkpt>
      <trkpt lat="43.5017" lon="6.60975">
        <ele>63.1</ele>
        <time>2016-11-10T07:48:05Z</time>
      </trkpt>
      <trkpt lat="43.50172" lon="6.60976">
        <ele>59.74</ele>
        <time>2016-11-10T07:48:06Z</time>
      </trkpt>
      <trkpt lat="43.50175" lon="6.60977">
        <ele>54.93</ele>
        <time>2016-11-10T07:48:08Z</time>
      </trkpt>
      <trkpt lat="43.50176" lon="6.60977">
        <ele>63.58</ele>
        <time>2016-11-10T07:48:09Z</time>
      </trkpt>
      <trkpt lat="43.50177" lon="6.60978">
        <ele>59.26</ele>
        <time>2016-11-10T07:48:10Z</time>
      </trkpt>
      <trkpt lat="43.50181" lon="6.60979">
        <ele>59.74</ele>
        <time>2016-11-10T07:48:13Z</time>
      </trkpt>
      <trkpt lat="43.50184" lon="6.60982">
        <ele>59.74</ele>
        <time>2016-11-10T07:48:17Z</time>
      </trkpt>
      <trkpt lat="43.50199" lon="6.60996">
        <ele>60.22</ele>
        <time>2016-11-10T07:48:34Z</time>
      </trkpt>
      <trkpt lat="43.5021" lon="6.61007">
        <ele>61.18</ele>
        <time>2016-11-10T07:48:46Z</time>
      </trkpt>
      <trkpt lat="43.50213" lon="6.61009">
        <ele>60.7</ele>
        <time>2016-11-10T07:48:48Z</time>
      </trkpt>
      <trkpt lat="43.50221" lon="6.6102">
        <ele>61.66</ele>
        <time>2016-11-10T07:48:58Z</time>
      </trkpt>
      <trkpt lat="43.50233" lon="6.61032">
        <ele>62.62</ele>
        <time>2016-11-10T07:49:13Z</time>
      </trkpt>
      <trkpt lat="43.50237" lon="6.61035">
        <ele>62.62</ele>
        <time>2016-11-10T07:49:17Z</time>
      </trkpt>
      <trkpt lat="43.5024" lon="6.61037">
        <ele>63.1</ele>
        <time>2016-11-10T07:49:20Z</time>
      </trkpt>
      <trkpt lat="43.50247" lon="6.61046">
        <ele>63.58</ele>
        <time>2016-11-10T07:49:27Z</time>
      </trkpt>
      <trkpt lat="43.50249" lon="6.61049">
        <ele>64.07</ele>
        <time>2016-11-10T07:49:30Z</time>
      </trkpt>
      <trkpt lat="43.50252" lon="6.61051">
        <ele>64.07</ele>
        <time>2016-11-10T07:49:33Z</time>
      </trkpt>
      <trkpt lat="43.50256" lon="6.61058">
        <ele>64.55</ele>
        <time>2016-11-10T07:49:38Z</time>
      </trkpt>
      <trkpt lat="43.50259" lon="6.61064">
        <ele>64.55</ele>
        <time>2016-11-10T07:49:43Z</time>
      </trkpt>
      <trkpt lat="43.50268" lon="6.61074">
        <ele>65.51</ele>
        <time>2016-11-10T07:49:54Z</time>
      </trkpt>
      <trkpt lat="43.5027" lon="6.61076">
        <ele>65.99</ele>
        <time>2016-11-10T07:49:56Z</time>
      </trkpt>
      <trkpt lat="43.50278" lon="6.61083">
        <ele>66.95</ele>
        <time>2016-11-10T07:50:04Z</time>
      </trkpt>
      <trkpt lat="43.50283" lon="6.61088">
        <ele>67.91</ele>
        <time>2016-11-10T07:50:14Z</time>
      </trkpt>
      <trkpt lat="43.50283" lon="6.61088">
        <ele>67.43</ele>
        <time>2016-11-10T07:50:36Z</time>
      </trkpt>
      <trkpt lat="43.50283" lon="6.61089">
        <ele>67.43</ele>
        <time>2016-11-10T07:50:52Z</time>
      </trkpt>
      <trkpt lat="43.50282" lon="6.6109">
        <ele>66.95</ele>
        <time>2016-11-10T07:50:54Z</time>
      </trkpt>
      <trkpt lat="43.50281" lon="6.61092">
        <ele>67.43</ele>
        <time>2016-11-10T07:51:07Z</time>
      </trkpt>
      <trkpt lat="43.50279" lon="6.61103">
        <ele>67.43</ele>
        <time>2016-11-10T07:51:20Z</time>
      </trkpt>
      <trkpt lat="43.50277" lon="6.61108">
        <ele>67.43</ele>
        <time>2016-11-10T07:51:24Z</time>
      </trkpt>
      <trkpt lat="43.5027" lon="6.61121">
        <ele>66.47</ele>
        <time>2016-11-10T07:51:37Z</time>
      </trkpt>
      <trkpt lat="43.5026" lon="6.61133">
        <ele>65.99</ele>
        <time>2016-11-10T07:51:50Z</time>
      </trkpt>
      <trkpt lat="43.50251" lon="6.61148">
        <ele>65.03</ele>
        <time>2016-11-10T07:52:03Z</time>
      </trkpt>
      <trkpt lat="43.50243" lon="6.61166">
        <ele>64.55</ele>
        <time>2016-11-10T07:52:16Z</time>
      </trkpt>
      <trkpt lat="43.50239" lon="6.61173">
        <ele>64.55</ele>
        <time>2016-11-10T07:52:22Z</time>
      </trkpt>
      <trkpt lat="43.50238" lon="6.61177">
        <ele>64.07</ele>
        <time>2016-11-10T07:52:25Z</time>
      </trkpt>
      <trkpt lat="43.50228" lon="6.61194">
        <ele>62.14</ele>
        <time>2016-11-10T07:52:39Z</time>
      </trkpt>
      <trkpt lat="43.50223" lon="6.61202">
        <ele>62.14</ele>
        <time>2016-11-10T07:52:50Z</time>
      </trkpt>
      <trkpt lat="43.50223" lon="6.61203">
        <ele>62.14</ele>
        <time>2016-11-10T07:52:55Z</time>
      </trkpt>
      <trkpt lat="43.5022" lon="6.61208">
        <ele>61.18</ele>
        <time>2016-11-10T07:53:00Z</time>
      </trkpt>
      <trkpt lat="43.50217" lon="6.61214">
        <ele>61.18</ele>
        <time>2016-11-10T07:53:05Z</time>
      </trkpt>
      <trkpt lat="43.50204" lon="6.61235">
        <ele>63.1</ele>
        <time>2016-11-10T07:53:21Z</time>
      </trkpt>
      <trkpt lat="43.50196" lon="6.61251">
        <ele>64.55</ele>
        <time>2016-11-10T07:53:34Z</time>
      </trkpt>
      <trkpt lat="43.50188" lon="6.61265">
        <ele>65.51</ele>
        <time>2016-11-10T07:53:46Z</time>
      </trkpt>
      <trkpt lat="43.5018" lon="6.61281">
        <ele>66.95</ele>
        <time>2016-11-10T07:53:59Z</time>
      </trkpt>
      <trkpt lat="43.50166" lon="6.61296">
        <ele>67.43</ele>
        <time>2016-11-10T07:54:15Z</time>
      </trkpt>
      <trkpt lat="43.50159" lon="6.61301">
        <ele>67.43</ele>
        <time>2016-11-10T07:54:23Z</time>
      </trkpt>
      <trkpt lat="43.50149" lon="6.61314">
        <ele>68.39</ele>
        <time>2016-11-10T07:54:36Z</time>
      </trkpt>
      <trkpt lat="43.5015" lon="6.61314">
        <ele>68.39</ele>
        <time>2016-11-10T07:54:45Z</time>
      </trkpt>
      <trkpt lat="43.50165" lon="6.613">
        <ele>67.91</ele>
        <time>2016-11-10T07:54:59Z</time>
      </trkpt>
      <trkpt lat="43.50179" lon="6.61285">
        <ele>67.43</ele>
        <time>2016-11-10T07:55:14Z</time>
      </trkpt>
      <trkpt lat="43.50187" lon="6.61274">
        <ele>63.1</ele>
        <time>2016-11-10T07:55:22Z</time>
      </trkpt>
      <trkpt lat="43.50188" lon="6.61272">
        <ele>69.35</ele>
        <time>2016-11-10T07:55:23Z</time>
      </trkpt>
      <trkpt lat="43.5019" lon="6.61269">
        <ele>66.47</ele>
        <time>2016-11-10T07:55:25Z</time>
      </trkpt>
      <trkpt lat="43.50198" lon="6.61255">
        <ele>63.58</ele>
        <time>2016-11-10T07:55:36Z</time>
      </trkpt>
      <trkpt lat="43.502" lon="6.61252">
        <ele>64.55</ele>
        <time>2016-11-10T07:55:39Z</time>
      </trkpt>
      <trkpt lat="43.50203" lon="6.61248">
        <ele>64.55</ele>
        <time>2016-11-10T07:55:42Z</time>
      </trkpt>
      <trkpt lat="43.50204" lon="6.61242">
        <ele>64.07</ele>
        <time>2016-11-10T07:55:46Z</time>
      </trkpt>
      <trkpt lat="43.50214" lon="6.61225">
        <ele>63.1</ele>
        <time>2016-11-10T07:56:00Z</time>
      </trkpt>
      <trkpt lat="43.50224" lon="6.61208">
        <ele>62.14</ele>
        <time>2016-11-10T07:56:16Z</time>
      </trkpt>
      <trkpt lat="43.50231" lon="6.61196">
        <ele>62.62</ele>
        <time>2016-11-10T07:56:28Z</time>
      </trkpt>
      <trkpt lat="43.50237" lon="6.61182">
        <ele>64.55</ele>
        <time>2016-11-10T07:56:41Z</time>
      </trkpt>
      <trkpt lat="43.50239" lon="6.61179">
        <ele>64.55</ele>
        <time>2016-11-10T07:56:56Z</time>
      </trkpt>
      <trkpt lat="43.50239" lon="6.61179">
        <ele>61.18</ele>
        <time>2016-11-10T07:57:01Z</time>
      </trkpt>
      <trkpt lat="43.50239" lon="6.61179">
        <ele>67.91</ele>
        <time>2016-11-10T07:57:02Z</time>
      </trkpt>
      <trkpt lat="43.50239" lon="6.61179">
        <ele>64.55</ele>
        <time>2016-11-10T07:57:04Z</time>
      </trkpt>
      <trkpt lat="43.50242" lon="6.6118">
        <ele>64.55</ele>
        <time>2016-11-10T07:57:21Z</time>
      </trkpt>
      <trkpt lat="43.50244" lon="6.61182">
        <ele>64.55</ele>
        <time>2016-11-10T07:57:23Z</time>
      </trkpt>
      <trkpt lat="43.50248" lon="6.61184">
        <ele>65.03</ele>
        <time>2016-11-10T07:57:34Z</time>
      </trkpt>
      <trkpt lat="43.5024" lon="6.61184">
        <ele>64.07</ele>
        <time>2016-11-10T07:57:42Z</time>
      </trkpt>
      <trkpt lat="43.50236" lon="6.61187">
        <ele>64.07</ele>
        <time>2016-11-10T07:57:47Z</time>
      </trkpt>
      <trkpt lat="43.50234" lon="6.61191">
        <ele>63.58</ele>
        <time>2016-11-10T07:57:56Z</time>
      </trkpt>
      <trkpt lat="43.50232" lon="6.61193">
        <ele>62.62</ele>
        <time>2016-11-10T07:57:58Z</time>
      </trkpt>
      <trkpt lat="43.5023" lon="6.61199">
        <ele>62.14</ele>
        <time>2016-11-10T07:58:09Z</time>
      </trkpt>
      <trkpt lat="43.50231" lon="6.612">
        <ele>62.14</ele>
        <time>2016-11-10T07:58:21Z</time>
      </trkpt>
      <trkpt lat="43.50237" lon="6.61204">
        <ele>62.14</ele>
        <time>2016-11-10T07:58:28Z</time>
      </trkpt>
      <trkpt lat="43.50237" lon="6.61207">
        <ele>62.62</ele>
        <time>2016-11-10T07:58:41Z</time>
      </trkpt>
      <trkpt lat="43.50237" lon="6.61206">
        <ele>58.78</ele>
        <time>2016-11-10T07:58:55Z</time>
      </trkpt>
      <trkpt lat="43.50237" lon="6.61206">
        <ele>65.03</ele>
        <time>2016-11-10T07:58:56Z</time>
      </trkpt>
      <trkpt lat="43.50237" lon="6.61206">
        <ele>62.14</ele>
        <time>2016-11-10T07:58:57Z</time>
      </trkpt>
      <trkpt lat="43.50237" lon="6.61206">
        <ele>62.14</ele>
        <time>2016-11-10T07:59:02Z</time>
      </trkpt>
      <trkpt lat="43.50238" lon="6.61206">
        <ele>62.14</ele>
        <time>2016-11-10T07:59:12Z</time>
      </trkpt>
      <trkpt lat="43.50237" lon="6.61205">
        <ele>61.66</ele>
        <time>2016-11-10T07:59:14Z</time>
      </trkpt>
      <trkpt lat="43.50235" lon="6.61203">
        <ele>61.66</ele>
        <time>2016-11-10T07:59:16Z</time>
      </trkpt>
      <trkpt lat="43.5023" lon="6.612">
        <ele>62.62</ele>
        <time>2016-11-10T07:59:22Z</time>
      </trkpt>
      <trkpt lat="43.50225" lon="6.61208">
        <ele>62.14</ele>
        <time>2016-11-10T07:59:28Z</time>
      </trkpt>
      <trkpt lat="43.50217" lon="6.61221">
        <ele>62.14</ele>
        <time>2016-11-10T07:59:41Z</time>
      </trkpt>
      <trkpt lat="43.50216" lon="6.61222">
        <ele>62.62</ele>
        <time>2016-11-10T07:59:47Z</time>
      </trkpt>
      <trkpt lat="43.50217" lon="6.61228">
        <ele>62.62</ele>
        <time>2016-11-10T07:59:51Z</time>
      </trkpt>
      <trkpt lat="43.50218" lon="6.61233">
        <ele>63.1</ele>
        <time>2016-11-10T07:59:56Z</time>
      </trkpt>
      <trkpt lat="43.5022" lon="6.61236">
        <ele>62.62</ele>
        <time>2016-11-10T08:00:02Z</time>
      </trkpt>
      <trkpt lat="43.50218" lon="6.61234">
        <ele>62.62</ele>
        <time>2016-11-10T08:00:04Z</time>
      </trkpt>
      <trkpt lat="43.50216" lon="6.61228">
        <ele>63.1</ele>
        <time>2016-11-10T08:00:15Z</time>
      </trkpt>
      <trkpt lat="43.50216" lon="6.61228">
        <ele>62.14</ele>
        <time>2016-11-10T08:00:32Z</time>
      </trkpt>
      <trkpt lat="43.50216" lon="6.61228">
        <ele>62.62</ele>
        <time>2016-11-10T08:00:52Z</time>
      </trkpt>
      <trkpt lat="43.50216" lon="6.61228">
        <ele>63.1</ele>
        <time>2016-11-10T08:01:15Z</time>
      </trkpt>
      <trkpt lat="43.50216" lon="6.61229">
        <ele>62.62</ele>
        <time>2016-11-10T08:01:31Z</time>
      </trkpt>
      <trkpt lat="43.50216" lon="6.61229">
        <ele>62.62</ele>
        <time>2016-11-10T08:01:44Z</time>
      </trkpt>
      <trkpt lat="43.50217" lon="6.61233">
        <ele>62.62</ele>
        <time>2016-11-10T08:01:47Z</time>
      </trkpt>
      <trkpt lat="43.50219" lon="6.61237">
        <ele>62.62</ele>
        <time>2016-11-10T08:01:50Z</time>
      </trkpt>
      <trkpt lat="43.50221" lon="6.61247">
        <ele>59.74</ele>
        <time>2016-11-10T08:01:58Z</time>
      </trkpt>
      <trkpt lat="43.50222" lon="6.61248">
        <ele>64.55</ele>
        <time>2016-11-10T08:01:59Z</time>
      </trkpt>
      <trkpt lat="43.50222" lon="6.6125">
        <ele>62.62</ele>
        <time>2016-11-10T08:02:00Z</time>
      </trkpt>
      <trkpt lat="43.50226" lon="6.6126">
        <ele>62.62</ele>
        <time>2016-11-10T08:02:07Z</time>
      </trkpt>
      <trkpt lat="43.50222" lon="6.61273">
        <ele>63.58</ele>
        <time>2016-11-10T08:02:22Z</time>
      </trkpt>
      <trkpt lat="43.50222" lon="6.61275">
        <ele>63.58</ele>
        <time>2016-11-10T08:02:41Z</time>
      </trkpt>
      <trkpt lat="43.50222" lon="6.61274">
        <ele>63.58</ele>
        <time>2016-11-10T08:03:01Z</time>
      </trkpt>
      <trkpt lat="43.50222" lon="6.61274">
        <ele>63.1</ele>
        <time>2016-11-10T08:03:22Z</time>
      </trkpt>
      <trkpt lat="43.50223" lon="6.61274">
        <ele>64.55</ele>
        <time>2016-11-10T08:03:35Z</time>
      </trkpt>
      <trkpt lat="43.5022" lon="6.61278">
        <ele>64.55</ele>
        <time>2016-11-10T08:03:42Z</time>
      </trkpt>
      <trkpt lat="43.50217" lon="6.61294">
        <ele>64.07</ele>
        <time>2016-11-10T08:03:53Z</time>
      </trkpt>
      <trkpt lat="43.50215" lon="6.613">
        <ele>64.07</ele>
        <time>2016-11-10T08:03:58Z</time>
      </trkpt>
      <trkpt lat="43.50212" lon="6.61305">
        <ele>64.07</ele>
        <time>2016-11-10T08:04:10Z</time>
      </trkpt>
      <trkpt lat="43.50212" lon="6.61304">
        <ele>64.07</ele>
        <time>2016-11-10T08:04:16Z</time>
      </trkpt>
      <trkpt lat="43.5022" lon="6.61284">
        <ele>64.07</ele>
        <time>2016-11-10T08:04:30Z</time>
      </trkpt>
      <trkpt lat="43.50223" lon="6.61268">
        <ele>63.1</ele>
        <time>2016-11-10T08:04:39Z</time>
      </trkpt>
      <trkpt lat="43.50225" lon="6.61259">
        <ele>62.62</ele>
        <time>2016-11-10T08:04:45Z</time>
      </trkpt>
      <trkpt lat="43.50224" lon="6.61253">
        <ele>62.14</ele>
        <time>2016-11-10T08:04:57Z</time>
      </trkpt>
      <trkpt lat="43.50229" lon="6.61248">
        <ele>61.18</ele>
        <time>2016-11-10T08:05:08Z</time>
      </trkpt>
      <trkpt lat="43.5023" lon="6.61246">
        <ele>61.18</ele>
        <time>2016-11-10T08:05:09Z</time>
      </trkpt>
      <trkpt lat="43.50236" lon="6.61245">
        <ele>60.22</ele>
        <time>2016-11-10T08:05:17Z</time>
      </trkpt>
      <trkpt lat="43.5024" lon="6.6125">
        <ele>56.86</ele>
        <time>2016-11-10T08:05:26Z</time>
      </trkpt>
      <trkpt lat="43.5024" lon="6.6125">
        <ele>59.74</ele>
        <time>2016-11-10T08:05:27Z</time>
      </trkpt>
      <trkpt lat="43.5024" lon="6.6125">
        <ele>63.58</ele>
        <time>2016-11-10T08:05:28Z</time>
      </trkpt>
      <trkpt lat="43.5024" lon="6.6125">
        <ele>60.22</ele>
        <time>2016-11-10T08:05:29Z</time>
      </trkpt>
      <trkpt lat="43.5024" lon="6.6125">
        <ele>56.37</ele>
        <time>2016-11-10T08:05:35Z</time>
      </trkpt>
      <trkpt lat="43.5024" lon="6.6125">
        <ele>63.1</ele>
        <time>2016-11-10T08:05:36Z</time>
      </trkpt>
      <trkpt lat="43.5024" lon="6.6125">
        <ele>60.22</ele>
        <time>2016-11-10T08:05:37Z</time>
      </trkpt>
      <trkpt lat="43.5024" lon="6.6125">
        <ele>56.86</ele>
        <time>2016-11-10T08:05:38Z</time>
      </trkpt>
      <trkpt lat="43.5024" lon="6.6125">
        <ele>62.14</ele>
        <time>2016-11-10T08:05:39Z</time>
      </trkpt>
      <trkpt lat="43.5024" lon="6.6125">
        <ele>59.74</ele>
        <time>2016-11-10T08:05:46Z</time>
      </trkpt>
      <trkpt lat="43.50244" lon="6.6125">
        <ele>59.74</ele>
        <time>2016-11-10T08:05:50Z</time>
      </trkpt>
      <trkpt lat="43.50248" lon="6.6125">
        <ele>58.78</ele>
        <time>2016-11-10T08:05:55Z</time>
      </trkpt>
      <trkpt lat="43.50253" lon="6.6125">
        <ele>57.34</ele>
        <time>2016-11-10T08:06:00Z</time>
      </trkpt>
      <trkpt lat="43.50257" lon="6.61251">
        <ele>56.86</ele>
        <time>2016-11-10T08:06:04Z</time>
      </trkpt>
      <trkpt lat="43.50259" lon="6.61258">
        <ele>56.86</ele>
        <time>2016-11-10T08:06:15Z</time>
      </trkpt>
      <trkpt lat="43.50261" lon="6.61262">
        <ele>57.34</ele>
        <time>2016-11-10T08:06:19Z</time>
      </trkpt>
      <trkpt lat="43.50262" lon="6.6127">
        <ele>57.34</ele>
        <time>2016-11-10T08:06:33Z</time>
      </trkpt>
      <trkpt lat="43.5026" lon="6.61264">
        <ele>57.34</ele>
        <time>2016-11-10T08:06:40Z</time>
      </trkpt>
      <trkpt lat="43.50249" lon="6.61259">
        <ele>58.3</ele>
        <time>2016-11-10T08:06:51Z</time>
      </trkpt>
      <trkpt lat="43.50249" lon="6.61257">
        <ele>58.78</ele>
        <time>2016-11-10T08:06:53Z</time>
      </trkpt>
      <trkpt lat="43.50243" lon="6.61255">
        <ele>59.26</ele>
        <time>2016-11-10T08:06:59Z</time>
      </trkpt>
      <trkpt lat="43.50241" lon="6.61255">
        <ele>59.26</ele>
        <time>2016-11-10T08:07:01Z</time>
      </trkpt>
      <trkpt lat="43.50238" lon="6.61248">
        <ele>59.26</ele>
        <time>2016-11-10T08:07:08Z</time>
      </trkpt>
      <trkpt lat="43.50235" lon="6.61246">
        <ele>59.74</ele>
        <time>2016-11-10T08:07:10Z</time>
      </trkpt>
      <trkpt lat="43.50226" lon="6.61243">
        <ele>60.7</ele>
        <time>2016-11-10T08:07:19Z</time>
      </trkpt>
      <trkpt lat="43.50219" lon="6.61241">
        <ele>63.1</ele>
        <time>2016-11-10T08:07:32Z</time>
      </trkpt>
      <trkpt lat="43.5022" lon="6.61241">
        <ele>66.47</ele>
        <time>2016-11-10T08:07:36Z</time>
      </trkpt>
      <trkpt lat="43.50219" lon="6.61242">
        <ele>62.62</ele>
        <time>2016-11-10T08:07:38Z</time>
      </trkpt>
      <trkpt lat="43.50219" lon="6.61243">
        <ele>62.62</ele>
        <time>2016-11-10T08:07:39Z</time>
      </trkpt>
      <trkpt lat="43.50219" lon="6.61244">
        <ele>62.62</ele>
        <time>2016-11-10T08:07:40Z</time>
      </trkpt>
      <trkpt lat="43.50225" lon="6.61264">
        <ele>63.1</ele>
        <time>2016-11-10T08:07:54Z</time>
      </trkpt>
      <trkpt lat="43.50225" lon="6.61265">
        <ele>63.1</ele>
        <time>2016-11-10T08:07:57Z</time>
      </trkpt>
      <trkpt lat="43.50221" lon="6.6128">
        <ele>64.07</ele>
        <time>2016-11-10T08:08:12Z</time>
      </trkpt>
      <trkpt lat="43.50219" lon="6.61287">
        <ele>64.07</ele>
        <time>2016-11-10T08:08:27Z</time>
      </trkpt>
      <trkpt lat="43.50219" lon="6.61287">
        <ele>64.07</ele>
        <time>2016-11-10T08:08:49Z</time>
      </trkpt>
      <trkpt lat="43.50219" lon="6.61287">
        <ele>64.55</ele>
        <time>2016-11-10T08:09:03Z</time>
      </trkpt>
      <trkpt lat="43.50219" lon="6.6129">
        <ele>64.55</ele>
        <time>2016-11-10T08:09:19Z</time>
      </trkpt>
      <trkpt lat="43.50218" lon="6.61295">
        <ele>64.55</ele>
        <time>2016-11-10T08:09:23Z</time>
      </trkpt>
      <trkpt lat="43.50216" lon="6.61298">
        <ele>64.55</ele>
        <time>2016-11-10T08:09:25Z</time>
      </trkpt>
      <trkpt lat="43.50214" lon="6.61302">
        <ele>64.55</ele>
        <time>2016-11-10T08:09:31Z</time>
      </trkpt>
      <trkpt lat="43.50212" lon="6.61305">
        <ele>64.55</ele>
        <time>2016-11-10T08:09:39Z</time>
      </trkpt>
      <trkpt lat="43.50219" lon="6.61292">
        <ele>65.03</ele>
        <time>2016-11-10T08:09:55Z</time>
      </trkpt>
      <trkpt lat="43.50218" lon="6.61292">
        <ele>65.03</ele>
        <time>2016-11-10T08:10:06Z</time>
      </trkpt>
      <trkpt lat="43.50218" lon="6.61291">
        <ele>64.55</ele>
        <time>2016-11-10T08:10:09Z</time>
      </trkpt>
      <trkpt lat="43.50218" lon="6.61292">
        <ele>64.55</ele>
        <time>2016-11-10T08:10:22Z</time>
      </trkpt>
      <trkpt lat="43.50218" lon="6.61292">
        <ele>65.03</ele>
        <time>2016-11-10T08:10:44Z</time>
      </trkpt>
      <trkpt lat="43.50217" lon="6.61296">
        <ele>64.55</ele>
        <time>2016-11-10T08:10:55Z</time>
      </trkpt>
      <trkpt lat="43.50213" lon="6.61302">
        <ele>64.55</ele>
        <time>2016-11-10T08:11:00Z</time>
      </trkpt>
      <trkpt lat="43.50209" lon="6.61311">
        <ele>64.55</ele>
        <time>2016-11-10T08:11:08Z</time>
      </trkpt>
      <trkpt lat="43.50206" lon="6.61317">
        <ele>63.58</ele>
        <time>2016-11-10T08:11:13Z</time>
      </trkpt>
      <trkpt lat="43.50199" lon="6.61327">
        <ele>63.1</ele>
        <time>2016-11-10T08:11:23Z</time>
      </trkpt>
      <trkpt lat="43.50195" lon="6.61338">
        <ele>62.62</ele>
        <time>2016-11-10T08:11:32Z</time>
      </trkpt>
      <trkpt lat="43.50194" lon="6.6134">
        <ele>62.62</ele>
        <time>2016-11-10T08:11:34Z</time>
      </trkpt>
      <trkpt lat="43.50189" lon="6.61348">
        <ele>62.62</ele>
        <time>2016-11-10T08:11:46Z</time>
      </trkpt>
      <trkpt lat="43.50182" lon="6.61357">
        <ele>62.14</ele>
        <time>2016-11-10T08:11:54Z</time>
      </trkpt>
      <trkpt lat="43.50181" lon="6.61362">
        <ele>61.66</ele>
        <time>2016-11-10T08:11:57Z</time>
      </trkpt>
      <trkpt lat="43.50176" lon="6.6137">
        <ele>61.18</ele>
        <time>2016-11-10T08:12:04Z</time>
      </trkpt>
      <trkpt lat="43.50172" lon="6.61376">
        <ele>60.7</ele>
        <time>2016-11-10T08:12:19Z</time>
      </trkpt>
      <trkpt lat="43.50171" lon="6.61384">
        <ele>59.26</ele>
        <time>2016-11-10T08:12:31Z</time>
      </trkpt>
      <trkpt lat="43.50173" lon="6.61388">
        <ele>58.3</ele>
        <time>2016-11-10T08:12:39Z</time>
      </trkpt>
      <trkpt lat="43.50175" lon="6.61394">
        <ele>55.41</ele>
        <time>2016-11-10T08:12:51Z</time>
      </trkpt>
      <trkpt lat="43.50182" lon="6.61401">
        <ele>54.45</ele>
        <time>2016-11-10T08:13:02Z</time>
      </trkpt>
      <trkpt lat="43.50195" lon="6.61395">
        <ele>54.45</ele>
        <time>2016-11-10T08:13:14Z</time>
      </trkpt>
      <trkpt lat="43.50203" lon="6.61394">
        <ele>54.45</ele>
        <time>2016-11-10T08:13:24Z</time>
      </trkpt>
      <trkpt lat="43.50211" lon="6.61402">
        <ele>53.97</ele>
        <time>2016-11-10T08:13:36Z</time>
      </trkpt>
      <trkpt lat="43.50214" lon="6.61405">
        <ele>53.97</ele>
        <time>2016-11-10T08:13:44Z</time>
      </trkpt>
      <trkpt lat="43.50216" lon="6.61407">
        <ele>52.53</ele>
        <time>2016-11-10T08:14:01Z</time>
      </trkpt>
      <trkpt lat="43.50217" lon="6.61407">
        <ele>51.57</ele>
        <time>2016-11-10T08:14:16Z</time>
      </trkpt>
      <trkpt lat="43.50219" lon="6.61407">
        <ele>52.53</ele>
        <time>2016-11-10T08:14:33Z</time>
      </trkpt>
      <trkpt lat="43.50218" lon="6.61409">
        <ele>52.05</ele>
        <time>2016-11-10T08:14:58Z</time>
      </trkpt>
      <trkpt lat="43.50218" lon="6.6141">
        <ele>52.05</ele>
        <time>2016-11-10T08:15:17Z</time>
      </trkpt>
      <trkpt lat="43.50218" lon="6.61411">
        <ele>53.49</ele>
        <time>2016-11-10T08:15:33Z</time>
      </trkpt>
      <trkpt lat="43.5022" lon="6.61413">
        <ele>53.49</ele>
        <time>2016-11-10T08:15:40Z</time>
      </trkpt>
      <trkpt lat="43.50222" lon="6.61415">
        <ele>53.97</ele>
        <time>2016-11-10T08:15:42Z</time>
      </trkpt>
      <trkpt lat="43.50232" lon="6.61421">
        <ele>54.45</ele>
        <time>2016-11-10T08:15:57Z</time>
      </trkpt>
      <trkpt lat="43.50231" lon="6.61422">
        <ele>54.45</ele>
        <time>2016-11-10T08:16:02Z</time>
      </trkpt>
      <trkpt lat="43.50227" lon="6.61422">
        <ele>53.97</ele>
        <time>2016-11-10T08:16:07Z</time>
      </trkpt>
      <trkpt lat="43.50223" lon="6.61419">
        <ele>53.97</ele>
        <time>2016-11-10T08:16:18Z</time>
      </trkpt>
      <trkpt lat="43.50224" lon="6.61418">
        <ele>53.97</ele>
        <time>2016-11-10T08:16:44Z</time>
      </trkpt>
      <trkpt lat="43.50224" lon="6.61421">
        <ele>54.93</ele>
        <time>2016-11-10T08:17:13Z</time>
      </trkpt>
      <trkpt lat="43.50232" lon="6.61422">
        <ele>54.45</ele>
        <time>2016-11-10T08:17:24Z</time>
      </trkpt>
      <trkpt lat="43.50238" lon="6.61425">
        <ele>53.97</ele>
        <time>2016-11-10T08:17:31Z</time>
      </trkpt>
      <trkpt lat="43.50243" lon="6.61427">
        <ele>53.97</ele>
        <time>2016-11-10T08:17:34Z</time>
      </trkpt>
      <trkpt lat="43.50247" lon="6.61432">
        <ele>54.45</ele>
        <time>2016-11-10T08:17:39Z</time>
      </trkpt>
      <trkpt lat="43.50258" lon="6.6144">
        <ele>54.45</ele>
        <time>2016-11-10T08:17:51Z</time>
      </trkpt>
      <trkpt lat="43.5026" lon="6.61444">
        <ele>54.45</ele>
        <time>2016-11-10T08:17:54Z</time>
      </trkpt>
      <trkpt lat="43.50272" lon="6.61456">
        <ele>54.93</ele>
        <time>2016-11-10T08:18:07Z</time>
      </trkpt>
      <trkpt lat="43.50272" lon="6.61458">
        <ele>54.45</ele>
        <time>2016-11-10T08:18:08Z</time>
      </trkpt>
      <trkpt lat="43.50278" lon="6.61464">
        <ele>55.41</ele>
        <time>2016-11-10T08:18:19Z</time>
      </trkpt>
      <trkpt lat="43.50288" lon="6.61473">
        <ele>56.37</ele>
        <time>2016-11-10T08:18:32Z</time>
      </trkpt>
      <trkpt lat="43.50292" lon="6.61478">
        <ele>54.93</ele>
        <time>2016-11-10T08:18:46Z</time>
      </trkpt>
      <trkpt lat="43.50295" lon="6.6148">
        <ele>58.3</ele>
        <time>2016-11-10T08:18:49Z</time>
      </trkpt>
      <trkpt lat="43.50298" lon="6.61484">
        <ele>54.93</ele>
        <time>2016-11-10T08:18:54Z</time>
      </trkpt>
      <trkpt lat="43.50299" lon="6.61485">
        <ele>59.26</ele>
        <time>2016-11-10T08:18:55Z</time>
      </trkpt>
      <trkpt lat="43.503" lon="6.61486">
        <ele>57.34</ele>
        <time>2016-11-10T08:18:56Z</time>
      </trkpt>
      <trkpt lat="43.50306" lon="6.61491">
        <ele>56.86</ele>
        <time>2016-11-10T08:19:07Z</time>
      </trkpt>
      <trkpt lat="43.50312" lon="6.61497">
        <ele>57.82</ele>
        <time>2016-11-10T08:19:21Z</time>
      </trkpt>
      <trkpt lat="43.50313" lon="6.61498">
        <ele>57.82</ele>
        <time>2016-11-10T08:19:22Z</time>
      </trkpt>
      <trkpt lat="43.5032" lon="6.61502">
        <ele>58.3</ele>
        <time>2016-11-10T08:19:29Z</time>
      </trkpt>
      <trkpt lat="43.50322" lon="6.61502">
        <ele>57.82</ele>
        <time>2016-11-10T08:19:31Z</time>
      </trkpt>
      <trkpt lat="43.50327" lon="6.61504">
        <ele>58.3</ele>
        <time>2016-11-10T08:19:45Z</time>
      </trkpt>
      <trkpt lat="43.50328" lon="6.61506">
        <ele>58.3</ele>
        <time>2016-11-10T08:19:48Z</time>
      </trkpt>
      <trkpt lat="43.5033" lon="6.61505">
        <ele>58.3</ele>
        <time>2016-11-10T08:20:01Z</time>
      </trkpt>
      <trkpt lat="43.50327" lon="6.61507">
        <ele>58.3</ele>
        <time>2016-11-10T08:20:16Z</time>
      </trkpt>
      <trkpt lat="43.50327" lon="6.61507">
        <ele>57.82</ele>
        <time>2016-11-10T08:20:43Z</time>
      </trkpt>
      <trkpt lat="43.50327" lon="6.61505">
        <ele>57.82</ele>
        <time>2016-11-10T08:21:01Z</time>
      </trkpt>
      <trkpt lat="43.50323" lon="6.61505">
        <ele>57.82</ele>
        <time>2016-11-10T08:21:15Z</time>
      </trkpt>
      <trkpt lat="43.50322" lon="6.61505">
        <ele>57.82</ele>
        <time>2016-11-10T08:21:27Z</time>
      </trkpt>
      <trkpt lat="43.50319" lon="6.61504">
        <ele>57.82</ele>
        <time>2016-11-10T08:21:35Z</time>
      </trkpt>
      <trkpt lat="43.50316" lon="6.61508">
        <ele>55.41</ele>
        <time>2016-11-10T08:21:48Z</time>
      </trkpt>
      <trkpt lat="43.50316" lon="6.61508">
        <ele>56.37</ele>
        <time>2016-11-10T08:21:49Z</time>
      </trkpt>
      <trkpt lat="43.50317" lon="6.61508">
        <ele>61.18</ele>
        <time>2016-11-10T08:21:50Z</time>
      </trkpt>
      <trkpt lat="43.50317" lon="6.61508">
        <ele>58.3</ele>
        <time>2016-11-10T08:21:51Z</time>
      </trkpt>
      <trkpt lat="43.50315" lon="6.61507">
        <ele>57.82</ele>
        <time>2016-11-10T08:21:54Z</time>
      </trkpt>
      <trkpt lat="43.50311" lon="6.61516">
        <ele>57.34</ele>
        <time>2016-11-10T08:22:05Z</time>
      </trkpt>
      <trkpt lat="43.50312" lon="6.61513">
        <ele>57.34</ele>
        <time>2016-11-10T08:22:08Z</time>
      </trkpt>
      <trkpt lat="43.50316" lon="6.61504">
        <ele>57.34</ele>
        <time>2016-11-10T08:22:16Z</time>
      </trkpt>
      <trkpt lat="43.50314" lon="6.61506">
        <ele>57.34</ele>
        <time>2016-11-10T08:22:30Z</time>
      </trkpt>
      <trkpt lat="43.50313" lon="6.61509">
        <ele>57.34</ele>
        <time>2016-11-10T08:22:33Z</time>
      </trkpt>
      <trkpt lat="43.5031" lon="6.61512">
        <ele>57.34</ele>
        <time>2016-11-10T08:22:38Z</time>
      </trkpt>
      <trkpt lat="43.50306" lon="6.61516">
        <ele>57.34</ele>
        <time>2016-11-10T08:22:43Z</time>
      </trkpt>
      <trkpt lat="43.50294" lon="6.61525">
        <ele>57.34</ele>
        <time>2016-11-10T08:22:55Z</time>
      </trkpt>
      <trkpt lat="43.5028" lon="6.61534">
        <ele>56.86</ele>
        <time>2016-11-10T08:23:07Z</time>
      </trkpt>
      <trkpt lat="43.50264" lon="6.61546">
        <ele>56.37</ele>
        <time>2016-11-10T08:23:21Z</time>
      </trkpt>
      <trkpt lat="43.5025" lon="6.61559">
        <ele>56.37</ele>
        <time>2016-11-10T08:23:34Z</time>
      </trkpt>
      <trkpt lat="43.50241" lon="6.61566">
        <ele>56.37</ele>
        <time>2016-11-10T08:23:41Z</time>
      </trkpt>
      <trkpt lat="43.5022" lon="6.61574">
        <ele>55.89</ele>
        <time>2016-11-10T08:23:58Z</time>
      </trkpt>
      <trkpt lat="43.50218" lon="6.61574">
        <ele>55.41</ele>
        <time>2016-11-10T08:23:59Z</time>
      </trkpt>
      <trkpt lat="43.50215" lon="6.61578">
        <ele>54.93</ele>
        <time>2016-11-10T08:24:02Z</time>
      </trkpt>
      <trkpt lat="43.50209" lon="6.6158">
        <ele>54.93</ele>
        <time>2016-11-10T08:24:06Z</time>
      </trkpt>
      <trkpt lat="43.50187" lon="6.61593">
        <ele>54.45</ele>
        <time>2016-11-10T08:24:23Z</time>
      </trkpt>
      <trkpt lat="43.50183" lon="6.61596">
        <ele>53.97</ele>
        <time>2016-11-10T08:24:27Z</time>
      </trkpt>
      <trkpt lat="43.5016" lon="6.6161">
        <ele>53.49</ele>
        <time>2016-11-10T08:24:46Z</time>
      </trkpt>
      <trkpt lat="43.50143" lon="6.61619">
        <ele>53.01</ele>
        <time>2016-11-10T08:25:01Z</time>
      </trkpt>
      <trkpt lat="43.50121" lon="6.6163">
        <ele>53.01</ele>
        <time>2016-11-10T08:25:17Z</time>
      </trkpt>
      <trkpt lat="43.50102" lon="6.61646">
        <ele>52.53</ele>
        <time>2016-11-10T08:25:33Z</time>
      </trkpt>
      <trkpt lat="43.50089" lon="6.61667">
        <ele>52.53</ele>
        <time>2016-11-10T08:25:48Z</time>
      </trkpt>
      <trkpt lat="43.50088" lon="6.61669">
        <ele>52.53</ele>
        <time>2016-11-10T08:25:49Z</time>
      </trkpt>
      <trkpt lat="43.50073" lon="6.61691">
        <ele>51.57</ele>
        <time>2016-11-10T08:26:06Z</time>
      </trkpt>
      <trkpt lat="43.50063" lon="6.617">
        <ele>51.57</ele>
        <time>2016-11-10T08:26:16Z</time>
      </trkpt>
      <trkpt lat="43.50048" lon="6.61715">
        <ele>51.09</ele>
        <time>2016-11-10T08:26:30Z</time>
      </trkpt>
      <trkpt lat="43.50034" lon="6.6173">
        <ele>51.09</ele>
        <time>2016-11-10T08:26:43Z</time>
      </trkpt>
      <trkpt lat="43.50031" lon="6.61736">
        <ele>51.09</ele>
        <time>2016-11-10T08:26:49Z</time>
      </trkpt>
      <trkpt lat="43.50015" lon="6.61741">
        <ele>51.09</ele>
        <time>2016-11-10T08:27:00Z</time>
      </trkpt>
      <trkpt lat="43.49994" lon="6.61753">
        <ele>50.13</ele>
        <time>2016-11-10T08:27:15Z</time>
      </trkpt>
      <trkpt lat="43.49978" lon="6.61773">
        <ele>48.68</ele>
        <time>2016-11-10T08:27:30Z</time>
      </trkpt>
      <trkpt lat="43.49964" lon="6.6179">
        <ele>48.2</ele>
        <time>2016-11-10T08:27:44Z</time>
      </trkpt>
      <trkpt lat="43.49945" lon="6.61803">
        <ele>47.24</ele>
        <time>2016-11-10T08:27:59Z</time>
      </trkpt>
      <trkpt lat="43.49931" lon="6.61802">
        <ele>46.76</ele>
        <time>2016-11-10T08:28:10Z</time>
      </trkpt>
      <trkpt lat="43.4991" lon="6.61803">
        <ele>46.28</ele>
        <time>2016-11-10T08:28:26Z</time>
      </trkpt>
      <trkpt lat="43.49894" lon="6.61809">
        <ele>45.32</ele>
        <time>2016-11-10T08:28:38Z</time>
      </trkpt>
      <trkpt lat="43.49877" lon="6.61822">
        <ele>45.32</ele>
        <time>2016-11-10T08:28:52Z</time>
      </trkpt>
      <trkpt lat="43.49867" lon="6.61827">
        <ele>45.32</ele>
        <time>2016-11-10T08:29:00Z</time>
      </trkpt>
      <trkpt lat="43.49853" lon="6.6185">
        <ele>51.09</ele>
        <time>2016-11-10T08:29:16Z</time>
      </trkpt>
      <trkpt lat="43.49852" lon="6.61852">
        <ele>46.28</ele>
        <time>2016-11-10T08:29:17Z</time>
      </trkpt>
      <trkpt lat="43.49843" lon="6.61862">
        <ele>45.8</ele>
        <time>2016-11-10T08:29:26Z</time>
      </trkpt>
      <trkpt lat="43.49821" lon="6.61869">
        <ele>45.32</ele>
        <time>2016-11-10T08:29:40Z</time>
      </trkpt>
      <trkpt lat="43.49806" lon="6.61876">
        <ele>44.84</ele>
        <time>2016-11-10T08:29:51Z</time>
      </trkpt>
      <trkpt lat="43.49799" lon="6.61879">
        <ele>44.84</ele>
        <time>2016-11-10T08:29:55Z</time>
      </trkpt>
      <trkpt lat="43.49791" lon="6.61883">
        <ele>44.36</ele>
        <time>2016-11-10T08:30:01Z</time>
      </trkpt>
      <trkpt lat="43.49787" lon="6.61888">
        <ele>44.36</ele>
        <time>2016-11-10T08:30:05Z</time>
      </trkpt>
      <trkpt lat="43.49772" lon="6.61913">
        <ele>44.36</ele>
        <time>2016-11-10T08:30:22Z</time>
      </trkpt>
      <trkpt lat="43.49768" lon="6.6192">
        <ele>43.4</ele>
        <time>2016-11-10T08:30:27Z</time>
      </trkpt>
      <trkpt lat="43.49764" lon="6.61926">
        <ele>42.92</ele>
        <time>2016-11-10T08:30:32Z</time>
      </trkpt>
      <trkpt lat="43.49762" lon="6.61933">
        <ele>42.92</ele>
        <time>2016-11-10T08:30:37Z</time>
      </trkpt>
      <trkpt lat="43.4976" lon="6.6194">
        <ele>42.44</ele>
        <time>2016-11-10T08:30:50Z</time>
      </trkpt>
      <trkpt lat="43.49757" lon="6.61941">
        <ele>42.92</ele>
        <time>2016-11-10T08:31:06Z</time>
      </trkpt>
      <trkpt lat="43.49758" lon="6.61935">
        <ele>43.4</ele>
        <time>2016-11-10T08:31:18Z</time>
      </trkpt>
      <trkpt lat="43.49755" lon="6.61931">
        <ele>43.88</ele>
        <time>2016-11-10T08:31:29Z</time>
      </trkpt>
      <trkpt lat="43.49753" lon="6.61936">
        <ele>43.4</ele>
        <time>2016-11-10T08:31:41Z</time>
      </trkpt>
      <trkpt lat="43.49754" lon="6.61942">
        <ele>43.4</ele>
        <time>2016-11-10T08:31:44Z</time>
      </trkpt>
      <trkpt lat="43.49756" lon="6.61946">
        <ele>43.4</ele>
        <time>2016-11-10T08:31:54Z</time>
      </trkpt>
      <trkpt lat="43.49757" lon="6.61947">
        <ele>43.4</ele>
        <time>2016-11-10T08:32:14Z</time>
      </trkpt>
      <trkpt lat="43.49757" lon="6.61947">
        <ele>43.4</ele>
        <time>2016-11-10T08:32:39Z</time>
      </trkpt>
      <trkpt lat="43.49758" lon="6.61948">
        <ele>43.4</ele>
        <time>2016-11-10T08:33:10Z</time>
      </trkpt>
      <trkpt lat="43.49759" lon="6.61947">
        <ele>42.92</ele>
        <time>2016-11-10T08:33:40Z</time>
      </trkpt>
      <trkpt lat="43.4976" lon="6.61948">
        <ele>43.88</ele>
        <time>2016-11-10T08:34:11Z</time>
      </trkpt>
      <trkpt lat="43.4976" lon="6.61946">
        <ele>42.44</ele>
        <time>2016-11-10T08:34:35Z</time>
      </trkpt>
      <trkpt lat="43.49759" lon="6.61945">
        <ele>42.92</ele>
        <time>2016-11-10T08:35:02Z</time>
      </trkpt>
      <trkpt lat="43.49759" lon="6.61945">
        <ele>42.92</ele>
        <time>2016-11-10T08:35:03Z</time>
      </trkpt>
      <trkpt lat="43.49758" lon="6.61948">
        <ele>43.4</ele>
        <time>2016-11-10T08:35:05Z</time>
      </trkpt>
      <trkpt lat="43.4975" lon="6.61963">
        <ele>44.36</ele>
        <time>2016-11-10T08:35:18Z</time>
      </trkpt>
      <trkpt lat="43.49743" lon="6.61978">
        <ele>45.8</ele>
        <time>2016-11-10T08:35:31Z</time>
      </trkpt>
      <trkpt lat="43.49743" lon="6.61979">
        <ele>45.8</ele>
        <time>2016-11-10T08:35:46Z</time>
      </trkpt>
      <trkpt lat="43.49742" lon="6.61979">
        <ele>45.8</ele>
        <time>2016-11-10T08:35:51Z</time>
      </trkpt>
      <trkpt lat="43.4974" lon="6.61979">
        <ele>46.28</ele>
        <time>2016-11-10T08:35:53Z</time>
      </trkpt>
      <trkpt lat="43.49738" lon="6.6198">
        <ele>46.76</ele>
        <time>2016-11-10T08:35:57Z</time>
      </trkpt>
      <trkpt lat="43.49721" lon="6.61979">
        <ele>47.72</ele>
        <time>2016-11-10T08:36:12Z</time>
      </trkpt>
      <trkpt lat="43.4972" lon="6.61979">
        <ele>47.72</ele>
        <time>2016-11-10T08:36:14Z</time>
      </trkpt>
      <trkpt lat="43.49714" lon="6.61977">
        <ele>47.72</ele>
        <time>2016-11-10T08:36:19Z</time>
      </trkpt>
      <trkpt lat="43.49699" lon="6.61974">
        <ele>48.68</ele>
        <time>2016-11-10T08:36:31Z</time>
      </trkpt>
      <trkpt lat="43.49685" lon="6.61985">
        <ele>49.65</ele>
        <time>2016-11-10T08:36:43Z</time>
      </trkpt>
      <trkpt lat="43.49673" lon="6.62005">
        <ele>51.57</ele>
        <time>2016-11-10T08:36:58Z</time>
      </trkpt>
      <trkpt lat="43.49671" lon="6.62008">
        <ele>51.57</ele>
        <time>2016-11-10T08:37:00Z</time>
      </trkpt>
      <trkpt lat="43.49668" lon="6.62011">
        <ele>52.05</ele>
        <time>2016-11-10T08:37:03Z</time>
      </trkpt>
      <trkpt lat="43.49657" lon="6.62016">
        <ele>53.01</ele>
        <time>2016-11-10T08:37:12Z</time>
      </trkpt>
      <trkpt lat="43.49655" lon="6.62018">
        <ele>46.76</ele>
        <time>2016-11-10T08:37:14Z</time>
      </trkpt>
      <trkpt lat="43.49653" lon="6.62018">
        <ele>57.34</ele>
        <time>2016-11-10T08:37:15Z</time>
      </trkpt>
      <trkpt lat="43.49652" lon="6.62018">
        <ele>53.01</ele>
        <time>2016-11-10T08:37:16Z</time>
      </trkpt>
      <trkpt lat="43.49635" lon="6.6202">
        <ele>53.49</ele>
        <time>2016-11-10T08:37:29Z</time>
      </trkpt>
      <trkpt lat="43.49631" lon="6.6202">
        <ele>53.49</ele>
        <time>2016-11-10T08:37:32Z</time>
      </trkpt>
      <trkpt lat="43.4961" lon="6.62012">
        <ele>53.97</ele>
        <time>2016-11-10T08:37:47Z</time>
      </trkpt>
      <trkpt lat="43.49588" lon="6.62006">
        <ele>53.97</ele>
        <time>2016-11-10T08:38:03Z</time>
      </trkpt>
      <trkpt lat="43.49569" lon="6.61995">
        <ele>53.97</ele>
        <time>2016-11-10T08:38:17Z</time>
      </trkpt>
      <trkpt lat="43.49553" lon="6.61982">
        <ele>54.45</ele>
        <time>2016-11-10T08:38:31Z</time>
      </trkpt>
      <trkpt lat="43.49537" lon="6.61969">
        <ele>53.01</ele>
        <time>2016-11-10T08:38:46Z</time>
      </trkpt>
      <trkpt lat="43.49524" lon="6.61962">
        <ele>53.01</ele>
        <time>2016-11-10T08:38:54Z</time>
      </trkpt>
      <trkpt lat="43.4952" lon="6.61957">
        <ele>52.53</ele>
        <time>2016-11-10T08:38:58Z</time>
      </trkpt>
      <trkpt lat="43.49503" lon="6.61944">
        <ele>51.09</ele>
        <time>2016-11-10T08:39:13Z</time>
      </trkpt>
      <trkpt lat="43.49495" lon="6.61938">
        <ele>51.09</ele>
        <time>2016-11-10T08:39:19Z</time>
      </trkpt>
      <trkpt lat="43.49491" lon="6.61937">
        <ele>51.09</ele>
        <time>2016-11-10T08:39:22Z</time>
      </trkpt>
      <trkpt lat="43.49475" lon="6.61925">
        <ele>51.09</ele>
        <time>2016-11-10T08:39:36Z</time>
      </trkpt>
      <trkpt lat="43.49459" lon="6.61914">
        <ele>52.05</ele>
        <time>2016-11-10T08:39:51Z</time>
      </trkpt>
      <trkpt lat="43.49441" lon="6.61905">
        <ele>52.53</ele>
        <time>2016-11-10T08:40:04Z</time>
      </trkpt>
      <trkpt lat="43.49425" lon="6.61896">
        <ele>53.01</ele>
        <time>2016-11-10T08:40:18Z</time>
      </trkpt>
      <trkpt lat="43.49425" lon="6.61894">
        <ele>53.01</ele>
        <time>2016-11-10T08:40:34Z</time>
      </trkpt>
      <trkpt lat="43.49425" lon="6.61895">
        <ele>53.49</ele>
        <time>2016-11-10T08:40:56Z</time>
      </trkpt>
      <trkpt lat="43.49424" lon="6.61891">
        <ele>53.01</ele>
        <time>2016-11-10T08:41:10Z</time>
      </trkpt>
      <trkpt lat="43.49422" lon="6.61891">
        <ele>52.53</ele>
        <time>2016-11-10T08:41:32Z</time>
      </trkpt>
      <trkpt lat="43.49422" lon="6.61887">
        <ele>52.53</ele>
        <time>2016-11-10T08:41:42Z</time>
      </trkpt>
      <trkpt lat="43.49423" lon="6.61883">
        <ele>53.01</ele>
        <time>2016-11-10T08:41:45Z</time>
      </trkpt>
      <trkpt lat="43.49425" lon="6.61878">
        <ele>53.49</ele>
        <time>2016-11-10T08:42:00Z</time>
      </trkpt>
      <trkpt lat="43.49429" lon="6.61868">
        <ele>53.97</ele>
        <time>2016-11-10T08:42:12Z</time>
      </trkpt>
      <trkpt lat="43.49433" lon="6.6186">
        <ele>54.45</ele>
        <time>2016-11-10T08:42:18Z</time>
      </trkpt>
      <trkpt lat="43.49434" lon="6.61854">
        <ele>53.97</ele>
        <time>2016-11-10T08:42:22Z</time>
      </trkpt>
      <trkpt lat="43.49433" lon="6.61847">
        <ele>54.93</ele>
        <time>2016-11-10T08:42:39Z</time>
      </trkpt>
      <trkpt lat="43.49433" lon="6.61846">
        <ele>53.97</ele>
        <time>2016-11-10T08:42:53Z</time>
      </trkpt>
      <trkpt lat="43.49433" lon="6.61846">
        <ele>53.97</ele>
        <time>2016-11-10T08:42:54Z</time>
      </trkpt>
      <trkpt lat="43.49433" lon="6.61845">
        <ele>53.97</ele>
        <time>2016-11-10T08:42:56Z</time>
      </trkpt>
      <trkpt lat="43.49428" lon="6.61839">
        <ele>53.97</ele>
        <time>2016-11-10T08:43:01Z</time>
      </trkpt>
      <trkpt lat="43.49408" lon="6.61826">
        <ele>52.05</ele>
        <time>2016-11-10T08:43:18Z</time>
      </trkpt>
      <trkpt lat="43.49393" lon="6.61821">
        <ele>50.13</ele>
        <time>2016-11-10T08:43:31Z</time>
      </trkpt>
      <trkpt lat="43.49374" lon="6.61817">
        <ele>48.68</ele>
        <time>2016-11-10T08:43:45Z</time>
      </trkpt>
      <trkpt lat="43.49357" lon="6.61813">
        <ele>48.68</ele>
        <time>2016-11-10T08:43:58Z</time>
      </trkpt>
      <trkpt lat="43.4935" lon="6.61812">
        <ele>48.2</ele>
        <time>2016-11-10T08:44:03Z</time>
      </trkpt>
      <trkpt lat="43.49333" lon="6.6182">
        <ele>48.2</ele>
        <time>2016-11-10T08:44:18Z</time>
      </trkpt>
      <trkpt lat="43.49315" lon="6.61826">
        <ele>48.68</ele>
        <time>2016-11-10T08:44:33Z</time>
      </trkpt>
      <trkpt lat="43.49304" lon="6.61832">
        <ele>48.68</ele>
        <time>2016-11-10T08:44:47Z</time>
      </trkpt>
      <trkpt lat="43.49304" lon="6.61832">
        <ele>48.68</ele>
        <time>2016-11-10T08:44:49Z</time>
      </trkpt>
      <trkpt lat="43.49301" lon="6.61833">
        <ele>48.68</ele>
        <time>2016-11-10T08:44:53Z</time>
      </trkpt>
      <trkpt lat="43.49282" lon="6.61842">
        <ele>49.16</ele>
        <time>2016-11-10T08:45:08Z</time>
      </trkpt>
      <trkpt lat="43.49276" lon="6.61845">
        <ele>49.16</ele>
        <time>2016-11-10T08:45:12Z</time>
      </trkpt>
      <trkpt lat="43.49265" lon="6.61854">
        <ele>49.16</ele>
        <time>2016-11-10T08:45:20Z</time>
      </trkpt>
      <trkpt lat="43.49255" lon="6.61859">
        <ele>50.13</ele>
        <time>2016-11-10T08:45:28Z</time>
      </trkpt>
      <trkpt lat="43.49233" lon="6.61865">
        <ele>51.09</ele>
        <time>2016-11-10T08:45:42Z</time>
      </trkpt>
      <trkpt lat="43.49213" lon="6.61875">
        <ele>51.09</ele>
        <time>2016-11-10T08:45:57Z</time>
      </trkpt>
      <trkpt lat="43.49211" lon="6.61876">
        <ele>51.09</ele>
        <time>2016-11-10T08:45:59Z</time>
      </trkpt>
      <trkpt lat="43.49201" lon="6.61882">
        <ele>52.05</ele>
        <time>2016-11-10T08:46:08Z</time>
      </trkpt>
      <trkpt lat="43.49185" lon="6.6189">
        <ele>50.61</ele>
        <time>2016-11-10T08:46:22Z</time>
      </trkpt>
      <trkpt lat="43.49184" lon="6.61891">
        <ele>50.61</ele>
        <time>2016-11-10T08:46:23Z</time>
      </trkpt>
      <trkpt lat="43.49183" lon="6.61893">
        <ele>53.01</ele>
        <time>2016-11-10T08:46:25Z</time>
      </trkpt>
      <trkpt lat="43.49179" lon="6.61897">
        <ele>46.76</ele>
        <time>2016-11-10T08:46:28Z</time>
      </trkpt>
      <trkpt lat="43.49178" lon="6.61898">
        <ele>56.86</ele>
        <time>2016-11-10T08:46:29Z</time>
      </trkpt>
      <trkpt lat="43.49177" lon="6.61899">
        <ele>51.09</ele>
        <time>2016-11-10T08:46:30Z</time>
      </trkpt>
      <trkpt lat="43.49176" lon="6.61899">
        <ele>56.86</ele>
        <time>2016-11-10T08:46:31Z</time>
      </trkpt>
      <trkpt lat="43.49175" lon="6.61899">
        <ele>53.01</ele>
        <time>2016-11-10T08:46:32Z</time>
      </trkpt>
      <trkpt lat="43.49172" lon="6.61898">
        <ele>53.01</ele>
        <time>2016-11-10T08:46:38Z</time>
      </trkpt>
      <trkpt lat="43.49164" lon="6.61905">
        <ele>52.53</ele>
        <time>2016-11-10T08:46:49Z</time>
      </trkpt>
      <trkpt lat="43.49161" lon="6.61907">
        <ele>52.05</ele>
        <time>2016-11-10T08:47:04Z</time>
      </trkpt>
      <trkpt lat="43.49162" lon="6.61906">
        <ele>52.05</ele>
        <time>2016-11-10T08:47:27Z</time>
      </trkpt>
      <trkpt lat="43.49161" lon="6.61905">
        <ele>52.53</ele>
        <time>2016-11-10T08:47:50Z</time>
      </trkpt>
      <trkpt lat="43.49158" lon="6.61905">
        <ele>52.05</ele>
        <time>2016-11-10T08:47:56Z</time>
      </trkpt>
      <trkpt lat="43.49153" lon="6.61906">
        <ele>52.05</ele>
        <time>2016-11-10T08:48:00Z</time>
      </trkpt>
      <trkpt lat="43.49152" lon="6.61907">
        <ele>51.09</ele>
        <time>2016-11-10T08:48:15Z</time>
      </trkpt>
      <trkpt lat="43.49151" lon="6.61907">
        <ele>51.09</ele>
        <time>2016-11-10T08:48:22Z</time>
      </trkpt>
      <trkpt lat="43.49135" lon="6.61907">
        <ele>50.61</ele>
        <time>2016-11-10T08:48:34Z</time>
      </trkpt>
      <trkpt lat="43.49118" lon="6.61902">
        <ele>50.61</ele>
        <time>2016-11-10T08:48:47Z</time>
      </trkpt>
      <trkpt lat="43.49109" lon="6.61901">
        <ele>50.13</ele>
        <time>2016-11-10T08:48:54Z</time>
      </trkpt>
      <trkpt lat="43.49092" lon="6.61902">
        <ele>44.84</ele>
        <time>2016-11-10T08:49:05Z</time>
      </trkpt>
      <trkpt lat="43.49091" lon="6.61902">
        <ele>53.97</ele>
        <time>2016-11-10T08:49:06Z</time>
      </trkpt>
      <trkpt lat="43.4909" lon="6.61902">
        <ele>47.72</ele>
        <time>2016-11-10T08:49:07Z</time>
      </trkpt>
      <trkpt lat="43.49088" lon="6.61902">
        <ele>51.57</ele>
        <time>2016-11-10T08:49:08Z</time>
      </trkpt>
      <trkpt lat="43.49085" lon="6.61902">
        <ele>49.65</ele>
        <time>2016-11-10T08:49:11Z</time>
      </trkpt>
      <trkpt lat="43.49072" lon="6.61905">
        <ele>47.72</ele>
        <time>2016-11-10T08:49:21Z</time>
      </trkpt>
      <trkpt lat="43.49061" lon="6.61908">
        <ele>45.8</ele>
        <time>2016-11-10T08:49:31Z</time>
      </trkpt>
      <trkpt lat="43.49048" lon="6.61913">
        <ele>46.28</ele>
        <time>2016-11-10T08:49:39Z</time>
      </trkpt>
      <trkpt lat="43.49033" lon="6.61918">
        <ele>44.84</ele>
        <time>2016-11-10T08:49:52Z</time>
      </trkpt>
      <trkpt lat="43.49022" lon="6.61919">
        <ele>43.88</ele>
        <time>2016-11-10T08:50:05Z</time>
      </trkpt>
      <trkpt lat="43.49019" lon="6.61918">
        <ele>43.88</ele>
        <time>2016-11-10T08:50:14Z</time>
      </trkpt>
      <trkpt lat="43.49013" lon="6.61921">
        <ele>43.4</ele>
        <time>2016-11-10T08:50:19Z</time>
      </trkpt>
      <trkpt lat="43.48994" lon="6.61926">
        <ele>42.92</ele>
        <time>2016-11-10T08:50:34Z</time>
      </trkpt>
      <trkpt lat="43.48972" lon="6.61935">
        <ele>43.4</ele>
        <time>2016-11-10T08:50:50Z</time>
      </trkpt>
      <trkpt lat="43.48966" lon="6.61937">
        <ele>43.88</ele>
        <time>2016-11-10T08:50:55Z</time>
      </trkpt>
      <trkpt lat="43.48949" lon="6.61945">
        <ele>44.84</ele>
        <time>2016-11-10T08:51:08Z</time>
      </trkpt>
      <trkpt lat="43.48946" lon="6.61946">
        <ele>45.32</ele>
        <time>2016-11-10T08:51:11Z</time>
      </trkpt>
      <trkpt lat="43.48939" lon="6.61944">
        <ele>45.32</ele>
        <time>2016-11-10T08:51:17Z</time>
      </trkpt>
      <trkpt lat="43.4892" lon="6.61941">
        <ele>45.8</ele>
        <time>2016-11-10T08:51:31Z</time>
      </trkpt>
      <trkpt lat="43.48915" lon="6.61942">
        <ele>46.28</ele>
        <time>2016-11-10T08:51:35Z</time>
      </trkpt>
      <trkpt lat="43.48899" lon="6.61942">
        <ele>47.72</ele>
        <time>2016-11-10T08:51:48Z</time>
      </trkpt>
      <trkpt lat="43.48894" lon="6.61942">
        <ele>47.72</ele>
        <time>2016-11-10T08:51:52Z</time>
      </trkpt>
      <trkpt lat="43.48872" lon="6.6194">
        <ele>49.16</ele>
        <time>2016-11-10T08:52:08Z</time>
      </trkpt>
      <trkpt lat="43.48851" lon="6.61946">
        <ele>51.57</ele>
        <time>2016-11-10T08:52:23Z</time>
      </trkpt>
      <trkpt lat="43.48835" lon="6.61954">
        <ele>53.49</ele>
        <time>2016-11-10T08:52:36Z</time>
      </trkpt>
      <trkpt lat="43.48825" lon="6.61956">
        <ele>53.97</ele>
        <time>2016-11-10T08:52:45Z</time>
      </trkpt>
      <trkpt lat="43.48823" lon="6.61957">
        <ele>54.45</ele>
        <time>2016-11-10T08:52:47Z</time>
      </trkpt>
      <trkpt lat="43.48818" lon="6.61958">
        <ele>54.93</ele>
        <time>2016-11-10T08:52:57Z</time>
      </trkpt>
      <trkpt lat="43.48815" lon="6.61959">
        <ele>55.41</ele>
        <time>2016-11-10T08:53:00Z</time>
      </trkpt>
      <trkpt lat="43.48811" lon="6.61961">
        <ele>55.41</ele>
        <time>2016-11-10T08:53:04Z</time>
      </trkpt>
      <trkpt lat="43.48805" lon="6.61964">
        <ele>55.89</ele>
        <time>2016-11-10T08:53:09Z</time>
      </trkpt>
      <trkpt lat="43.48788" lon="6.61964">
        <ele>57.34</ele>
        <time>2016-11-10T08:53:21Z</time>
      </trkpt>
      <trkpt lat="43.48769" lon="6.6197">
        <ele>58.3</ele>
        <time>2016-11-10T08:53:35Z</time>
      </trkpt>
      <trkpt lat="43.48766" lon="6.61972">
        <ele>58.3</ele>
        <time>2016-11-10T08:53:37Z</time>
      </trkpt>
      <trkpt lat="43.48752" lon="6.61975">
        <ele>59.26</ele>
        <time>2016-11-10T08:53:48Z</time>
      </trkpt>
      <trkpt lat="43.48744" lon="6.61975">
        <ele>59.74</ele>
        <time>2016-11-10T08:53:54Z</time>
      </trkpt>
      <trkpt lat="43.48722" lon="6.61973">
        <ele>60.22</ele>
        <time>2016-11-10T08:54:09Z</time>
      </trkpt>
      <trkpt lat="43.48703" lon="6.61975">
        <ele>62.14</ele>
        <time>2016-11-10T08:54:23Z</time>
      </trkpt>
      <trkpt lat="43.48683" lon="6.61971">
        <ele>62.62</ele>
        <time>2016-11-10T08:54:39Z</time>
      </trkpt>
      <trkpt lat="43.48676" lon="6.61971">
        <ele>62.62</ele>
        <time>2016-11-10T08:54:52Z</time>
      </trkpt>
      <trkpt lat="43.48674" lon="6.61972">
        <ele>62.62</ele>
        <time>2016-11-10T08:54:54Z</time>
      </trkpt>
      <trkpt lat="43.4867" lon="6.61971">
        <ele>62.62</ele>
        <time>2016-11-10T08:55:06Z</time>
      </trkpt>
      <trkpt lat="43.48669" lon="6.6197">
        <ele>62.62</ele>
        <time>2016-11-10T08:55:08Z</time>
      </trkpt>
      <trkpt lat="43.48662" lon="6.6197">
        <ele>62.14</ele>
        <time>2016-11-10T08:55:13Z</time>
      </trkpt>
      <trkpt lat="43.48642" lon="6.61959">
        <ele>60.7</ele>
        <time>2016-11-10T08:55:29Z</time>
      </trkpt>
      <trkpt lat="43.48627" lon="6.61941">
        <ele>58.3</ele>
        <time>2016-11-10T08:55:43Z</time>
      </trkpt>
      <trkpt lat="43.48619" lon="6.61929">
        <ele>56.86</ele>
        <time>2016-11-10T08:55:53Z</time>
      </trkpt>
      <trkpt lat="43.48614" lon="6.61928">
        <ele>55.89</ele>
        <time>2016-11-10T08:55:57Z</time>
      </trkpt>
      <trkpt lat="43.48598" lon="6.61924">
        <ele>53.49</ele>
        <time>2016-11-10T08:56:09Z</time>
      </trkpt>
      <trkpt lat="43.48597" lon="6.61924">
        <ele>53.97</ele>
        <time>2016-11-10T08:56:10Z</time>
      </trkpt>
      <trkpt lat="43.48592" lon="6.61925">
        <ele>54.45</ele>
        <time>2016-11-10T08:56:17Z</time>
      </trkpt>
      <trkpt lat="43.4859" lon="6.61926">
        <ele>53.01</ele>
        <time>2016-11-10T08:56:28Z</time>
      </trkpt>
      <trkpt lat="43.48589" lon="6.61926">
        <ele>53.97</ele>
        <time>2016-11-10T08:56:44Z</time>
      </trkpt>
      <trkpt lat="43.48587" lon="6.61925">
        <ele>53.97</ele>
        <time>2016-11-10T08:56:54Z</time>
      </trkpt>
      <trkpt lat="43.48573" lon="6.61926">
        <ele>54.93</ele>
        <time>2016-11-10T08:57:08Z</time>
      </trkpt>
      <trkpt lat="43.48568" lon="6.61929">
        <ele>55.41</ele>
        <time>2016-11-10T08:57:12Z</time>
      </trkpt>
      <trkpt lat="43.48555" lon="6.61942">
        <ele>57.82</ele>
        <time>2016-11-10T08:57:26Z</time>
      </trkpt>
      <trkpt lat="43.48541" lon="6.61957">
        <ele>59.74</ele>
        <time>2016-11-10T08:57:40Z</time>
      </trkpt>
      <trkpt lat="43.48532" lon="6.61963">
        <ele>60.7</ele>
        <time>2016-11-10T08:57:51Z</time>
      </trkpt>
      <trkpt lat="43.4853" lon="6.61964">
        <ele>61.18</ele>
        <time>2016-11-10T08:57:54Z</time>
      </trkpt>
      <trkpt lat="43.4852" lon="6.61967">
        <ele>61.66</ele>
        <time>2016-11-10T08:58:02Z</time>
      </trkpt>
      <trkpt lat="43.48519" lon="6.61968">
        <ele>62.14</ele>
        <time>2016-11-10T08:58:04Z</time>
      </trkpt>
      <trkpt lat="43.48497" lon="6.61974">
        <ele>64.07</ele>
        <time>2016-11-10T08:58:21Z</time>
      </trkpt>
      <trkpt lat="43.48479" lon="6.61976">
        <ele>65.51</ele>
        <time>2016-11-10T08:58:35Z</time>
      </trkpt>
      <trkpt lat="43.48463" lon="6.61976">
        <ele>66.95</ele>
        <time>2016-11-10T08:58:49Z</time>
      </trkpt>
      <trkpt lat="43.48445" lon="6.61975">
        <ele>69.35</ele>
        <time>2016-11-10T08:59:04Z</time>
      </trkpt>
      <trkpt lat="43.48426" lon="6.61974">
        <ele>70.31</ele>
        <time>2016-11-10T08:59:19Z</time>
      </trkpt>
      <trkpt lat="43.48412" lon="6.61974">
        <ele>70.79</ele>
        <time>2016-11-10T08:59:34Z</time>
      </trkpt>
      <trkpt lat="43.4841" lon="6.61974">
        <ele>71.76</ele>
        <time>2016-11-10T08:59:45Z</time>
      </trkpt>
      <trkpt lat="43.48408" lon="6.61974">
        <ele>71.27</ele>
        <time>2016-11-10T09:00:06Z</time>
      </trkpt>
      <trkpt lat="43.48398" lon="6.61972">
        <ele>71.76</ele>
        <time>2016-11-10T09:00:16Z</time>
      </trkpt>
      <trkpt lat="43.48395" lon="6.61971">
        <ele>71.76</ele>
        <time>2016-11-10T09:00:19Z</time>
      </trkpt>
      <trkpt lat="43.48387" lon="6.61967">
        <ele>72.24</ele>
        <time>2016-11-10T09:00:26Z</time>
      </trkpt>
      <trkpt lat="43.48379" lon="6.61967">
        <ele>71.76</ele>
        <time>2016-11-10T09:00:31Z</time>
      </trkpt>
      <trkpt lat="43.4837" lon="6.61968">
        <ele>75.6</ele>
        <time>2016-11-10T09:00:37Z</time>
      </trkpt>
      <trkpt lat="43.48348" lon="6.61968">
        <ele>71.76</ele>
        <time>2016-11-10T09:00:52Z</time>
      </trkpt>
      <trkpt lat="43.48326" lon="6.61962">
        <ele>71.27</ele>
        <time>2016-11-10T09:01:08Z</time>
      </trkpt>
      <trkpt lat="43.48322" lon="6.61961">
        <ele>70.79</ele>
        <time>2016-11-10T09:01:22Z</time>
      </trkpt>
      <trkpt lat="43.48321" lon="6.61961">
        <ele>65.51</ele>
        <time>2016-11-10T09:01:30Z</time>
      </trkpt>
      <trkpt lat="43.48321" lon="6.61961">
        <ele>75.6</ele>
        <time>2016-11-10T09:01:31Z</time>
      </trkpt>
      <trkpt lat="43.48321" lon="6.61961">
        <ele>71.76</ele>
        <time>2016-11-10T09:01:32Z</time>
      </trkpt>
      <trkpt lat="43.48321" lon="6.61961">
        <ele>70.79</ele>
        <time>2016-11-10T09:01:34Z</time>
      </trkpt>
      <trkpt lat="43.48319" lon="6.61962">
        <ele>70.79</ele>
        <time>2016-11-10T09:01:40Z</time>
      </trkpt>
      <trkpt lat="43.48302" lon="6.61949">
        <ele>69.83</ele>
        <time>2016-11-10T09:01:56Z</time>
      </trkpt>
      <trkpt lat="43.48294" lon="6.61938">
        <ele>69.35</ele>
        <time>2016-11-10T09:02:05Z</time>
      </trkpt>
      <trkpt lat="43.48293" lon="6.61935">
        <ele>68.87</ele>
        <time>2016-11-10T09:02:07Z</time>
      </trkpt>
      <trkpt lat="43.4829" lon="6.61929">
        <ele>68.39</ele>
        <time>2016-11-10T09:02:12Z</time>
      </trkpt>
      <trkpt lat="43.48286" lon="6.61924">
        <ele>67.91</ele>
        <time>2016-11-10T09:02:16Z</time>
      </trkpt>
      <trkpt lat="43.4828" lon="6.61916">
        <ele>68.39</ele>
        <time>2016-11-10T09:02:23Z</time>
      </trkpt>
      <trkpt lat="43.48272" lon="6.61905">
        <ele>67.43</ele>
        <time>2016-11-10T09:02:34Z</time>
      </trkpt>
      <trkpt lat="43.48268" lon="6.61903">
        <ele>67.43</ele>
        <time>2016-11-10T09:02:36Z</time>
      </trkpt>
      <trkpt lat="43.48261" lon="6.61897">
        <ele>67.43</ele>
        <time>2016-11-10T09:02:39Z</time>
      </trkpt>
      <trkpt lat="43.48258" lon="6.61895">
        <ele>66.47</ele>
        <time>2016-11-10T09:02:43Z</time>
      </trkpt>
      <trkpt lat="43.48253" lon="6.61891">
        <ele>66.47</ele>
        <time>2016-11-10T09:02:48Z</time>
      </trkpt>
      <trkpt lat="43.48235" lon="6.61896">
        <ele>65.51</ele>
        <time>2016-11-10T09:03:02Z</time>
      </trkpt>
      <trkpt lat="43.48225" lon="6.61912">
        <ele>67.43</ele>
        <time>2016-11-10T09:03:14Z</time>
      </trkpt>
      <trkpt lat="43.48222" lon="6.61916">
        <ele>67.43</ele>
        <time>2016-11-10T09:03:17Z</time>
      </trkpt>
      <trkpt lat="43.48216" lon="6.61925">
        <ele>67.43</ele>
        <time>2016-11-10T09:03:24Z</time>
      </trkpt>
      <trkpt lat="43.48214" lon="6.61927">
        <ele>67.43</ele>
        <time>2016-11-10T09:03:26Z</time>
      </trkpt>
      <trkpt lat="43.48195" lon="6.61937">
        <ele>68.39</ele>
        <time>2016-11-10T09:03:41Z</time>
      </trkpt>
      <trkpt lat="43.48182" lon="6.61961">
        <ele>68.87</ele>
        <time>2016-11-10T09:03:56Z</time>
      </trkpt>
      <trkpt lat="43.48169" lon="6.6198">
        <ele>69.35</ele>
        <time>2016-11-10T09:04:09Z</time>
      </trkpt>
      <trkpt lat="43.48151" lon="6.62005">
        <ele>69.83</ele>
        <time>2016-11-10T09:04:28Z</time>
      </trkpt>
      <trkpt lat="43.4814" lon="6.62022">
        <ele>70.79</ele>
        <time>2016-11-10T09:04:41Z</time>
      </trkpt>
      <trkpt lat="43.48125" lon="6.62037">
        <ele>71.76</ele>
        <time>2016-11-10T09:04:55Z</time>
      </trkpt>
      <trkpt lat="43.4812" lon="6.62047">
        <ele>72.72</ele>
        <time>2016-11-10T09:05:02Z</time>
      </trkpt>
      <trkpt lat="43.48108" lon="6.62067">
        <ele>74.64</ele>
        <time>2016-11-10T09:05:17Z</time>
      </trkpt>
      <trkpt lat="43.48101" lon="6.62081">
        <ele>76.08</ele>
        <time>2016-11-10T09:05:27Z</time>
      </trkpt>
      <trkpt lat="43.48083" lon="6.62092">
        <ele>78.48</ele>
        <time>2016-11-10T09:05:43Z</time>
      </trkpt>
      <trkpt lat="43.48062" lon="6.62099">
        <ele>79.93</ele>
        <time>2016-11-10T09:05:59Z</time>
      </trkpt>
      <trkpt lat="43.4805" lon="6.62102">
        <ele>80.41</ele>
        <time>2016-11-10T09:06:14Z</time>
      </trkpt>
      <trkpt lat="43.4805" lon="6.62102">
        <ele>80.41</ele>
        <time>2016-11-10T09:06:34Z</time>
      </trkpt>
      <trkpt lat="43.48032" lon="6.6211">
        <ele>80.89</ele>
        <time>2016-11-10T09:06:49Z</time>
      </trkpt>
      <trkpt lat="43.48024" lon="6.62113">
        <ele>80.89</ele>
        <time>2016-11-10T09:06:55Z</time>
      </trkpt>
      <trkpt lat="43.48021" lon="6.62111">
        <ele>81.37</ele>
        <time>2016-11-10T09:06:58Z</time>
      </trkpt>
      <trkpt lat="43.48019" lon="6.62111">
        <ele>81.37</ele>
        <time>2016-11-10T09:07:00Z</time>
      </trkpt>
      <trkpt lat="43.48016" lon="6.6211">
        <ele>81.37</ele>
        <time>2016-11-10T09:07:03Z</time>
      </trkpt>
      <trkpt lat="43.48008" lon="6.62111">
        <ele>80.89</ele>
        <time>2016-11-10T09:07:09Z</time>
      </trkpt>
      <trkpt lat="43.47989" lon="6.62108">
        <ele>80.89</ele>
        <time>2016-11-10T09:07:24Z</time>
      </trkpt>
      <trkpt lat="43.47988" lon="6.62108">
        <ele>80.89</ele>
        <time>2016-11-10T09:07:25Z</time>
      </trkpt>
      <trkpt lat="43.47976" lon="6.62107">
        <ele>79.93</ele>
        <time>2016-11-10T09:07:34Z</time>
      </trkpt>
      <trkpt lat="43.47968" lon="6.62104">
        <ele>79.93</ele>
        <time>2016-11-10T09:07:40Z</time>
      </trkpt>
      <trkpt lat="43.47947" lon="6.62094">
        <ele>78</ele>
        <time>2016-11-10T09:07:55Z</time>
      </trkpt>
      <trkpt lat="43.47946" lon="6.62094">
        <ele>78</ele>
        <time>2016-11-10T09:07:56Z</time>
      </trkpt>
      <trkpt lat="43.47944" lon="6.62092">
        <ele>78.48</ele>
        <time>2016-11-10T09:07:58Z</time>
      </trkpt>
      <trkpt lat="43.47931" lon="6.62089">
        <ele>76.56</ele>
        <time>2016-11-10T09:08:08Z</time>
      </trkpt>
      <trkpt lat="43.47924" lon="6.62086">
        <ele>76.56</ele>
        <time>2016-11-10T09:08:13Z</time>
      </trkpt>
      <trkpt lat="43.47915" lon="6.62082">
        <ele>75.6</ele>
        <time>2016-11-10T09:08:20Z</time>
      </trkpt>
      <trkpt lat="43.47899" lon="6.62075">
        <ele>73.2</ele>
        <time>2016-11-10T09:08:33Z</time>
      </trkpt>
      <trkpt lat="43.47894" lon="6.62074">
        <ele>72.72</ele>
        <time>2016-11-10T09:08:37Z</time>
      </trkpt>
      <trkpt lat="43.47875" lon="6.62067">
        <ele>69.83</ele>
        <time>2016-11-10T09:08:52Z</time>
      </trkpt>
      <trkpt lat="43.47859" lon="6.62057">
        <ele>67.91</ele>
        <time>2016-11-10T09:09:06Z</time>
      </trkpt>
      <trkpt lat="43.47839" lon="6.62055">
        <ele>67.91</ele>
        <time>2016-11-10T09:09:20Z</time>
      </trkpt>
      <trkpt lat="43.47835" lon="6.62055">
        <ele>67.91</ele>
        <time>2016-11-10T09:09:23Z</time>
      </trkpt>
      <trkpt lat="43.47813" lon="6.62058">
        <ele>70.79</ele>
        <time>2016-11-10T09:09:41Z</time>
      </trkpt>
      <trkpt lat="43.47794" lon="6.62059">
        <ele>72.24</ele>
        <time>2016-11-10T09:09:55Z</time>
      </trkpt>
      <trkpt lat="43.47769" lon="6.62059">
        <ele>72.24</ele>
        <time>2016-11-10T09:10:13Z</time>
      </trkpt>
      <trkpt lat="43.47745" lon="6.62054">
        <ele>71.27</ele>
        <time>2016-11-10T09:10:30Z</time>
      </trkpt>
      <trkpt lat="43.47726" lon="6.62038">
        <ele>70.31</ele>
        <time>2016-11-10T09:10:45Z</time>
      </trkpt>
      <trkpt lat="43.47711" lon="6.62022">
        <ele>68.87</ele>
        <time>2016-11-10T09:10:59Z</time>
      </trkpt>
      <trkpt lat="43.47694" lon="6.61999">
        <ele>65.99</ele>
        <time>2016-11-10T09:11:16Z</time>
      </trkpt>
      <trkpt lat="43.47682" lon="6.61978">
        <ele>63.58</ele>
        <time>2016-11-10T09:11:32Z</time>
      </trkpt>
      <trkpt lat="43.4768" lon="6.61975">
        <ele>63.1</ele>
        <time>2016-11-10T09:11:34Z</time>
      </trkpt>
      <trkpt lat="43.47669" lon="6.61958">
        <ele>62.14</ele>
        <time>2016-11-10T09:11:45Z</time>
      </trkpt>
      <trkpt lat="43.47658" lon="6.61957">
        <ele>62.62</ele>
        <time>2016-11-10T09:11:53Z</time>
      </trkpt>
      <trkpt lat="43.47641" lon="6.61965">
        <ele>65.03</ele>
        <time>2016-11-10T09:12:08Z</time>
      </trkpt>
      <trkpt lat="43.47631" lon="6.61967">
        <ele>65.51</ele>
        <time>2016-11-10T09:12:17Z</time>
      </trkpt>
      <trkpt lat="43.47616" lon="6.61967">
        <ele>66.95</ele>
        <time>2016-11-10T09:12:31Z</time>
      </trkpt>
      <trkpt lat="43.476" lon="6.61966">
        <ele>67.91</ele>
        <time>2016-11-10T09:12:44Z</time>
      </trkpt>
      <trkpt lat="43.47595" lon="6.61966">
        <ele>67.91</ele>
        <time>2016-11-10T09:12:47Z</time>
      </trkpt>
      <trkpt lat="43.47575" lon="6.61959">
        <ele>67.43</ele>
        <time>2016-11-10T09:13:02Z</time>
      </trkpt>
      <trkpt lat="43.47555" lon="6.61955">
        <ele>66.47</ele>
        <time>2016-11-10T09:13:16Z</time>
      </trkpt>
      <trkpt lat="43.47539" lon="6.61955">
        <ele>67.91</ele>
        <time>2016-11-10T09:13:29Z</time>
      </trkpt>
      <trkpt lat="43.47523" lon="6.6195">
        <ele>69.83</ele>
        <time>2016-11-10T09:13:43Z</time>
      </trkpt>
      <trkpt lat="43.47523" lon="6.61949">
        <ele>69.83</ele>
        <time>2016-11-10T09:14:01Z</time>
      </trkpt>
      <trkpt lat="43.47523" lon="6.61949">
        <ele>69.83</ele>
        <time>2016-11-10T09:14:03Z</time>
      </trkpt>
      <trkpt lat="43.47517" lon="6.6195">
        <ele>70.31</ele>
        <time>2016-11-10T09:14:17Z</time>
      </trkpt>
      <trkpt lat="43.47517" lon="6.6195">
        <ele>70.31</ele>
        <time>2016-11-10T09:14:23Z</time>
      </trkpt>
      <trkpt lat="43.47503" lon="6.61944">
        <ele>70.31</ele>
        <time>2016-11-10T09:14:35Z</time>
      </trkpt>
      <trkpt lat="43.47486" lon="6.61938">
        <ele>69.83</ele>
        <time>2016-11-10T09:14:46Z</time>
      </trkpt>
      <trkpt lat="43.47466" lon="6.61928">
        <ele>69.35</ele>
        <time>2016-11-10T09:15:01Z</time>
      </trkpt>
      <trkpt lat="43.47448" lon="6.61921">
        <ele>68.87</ele>
        <time>2016-11-10T09:15:15Z</time>
      </trkpt>
      <trkpt lat="43.47429" lon="6.61914">
        <ele>67.91</ele>
        <time>2016-11-10T09:15:29Z</time>
      </trkpt>
      <trkpt lat="43.47412" lon="6.61909">
        <ele>65.99</ele>
        <time>2016-11-10T09:15:43Z</time>
      </trkpt>
      <trkpt lat="43.47393" lon="6.61898">
        <ele>64.07</ele>
        <time>2016-11-10T09:15:58Z</time>
      </trkpt>
      <trkpt lat="43.47372" lon="6.61889">
        <ele>62.14</ele>
        <time>2016-11-10T09:16:14Z</time>
      </trkpt>
      <trkpt lat="43.47351" lon="6.61879">
        <ele>60.7</ele>
        <time>2016-11-10T09:16:30Z</time>
      </trkpt>
      <trkpt lat="43.47341" lon="6.61873">
        <ele>60.7</ele>
        <time>2016-11-10T09:16:38Z</time>
      </trkpt>
      <trkpt lat="43.47336" lon="6.61866">
        <ele>59.74</ele>
        <time>2016-11-10T09:16:52Z</time>
      </trkpt>
      <trkpt lat="43.47334" lon="6.61861">
        <ele>59.26</ele>
        <time>2016-11-10T09:17:04Z</time>
      </trkpt>
      <trkpt lat="43.47333" lon="6.61861">
        <ele>59.74</ele>
        <time>2016-11-10T09:17:28Z</time>
      </trkpt>
      <trkpt lat="43.47333" lon="6.61861">
        <ele>59.74</ele>
        <time>2016-11-10T09:17:51Z</time>
      </trkpt>
      <trkpt lat="43.47333" lon="6.61861">
        <ele>59.74</ele>
        <time>2016-11-10T09:18:10Z</time>
      </trkpt>
      <trkpt lat="43.47333" lon="6.6186">
        <ele>59.74</ele>
        <time>2016-11-10T09:18:29Z</time>
      </trkpt>
      <trkpt lat="43.47336" lon="6.61834">
        <ele>60.7</ele>
        <time>2016-11-10T09:18:45Z</time>
      </trkpt>
      <trkpt lat="43.47343" lon="6.6181">
        <ele>62.62</ele>
        <time>2016-11-10T09:18:59Z</time>
      </trkpt>
      <trkpt lat="43.47348" lon="6.61791">
        <ele>63.1</ele>
        <time>2016-11-10T09:19:10Z</time>
      </trkpt>
      <trkpt lat="43.47351" lon="6.61784">
        <ele>63.1</ele>
        <time>2016-11-10T09:19:14Z</time>
      </trkpt>
      <trkpt lat="43.47357" lon="6.61751">
        <ele>61.66</ele>
        <time>2016-11-10T09:19:30Z</time>
      </trkpt>
      <trkpt lat="43.47359" lon="6.61743">
        <ele>61.66</ele>
        <time>2016-11-10T09:19:35Z</time>
      </trkpt>
      <trkpt lat="43.47361" lon="6.61736">
        <ele>61.66</ele>
        <time>2016-11-10T09:19:39Z</time>
      </trkpt>
      <trkpt lat="43.47366" lon="6.61728">
        <ele>61.66</ele>
        <time>2016-11-10T09:19:44Z</time>
      </trkpt>
      <trkpt lat="43.47374" lon="6.61702">
        <ele>62.62</ele>
        <time>2016-11-10T09:19:59Z</time>
      </trkpt>
      <trkpt lat="43.47383" lon="6.61672">
        <ele>63.1</ele>
        <time>2016-11-10T09:20:15Z</time>
      </trkpt>
      <trkpt lat="43.47391" lon="6.61648">
        <ele>64.55</ele>
        <time>2016-11-10T09:20:29Z</time>
      </trkpt>
      <trkpt lat="43.47398" lon="6.61618">
        <ele>65.99</ele>
        <time>2016-11-10T09:20:45Z</time>
      </trkpt>
      <trkpt lat="43.47405" lon="6.61594">
        <ele>66.95</ele>
        <time>2016-11-10T09:20:59Z</time>
      </trkpt>
      <trkpt lat="43.4741" lon="6.61567">
        <ele>67.43</ele>
        <time>2016-11-10T09:21:14Z</time>
      </trkpt>
      <trkpt lat="43.47418" lon="6.61542">
        <ele>67.91</ele>
        <time>2016-11-10T09:21:29Z</time>
      </trkpt>
      <trkpt lat="43.4743" lon="6.61521">
        <ele>68.87</ele>
        <time>2016-11-10T09:21:43Z</time>
      </trkpt>
      <trkpt lat="43.47441" lon="6.61498">
        <ele>68.87</ele>
        <time>2016-11-10T09:21:58Z</time>
      </trkpt>
      <trkpt lat="43.4745" lon="6.61475">
        <ele>69.35</ele>
        <time>2016-11-10T09:22:12Z</time>
      </trkpt>
      <trkpt lat="43.47458" lon="6.61447">
        <ele>69.35</ele>
        <time>2016-11-10T09:22:28Z</time>
      </trkpt>
      <trkpt lat="43.47464" lon="6.6143">
        <ele>69.83</ele>
        <time>2016-11-10T09:22:39Z</time>
      </trkpt>
      <trkpt lat="43.47468" lon="6.61418">
        <ele>69.83</ele>
        <time>2016-11-10T09:22:51Z</time>
      </trkpt>
      <trkpt lat="43.47468" lon="6.61418">
        <ele>69.83</ele>
        <time>2016-11-10T09:22:52Z</time>
      </trkpt>
      <trkpt lat="43.47471" lon="6.61413">
        <ele>69.35</ele>
        <time>2016-11-10T09:23:00Z</time>
      </trkpt>
      <trkpt lat="43.47469" lon="6.61408">
        <ele>68.87</ele>
        <time>2016-11-10T09:23:13Z</time>
      </trkpt>
      <trkpt lat="43.47469" lon="6.61407">
        <ele>68.87</ele>
        <time>2016-11-10T09:23:14Z</time>
      </trkpt>
      <trkpt lat="43.47468" lon="6.61405">
        <ele>68.39</ele>
        <time>2016-11-10T09:23:19Z</time>
      </trkpt>
      <trkpt lat="43.47464" lon="6.61398">
        <ele>67.91</ele>
        <time>2016-11-10T09:23:25Z</time>
      </trkpt>
      <trkpt lat="43.47462" lon="6.61389">
        <ele>67.91</ele>
        <time>2016-11-10T09:23:33Z</time>
      </trkpt>
      <trkpt lat="43.47462" lon="6.61386">
        <ele>67.91</ele>
        <time>2016-11-10T09:23:36Z</time>
      </trkpt>
      <trkpt lat="43.47467" lon="6.61365">
        <ele>67.43</ele>
        <time>2016-11-10T09:23:48Z</time>
      </trkpt>
      <trkpt lat="43.47469" lon="6.61357">
        <ele>66.95</ele>
        <time>2016-11-10T09:24:05Z</time>
      </trkpt>
      <trkpt lat="43.47467" lon="6.61352">
        <ele>64.55</ele>
        <time>2016-11-10T09:24:26Z</time>
      </trkpt>
      <trkpt lat="43.47467" lon="6.61351">
        <ele>69.83</ele>
        <time>2016-11-10T09:24:27Z</time>
      </trkpt>
      <trkpt lat="43.47467" lon="6.61351">
        <ele>68.39</ele>
        <time>2016-11-10T09:24:28Z</time>
      </trkpt>
      <trkpt lat="43.47466" lon="6.61347">
        <ele>67.43</ele>
        <time>2016-11-10T09:24:30Z</time>
      </trkpt>
      <trkpt lat="43.47469" lon="6.61331">
        <ele>67.43</ele>
        <time>2016-11-10T09:24:38Z</time>
      </trkpt>
      <trkpt lat="43.47473" lon="6.61318">
        <ele>66.95</ele>
        <time>2016-11-10T09:24:46Z</time>
      </trkpt>
      <trkpt lat="43.47474" lon="6.61314">
        <ele>66.47</ele>
        <time>2016-11-10T09:24:49Z</time>
      </trkpt>
      <trkpt lat="43.47478" lon="6.61303">
        <ele>66.95</ele>
        <time>2016-11-10T09:24:57Z</time>
      </trkpt>
      <trkpt lat="43.47477" lon="6.61299">
        <ele>66.95</ele>
        <time>2016-11-10T09:24:59Z</time>
      </trkpt>
      <trkpt lat="43.47479" lon="6.61295">
        <ele>66.95</ele>
        <time>2016-11-10T09:25:02Z</time>
      </trkpt>
      <trkpt lat="43.47482" lon="6.61286">
        <ele>66.47</ele>
        <time>2016-11-10T09:25:07Z</time>
      </trkpt>
      <trkpt lat="43.47489" lon="6.6126">
        <ele>67.43</ele>
        <time>2016-11-10T09:25:22Z</time>
      </trkpt>
      <trkpt lat="43.4749" lon="6.61258">
        <ele>67.43</ele>
        <time>2016-11-10T09:25:23Z</time>
      </trkpt>
      <trkpt lat="43.47494" lon="6.61242">
        <ele>67.91</ele>
        <time>2016-11-10T09:25:33Z</time>
      </trkpt>
      <trkpt lat="43.47501" lon="6.61215">
        <ele>67.91</ele>
        <time>2016-11-10T09:25:48Z</time>
      </trkpt>
      <trkpt lat="43.47502" lon="6.61214">
        <ele>67.91</ele>
        <time>2016-11-10T09:25:49Z</time>
      </trkpt>
      <trkpt lat="43.47505" lon="6.612">
        <ele>68.87</ele>
        <time>2016-11-10T09:25:57Z</time>
      </trkpt>
      <trkpt lat="43.47509" lon="6.61183">
        <ele>69.35</ele>
        <time>2016-11-10T09:26:07Z</time>
      </trkpt>
      <trkpt lat="43.47512" lon="6.61177">
        <ele>69.83</ele>
        <time>2016-11-10T09:26:11Z</time>
      </trkpt>
      <trkpt lat="43.47513" lon="6.61161">
        <ele>70.31</ele>
        <time>2016-11-10T09:26:26Z</time>
      </trkpt>
      <trkpt lat="43.47511" lon="6.61161">
        <ele>70.31</ele>
        <time>2016-11-10T09:26:56Z</time>
      </trkpt>
      <trkpt lat="43.47511" lon="6.6116">
        <ele>70.31</ele>
        <time>2016-11-10T09:27:13Z</time>
      </trkpt>
      <trkpt lat="43.47512" lon="6.61158">
        <ele>70.31</ele>
        <time>2016-11-10T09:27:15Z</time>
      </trkpt>
      <trkpt lat="43.47515" lon="6.61154">
        <ele>70.31</ele>
        <time>2016-11-10T09:27:19Z</time>
      </trkpt>
      <trkpt lat="43.47527" lon="6.61131">
        <ele>69.35</ele>
        <time>2016-11-10T09:27:34Z</time>
      </trkpt>
      <trkpt lat="43.47538" lon="6.61107">
        <ele>68.87</ele>
        <time>2016-11-10T09:27:48Z</time>
      </trkpt>
      <trkpt lat="43.47545" lon="6.6109">
        <ele>67.91</ele>
        <time>2016-11-10T09:27:58Z</time>
      </trkpt>
      <trkpt lat="43.47554" lon="6.6107">
        <ele>67.91</ele>
        <time>2016-11-10T09:28:12Z</time>
      </trkpt>
      <trkpt lat="43.47556" lon="6.61065">
        <ele>66.95</ele>
        <time>2016-11-10T09:28:16Z</time>
      </trkpt>
      <trkpt lat="43.47558" lon="6.61061">
        <ele>66.47</ele>
        <time>2016-11-10T09:28:24Z</time>
      </trkpt>
      <trkpt lat="43.4756" lon="6.6106">
        <ele>65.99</ele>
        <time>2016-11-10T09:28:26Z</time>
      </trkpt>
      <trkpt lat="43.47573" lon="6.61042">
        <ele>65.03</ele>
        <time>2016-11-10T09:28:42Z</time>
      </trkpt>
      <trkpt lat="43.47586" lon="6.61034">
        <ele>64.55</ele>
        <time>2016-11-10T09:28:52Z</time>
      </trkpt>
      <trkpt lat="43.47601" lon="6.61021">
        <ele>65.51</ele>
        <time>2016-11-10T09:29:06Z</time>
      </trkpt>
      <trkpt lat="43.47612" lon="6.6101">
        <ele>65.99</ele>
        <time>2016-11-10T09:29:16Z</time>
      </trkpt>
      <trkpt lat="43.47616" lon="6.61002">
        <ele>64.55</ele>
        <time>2016-11-10T09:29:22Z</time>
      </trkpt>
      <trkpt lat="43.47624" lon="6.60995">
        <ele>65.03</ele>
        <time>2016-11-10T09:29:30Z</time>
      </trkpt>
      <trkpt lat="43.47642" lon="6.60981">
        <ele>66.95</ele>
        <time>2016-11-10T09:29:46Z</time>
      </trkpt>
      <trkpt lat="43.47653" lon="6.60972">
        <ele>68.39</ele>
        <time>2016-11-10T09:29:57Z</time>
      </trkpt>
      <trkpt lat="43.4766" lon="6.60966">
        <ele>69.35</ele>
        <time>2016-11-10T09:30:03Z</time>
      </trkpt>
      <trkpt lat="43.47666" lon="6.6096">
        <ele>69.83</ele>
        <time>2016-11-10T09:30:09Z</time>
      </trkpt>
      <trkpt lat="43.47682" lon="6.60944">
        <ele>71.76</ele>
        <time>2016-11-10T09:30:24Z</time>
      </trkpt>
      <trkpt lat="43.47696" lon="6.60926">
        <ele>72.24</ele>
        <time>2016-11-10T09:30:38Z</time>
      </trkpt>
      <trkpt lat="43.47702" lon="6.60915">
        <ele>71.76</ele>
        <time>2016-11-10T09:30:45Z</time>
      </trkpt>
      <trkpt lat="43.47706" lon="6.60909">
        <ele>71.27</ele>
        <time>2016-11-10T09:30:49Z</time>
      </trkpt>
      <trkpt lat="43.47712" lon="6.60899">
        <ele>71.27</ele>
        <time>2016-11-10T09:30:56Z</time>
      </trkpt>
      <trkpt lat="43.47719" lon="6.60888">
        <ele>70.79</ele>
        <time>2016-11-10T09:31:04Z</time>
      </trkpt>
      <trkpt lat="43.47725" lon="6.60872">
        <ele>70.79</ele>
        <time>2016-11-10T09:31:12Z</time>
      </trkpt>
      <trkpt lat="43.4773" lon="6.60863">
        <ele>70.79</ele>
        <time>2016-11-10T09:31:18Z</time>
      </trkpt>
      <trkpt lat="43.47742" lon="6.6084">
        <ele>70.79</ele>
        <time>2016-11-10T09:31:33Z</time>
      </trkpt>
      <trkpt lat="43.47752" lon="6.6082">
        <ele>71.76</ele>
        <time>2016-11-10T09:31:46Z</time>
      </trkpt>
      <trkpt lat="43.4776" lon="6.60806">
        <ele>71.27</ele>
        <time>2016-11-10T09:31:58Z</time>
      </trkpt>
      <trkpt lat="43.47763" lon="6.60797">
        <ele>70.79</ele>
        <time>2016-11-10T09:32:05Z</time>
      </trkpt>
      <trkpt lat="43.47771" lon="6.60777">
        <ele>70.31</ele>
        <time>2016-11-10T09:32:19Z</time>
      </trkpt>
      <trkpt lat="43.47771" lon="6.60775">
        <ele>70.31</ele>
        <time>2016-11-10T09:32:20Z</time>
      </trkpt>
      <trkpt lat="43.47777" lon="6.60759">
        <ele>70.31</ele>
        <time>2016-11-10T09:32:31Z</time>
      </trkpt>
      <trkpt lat="43.4778" lon="6.60753">
        <ele>69.83</ele>
        <time>2016-11-10T09:32:35Z</time>
      </trkpt>
      <trkpt lat="43.47789" lon="6.60735">
        <ele>69.35</ele>
        <time>2016-11-10T09:32:49Z</time>
      </trkpt>
      <trkpt lat="43.47795" lon="6.60725">
        <ele>68.39</ele>
        <time>2016-11-10T09:32:57Z</time>
      </trkpt>
      <trkpt lat="43.47799" lon="6.60721">
        <ele>68.39</ele>
        <time>2016-11-10T09:33:01Z</time>
      </trkpt>
      <trkpt lat="43.47805" lon="6.60714">
        <ele>68.39</ele>
        <time>2016-11-10T09:33:07Z</time>
      </trkpt>
      <trkpt lat="43.47811" lon="6.60705">
        <ele>68.39</ele>
        <time>2016-11-10T09:33:13Z</time>
      </trkpt>
      <trkpt lat="43.47815" lon="6.607">
        <ele>67.91</ele>
        <time>2016-11-10T09:33:18Z</time>
      </trkpt>
      <trkpt lat="43.47817" lon="6.60698">
        <ele>67.91</ele>
        <time>2016-11-10T09:33:20Z</time>
      </trkpt>
      <trkpt lat="43.4782" lon="6.60693">
        <ele>66.95</ele>
        <time>2016-11-10T09:33:24Z</time>
      </trkpt>
      <trkpt lat="43.47838" lon="6.60672">
        <ele>66.47</ele>
        <time>2016-11-10T09:33:41Z</time>
      </trkpt>
      <trkpt lat="43.47845" lon="6.60665">
        <ele>66.95</ele>
        <time>2016-11-10T09:33:53Z</time>
      </trkpt>
      <trkpt lat="43.47845" lon="6.60663">
        <ele>62.62</ele>
        <time>2016-11-10T09:34:05Z</time>
      </trkpt>
      <trkpt lat="43.47845" lon="6.60663">
        <ele>68.39</ele>
        <time>2016-11-10T09:34:06Z</time>
      </trkpt>
      <trkpt lat="43.47845" lon="6.60663">
        <ele>71.76</ele>
        <time>2016-11-10T09:34:07Z</time>
      </trkpt>
      <trkpt lat="43.47845" lon="6.60663">
        <ele>66.95</ele>
        <time>2016-11-10T09:34:08Z</time>
      </trkpt>
      <trkpt lat="43.47846" lon="6.60663">
        <ele>66.95</ele>
        <time>2016-11-10T09:34:09Z</time>
      </trkpt>
      <trkpt lat="43.47847" lon="6.60662">
        <ele>66.47</ele>
        <time>2016-11-10T09:34:10Z</time>
      </trkpt>
      <trkpt lat="43.47853" lon="6.60657">
        <ele>66.47</ele>
        <time>2016-11-10T09:34:23Z</time>
      </trkpt>
      <trkpt lat="43.47854" lon="6.60656">
        <ele>66.95</ele>
        <time>2016-11-10T09:34:36Z</time>
      </trkpt>
      <trkpt lat="43.47855" lon="6.60655">
        <ele>65.99</ele>
        <time>2016-11-10T09:34:38Z</time>
      </trkpt>
      <trkpt lat="43.47861" lon="6.60649">
        <ele>65.51</ele>
        <time>2016-11-10T09:34:45Z</time>
      </trkpt>
      <trkpt lat="43.47872" lon="6.60638">
        <ele>64.07</ele>
        <time>2016-11-10T09:34:56Z</time>
      </trkpt>
      <trkpt lat="43.47876" lon="6.60635">
        <ele>65.51</ele>
        <time>2016-11-10T09:35:00Z</time>
      </trkpt>
      <trkpt lat="43.4788" lon="6.60632">
        <ele>65.51</ele>
        <time>2016-11-10T09:35:04Z</time>
      </trkpt>
      <trkpt lat="43.47889" lon="6.60627">
        <ele>63.1</ele>
        <time>2016-11-10T09:35:16Z</time>
      </trkpt>
      <trkpt lat="43.47892" lon="6.60623">
        <ele>62.62</ele>
        <time>2016-11-10T09:35:24Z</time>
      </trkpt>
      <trkpt lat="43.47895" lon="6.60617">
        <ele>61.66</ele>
        <time>2016-11-10T09:35:30Z</time>
      </trkpt>
      <trkpt lat="43.47898" lon="6.60614">
        <ele>61.66</ele>
        <time>2016-11-10T09:35:35Z</time>
      </trkpt>
      <trkpt lat="43.479" lon="6.60611">
        <ele>61.66</ele>
        <time>2016-11-10T09:35:38Z</time>
      </trkpt>
      <trkpt lat="43.47911" lon="6.60598">
        <ele>59.26</ele>
        <time>2016-11-10T09:35:53Z</time>
      </trkpt>
      <trkpt lat="43.47916" lon="6.60589">
        <ele>57.34</ele>
        <time>2016-11-10T09:36:01Z</time>
      </trkpt>
      <trkpt lat="43.4792" lon="6.60583">
        <ele>55.89</ele>
        <time>2016-11-10T09:36:07Z</time>
      </trkpt>
      <trkpt lat="43.47929" lon="6.60573">
        <ele>53.49</ele>
        <time>2016-11-10T09:36:21Z</time>
      </trkpt>
      <trkpt lat="43.47933" lon="6.60569">
        <ele>52.53</ele>
        <time>2016-11-10T09:36:36Z</time>
      </trkpt>
      <trkpt lat="43.47938" lon="6.60562">
        <ele>51.09</ele>
        <time>2016-11-10T09:36:49Z</time>
      </trkpt>
      <trkpt lat="43.47938" lon="6.60561">
        <ele>50.13</ele>
        <time>2016-11-10T09:37:08Z</time>
      </trkpt>
      <trkpt lat="43.47938" lon="6.60559">
        <ele>50.61</ele>
        <time>2016-11-10T09:37:10Z</time>
      </trkpt>
      <trkpt lat="43.4794" lon="6.60559">
        <ele>50.61</ele>
        <time>2016-11-10T09:37:12Z</time>
      </trkpt>
      <trkpt lat="43.47942" lon="6.60556">
        <ele>50.61</ele>
        <time>2016-11-10T09:37:15Z</time>
      </trkpt>
      <trkpt lat="43.47944" lon="6.60551">
        <ele>50.13</ele>
        <time>2016-11-10T09:37:19Z</time>
      </trkpt>
      <trkpt lat="43.47948" lon="6.60547">
        <ele>50.13</ele>
        <time>2016-11-10T09:37:24Z</time>
      </trkpt>
      <trkpt lat="43.47952" lon="6.60537">
        <ele>50.61</ele>
        <time>2016-11-10T09:37:31Z</time>
      </trkpt>
      <trkpt lat="43.47958" lon="6.60528">
        <ele>52.05</ele>
        <time>2016-11-10T09:37:38Z</time>
      </trkpt>
      <trkpt lat="43.47969" lon="6.60512">
        <ele>54.93</ele>
        <time>2016-11-10T09:37:51Z</time>
      </trkpt>
      <trkpt lat="43.47985" lon="6.60492">
        <ele>56.37</ele>
        <time>2016-11-10T09:38:06Z</time>
      </trkpt>
      <trkpt lat="43.47993" lon="6.60485">
        <ele>55.89</ele>
        <time>2016-11-10T09:38:13Z</time>
      </trkpt>
      <trkpt lat="43.47997" lon="6.6048">
        <ele>55.41</ele>
        <time>2016-11-10T09:38:17Z</time>
      </trkpt>
      <trkpt lat="43.47999" lon="6.60478">
        <ele>55.41</ele>
        <time>2016-11-10T09:38:19Z</time>
      </trkpt>
      <trkpt lat="43.48006" lon="6.60462">
        <ele>53.01</ele>
        <time>2016-11-10T09:38:33Z</time>
      </trkpt>
      <trkpt lat="43.48007" lon="6.60461">
        <ele>52.53</ele>
        <time>2016-11-10T09:38:34Z</time>
      </trkpt>
      <trkpt lat="43.48015" lon="6.6044">
        <ele>52.05</ele>
        <time>2016-11-10T09:38:48Z</time>
      </trkpt>
      <trkpt lat="43.48021" lon="6.60421">
        <ele>53.97</ele>
        <time>2016-11-10T09:39:01Z</time>
      </trkpt>
      <trkpt lat="43.48023" lon="6.60415">
        <ele>54.45</ele>
        <time>2016-11-10T09:39:05Z</time>
      </trkpt>
      <trkpt lat="43.48026" lon="6.6041">
        <ele>54.93</ele>
        <time>2016-11-10T09:39:09Z</time>
      </trkpt>
      <trkpt lat="43.48029" lon="6.60404">
        <ele>55.41</ele>
        <time>2016-11-10T09:39:13Z</time>
      </trkpt>
      <trkpt lat="43.48035" lon="6.60384">
        <ele>55.89</ele>
        <time>2016-11-10T09:39:25Z</time>
      </trkpt>
      <trkpt lat="43.48036" lon="6.6038">
        <ele>55.89</ele>
        <time>2016-11-10T09:39:27Z</time>
      </trkpt>
      <trkpt lat="43.48039" lon="6.60375">
        <ele>55.89</ele>
        <time>2016-11-10T09:39:31Z</time>
      </trkpt>
      <trkpt lat="43.48041" lon="6.6037">
        <ele>56.86</ele>
        <time>2016-11-10T09:39:34Z</time>
      </trkpt>
      <trkpt lat="43.48046" lon="6.60361">
        <ele>56.86</ele>
        <time>2016-11-10T09:39:40Z</time>
      </trkpt>
      <trkpt lat="43.48048" lon="6.60349">
        <ele>56.86</ele>
        <time>2016-11-10T09:39:47Z</time>
      </trkpt>
      <trkpt lat="43.48049" lon="6.60345">
        <ele>57.34</ele>
        <time>2016-11-10T09:39:49Z</time>
      </trkpt>
      <trkpt lat="43.48052" lon="6.60339">
        <ele>58.3</ele>
        <time>2016-11-10T09:39:53Z</time>
      </trkpt>
      <trkpt lat="43.48054" lon="6.60332">
        <ele>59.26</ele>
        <time>2016-11-10T09:39:58Z</time>
      </trkpt>
      <trkpt lat="43.48061" lon="6.60322">
        <ele>59.74</ele>
        <time>2016-11-10T09:40:10Z</time>
      </trkpt>
      <trkpt lat="43.4806" lon="6.60319">
        <ele>59.26</ele>
        <time>2016-11-10T09:40:30Z</time>
      </trkpt>
      <trkpt lat="43.48059" lon="6.60317">
        <ele>59.74</ele>
        <time>2016-11-10T09:40:37Z</time>
      </trkpt>
      <trkpt lat="43.48058" lon="6.60314">
        <ele>58.78</ele>
        <time>2016-11-10T09:40:40Z</time>
      </trkpt>
      <trkpt lat="43.48057" lon="6.60299">
        <ele>59.26</ele>
        <time>2016-11-10T09:40:48Z</time>
      </trkpt>
      <trkpt lat="43.48057" lon="6.60291">
        <ele>59.74</ele>
        <time>2016-11-10T09:41:02Z</time>
      </trkpt>
      <trkpt lat="43.48057" lon="6.60291">
        <ele>60.22</ele>
        <time>2016-11-10T09:41:04Z</time>
      </trkpt>
      <trkpt lat="43.48058" lon="6.6027">
        <ele>58.78</ele>
        <time>2016-11-10T09:41:17Z</time>
      </trkpt>
      <trkpt lat="43.48054" lon="6.60245">
        <ele>60.22</ele>
        <time>2016-11-10T09:41:31Z</time>
      </trkpt>
      <trkpt lat="43.48054" lon="6.60238">
        <ele>58.3</ele>
        <time>2016-11-10T09:41:35Z</time>
      </trkpt>
      <trkpt lat="43.48053" lon="6.60232">
        <ele>59.74</ele>
        <time>2016-11-10T09:41:39Z</time>
      </trkpt>
      <trkpt lat="43.48053" lon="6.60204">
        <ele>56.86</ele>
        <time>2016-11-10T09:41:53Z</time>
      </trkpt>
      <trkpt lat="43.48052" lon="6.60192">
        <ele>57.34</ele>
        <time>2016-11-10T09:42:00Z</time>
      </trkpt>
      <trkpt lat="43.48055" lon="6.60161">
        <ele>55.89</ele>
        <time>2016-11-10T09:42:17Z</time>
      </trkpt>
      <trkpt lat="43.48064" lon="6.60138">
        <ele>54.45</ele>
        <time>2016-11-10T09:42:32Z</time>
      </trkpt>
      <trkpt lat="43.4807" lon="6.60125">
        <ele>52.53</ele>
        <time>2016-11-10T09:42:41Z</time>
      </trkpt>
      <trkpt lat="43.48084" lon="6.60129">
        <ele>52.53</ele>
        <time>2016-11-10T09:42:53Z</time>
      </trkpt>
      <trkpt lat="43.4809" lon="6.60135">
        <ele>52.53</ele>
        <time>2016-11-10T09:42:59Z</time>
      </trkpt>
      <trkpt lat="43.48099" lon="6.60152">
        <ele>52.53</ele>
        <time>2016-11-10T09:43:11Z</time>
      </trkpt>
      <trkpt lat="43.48101" lon="6.60158">
        <ele>52.05</ele>
        <time>2016-11-10T09:43:15Z</time>
      </trkpt>
      <trkpt lat="43.48104" lon="6.60166">
        <ele>51.57</ele>
        <time>2016-11-10T09:43:21Z</time>
      </trkpt>
      <trkpt lat="43.4812" lon="6.60177">
        <ele>51.57</ele>
        <time>2016-11-10T09:43:35Z</time>
      </trkpt>
      <trkpt lat="43.48125" lon="6.60178">
        <ele>51.57</ele>
        <time>2016-11-10T09:43:39Z</time>
      </trkpt>
      <trkpt lat="43.48135" lon="6.60178">
        <ele>51.09</ele>
        <time>2016-11-10T09:43:48Z</time>
      </trkpt>
      <trkpt lat="43.48152" lon="6.60171">
        <ele>49.16</ele>
        <time>2016-11-10T09:44:04Z</time>
      </trkpt>
      <trkpt lat="43.48159" lon="6.60168">
        <ele>48.2</ele>
        <time>2016-11-10T09:44:10Z</time>
      </trkpt>
      <trkpt lat="43.48172" lon="6.60167">
        <ele>47.24</ele>
        <time>2016-11-10T09:44:22Z</time>
      </trkpt>
      <trkpt lat="43.48179" lon="6.60172">
        <ele>47.24</ele>
        <time>2016-11-10T09:44:28Z</time>
      </trkpt>
      <trkpt lat="43.48189" lon="6.60182">
        <ele>46.76</ele>
        <time>2016-11-10T09:44:38Z</time>
      </trkpt>
      <trkpt lat="43.48195" lon="6.6018">
        <ele>45.32</ele>
        <time>2016-11-10T09:44:44Z</time>
      </trkpt>
      <trkpt lat="43.48196" lon="6.60174">
        <ele>44.84</ele>
        <time>2016-11-10T09:44:49Z</time>
      </trkpt>
      <trkpt lat="43.4819" lon="6.6016">
        <ele>43.88</ele>
        <time>2016-11-10T09:44:59Z</time>
      </trkpt>
      <trkpt lat="43.48185" lon="6.60145">
        <ele>42.44</ele>
        <time>2016-11-10T09:45:10Z</time>
      </trkpt>
      <trkpt lat="43.48177" lon="6.60131">
        <ele>40.99</ele>
        <time>2016-11-10T09:45:23Z</time>
      </trkpt>
      <trkpt lat="43.48173" lon="6.60127">
        <ele>40.03</ele>
        <time>2016-11-10T09:45:28Z</time>
      </trkpt>
      <trkpt lat="43.48169" lon="6.60123">
        <ele>39.07</ele>
        <time>2016-11-10T09:45:32Z</time>
      </trkpt>
      <trkpt lat="43.48165" lon="6.60113">
        <ele>39.55</ele>
        <time>2016-11-10T09:45:45Z</time>
      </trkpt>
      <trkpt lat="43.48159" lon="6.60103">
        <ele>37.15</ele>
        <time>2016-11-10T09:45:56Z</time>
      </trkpt>
      <trkpt lat="43.48156" lon="6.60102">
        <ele>35.71</ele>
        <time>2016-11-10T09:45:59Z</time>
      </trkpt>
      <trkpt lat="43.48152" lon="6.60097">
        <ele>35.23</ele>
        <time>2016-11-10T09:46:03Z</time>
      </trkpt>
      <trkpt lat="43.48149" lon="6.60093">
        <ele>33.78</ele>
        <time>2016-11-10T09:46:07Z</time>
      </trkpt>
      <trkpt lat="43.48147" lon="6.60091">
        <ele>33.3</ele>
        <time>2016-11-10T09:46:09Z</time>
      </trkpt>
      <trkpt lat="43.48143" lon="6.60083">
        <ele>33.3</ele>
        <time>2016-11-10T09:46:14Z</time>
      </trkpt>
      <trkpt lat="43.4814" lon="6.6008">
        <ele>31.38</ele>
        <time>2016-11-10T09:46:17Z</time>
      </trkpt>
      <trkpt lat="43.48136" lon="6.6006">
        <ele>33.3</ele>
        <time>2016-11-10T09:46:30Z</time>
      </trkpt>
      <trkpt lat="43.48138" lon="6.60054">
        <ele>31.38</ele>
        <time>2016-11-10T09:46:34Z</time>
      </trkpt>
      <trkpt lat="43.4814" lon="6.60051">
        <ele>31.38</ele>
        <time>2016-11-10T09:46:36Z</time>
      </trkpt>
      <trkpt lat="43.48143" lon="6.60046">
        <ele>31.38</ele>
        <time>2016-11-10T09:46:43Z</time>
      </trkpt>
      <trkpt lat="43.48156" lon="6.60035">
        <ele>31.86</ele>
        <time>2016-11-10T09:46:55Z</time>
      </trkpt>
      <trkpt lat="43.48173" lon="6.60026">
        <ele>34.26</ele>
        <time>2016-11-10T09:47:09Z</time>
      </trkpt>
      <trkpt lat="43.48183" lon="6.60022">
        <ele>35.71</ele>
        <time>2016-11-10T09:47:19Z</time>
      </trkpt>
      <trkpt lat="43.48188" lon="6.60018">
        <ele>36.67</ele>
        <time>2016-11-10T09:47:24Z</time>
      </trkpt>
      <trkpt lat="43.48191" lon="6.60016">
        <ele>36.19</ele>
        <time>2016-11-10T09:47:26Z</time>
      </trkpt>
      <trkpt lat="43.48201" lon="6.60006">
        <ele>39.07</ele>
        <time>2016-11-10T09:47:35Z</time>
      </trkpt>
      <trkpt lat="43.48212" lon="6.59985">
        <ele>39.55</ele>
        <time>2016-11-10T09:47:50Z</time>
      </trkpt>
      <trkpt lat="43.48216" lon="6.5998">
        <ele>40.03</ele>
        <time>2016-11-10T09:47:55Z</time>
      </trkpt>
      <trkpt lat="43.48225" lon="6.5997">
        <ele>41.95</ele>
        <time>2016-11-10T09:48:06Z</time>
      </trkpt>
      <trkpt lat="43.48234" lon="6.59956">
        <ele>43.4</ele>
        <time>2016-11-10T09:48:16Z</time>
      </trkpt>
      <trkpt lat="43.48237" lon="6.59953">
        <ele>43.4</ele>
        <time>2016-11-10T09:48:20Z</time>
      </trkpt>
      <trkpt lat="43.48249" lon="6.59942">
        <ele>44.84</ele>
        <time>2016-11-10T09:48:33Z</time>
      </trkpt>
      <trkpt lat="43.48255" lon="6.59937">
        <ele>44.84</ele>
        <time>2016-11-10T09:48:38Z</time>
      </trkpt>
      <trkpt lat="43.48261" lon="6.59932">
        <ele>45.8</ele>
        <time>2016-11-10T09:48:44Z</time>
      </trkpt>
      <trkpt lat="43.48275" lon="6.59918">
        <ele>48.2</ele>
        <time>2016-11-10T09:48:58Z</time>
      </trkpt>
      <trkpt lat="43.48293" lon="6.599">
        <ele>50.61</ele>
        <time>2016-11-10T09:49:15Z</time>
      </trkpt>
      <trkpt lat="43.48307" lon="6.59885">
        <ele>51.57</ele>
        <time>2016-11-10T09:49:29Z</time>
      </trkpt>
      <trkpt lat="43.48322" lon="6.59879">
        <ele>52.05</ele>
        <time>2016-11-10T09:49:42Z</time>
      </trkpt>
      <trkpt lat="43.48335" lon="6.59884">
        <ele>53.49</ele>
        <time>2016-11-10T09:49:53Z</time>
      </trkpt>
      <trkpt lat="43.48339" lon="6.59885">
        <ele>53.01</ele>
        <time>2016-11-10T09:49:56Z</time>
      </trkpt>
      <trkpt lat="43.48351" lon="6.59891">
        <ele>52.05</ele>
        <time>2016-11-10T09:50:05Z</time>
      </trkpt>
      <trkpt lat="43.4837" lon="6.59894">
        <ele>53.97</ele>
        <time>2016-11-10T09:50:19Z</time>
      </trkpt>
      <trkpt lat="43.48389" lon="6.59897">
        <ele>55.89</ele>
        <time>2016-11-10T09:50:33Z</time>
      </trkpt>
      <trkpt lat="43.48408" lon="6.59902">
        <ele>57.82</ele>
        <time>2016-11-10T09:50:47Z</time>
      </trkpt>
      <trkpt lat="43.4843" lon="6.59906">
        <ele>60.7</ele>
        <time>2016-11-10T09:51:04Z</time>
      </trkpt>
      <trkpt lat="43.48451" lon="6.59902">
        <ele>62.62</ele>
        <time>2016-11-10T09:51:19Z</time>
      </trkpt>
      <trkpt lat="43.48472" lon="6.59901">
        <ele>64.07</ele>
        <time>2016-11-10T09:51:34Z</time>
      </trkpt>
      <trkpt lat="43.4848" lon="6.599">
        <ele>65.03</ele>
        <time>2016-11-10T09:51:41Z</time>
      </trkpt>
      <trkpt lat="43.48483" lon="6.599">
        <ele>65.51</ele>
        <time>2016-11-10T09:51:57Z</time>
      </trkpt>
      <trkpt lat="43.48483" lon="6.599">
        <ele>65.51</ele>
        <time>2016-11-10T09:52:27Z</time>
      </trkpt>
      <trkpt lat="43.48483" lon="6.599">
        <ele>65.51</ele>
        <time>2016-11-10T09:53:03Z</time>
      </trkpt>
      <trkpt lat="43.48483" lon="6.599">
        <ele>65.03</ele>
        <time>2016-11-10T09:53:35Z</time>
      </trkpt>
      <trkpt lat="43.48486" lon="6.59899">
        <ele>64.55</ele>
        <time>2016-11-10T09:54:07Z</time>
      </trkpt>
      <trkpt lat="43.48486" lon="6.59897">
        <ele>64.55</ele>
        <time>2016-11-10T09:54:11Z</time>
      </trkpt>
      <trkpt lat="43.48489" lon="6.59897">
        <ele>65.03</ele>
        <time>2016-11-10T09:54:14Z</time>
      </trkpt>
      <trkpt lat="43.4851" lon="6.59888">
        <ele>66.47</ele>
        <time>2016-11-10T09:54:30Z</time>
      </trkpt>
      <trkpt lat="43.48531" lon="6.59882">
        <ele>67.43</ele>
        <time>2016-11-10T09:54:45Z</time>
      </trkpt>
      <trkpt lat="43.48553" lon="6.59875">
        <ele>68.39</ele>
        <time>2016-11-10T09:55:02Z</time>
      </trkpt>
      <trkpt lat="43.48572" lon="6.5987">
        <ele>69.35</ele>
        <time>2016-11-10T09:55:16Z</time>
      </trkpt>
      <trkpt lat="43.48586" lon="6.59859">
        <ele>69.35</ele>
        <time>2016-11-10T09:55:28Z</time>
      </trkpt>
      <trkpt lat="43.48601" lon="6.59846">
        <ele>69.83</ele>
        <time>2016-11-10T09:55:41Z</time>
      </trkpt>
      <trkpt lat="43.48609" lon="6.5984">
        <ele>68.39</ele>
        <time>2016-11-10T09:55:47Z</time>
      </trkpt>
      <trkpt lat="43.48624" lon="6.59827">
        <ele>67.91</ele>
        <time>2016-11-10T09:56:02Z</time>
      </trkpt>
      <trkpt lat="43.48633" lon="6.59821">
        <ele>66.47</ele>
        <time>2016-11-10T09:56:10Z</time>
      </trkpt>
      <trkpt lat="43.48645" lon="6.59804">
        <ele>63.1</ele>
        <time>2016-11-10T09:56:24Z</time>
      </trkpt>
      <trkpt lat="43.48655" lon="6.59788">
        <ele>61.66</ele>
        <time>2016-11-10T09:56:36Z</time>
      </trkpt>
      <trkpt lat="43.4866" lon="6.59779">
        <ele>59.74</ele>
        <time>2016-11-10T09:56:47Z</time>
      </trkpt>
      <trkpt lat="43.48666" lon="6.59771">
        <ele>57.34</ele>
        <time>2016-11-10T09:56:59Z</time>
      </trkpt>
      <trkpt lat="43.48667" lon="6.5977">
        <ele>56.86</ele>
        <time>2016-11-10T09:57:00Z</time>
      </trkpt>
      <trkpt lat="43.48675" lon="6.59761">
        <ele>53.49</ele>
        <time>2016-11-10T09:57:12Z</time>
      </trkpt>
      <trkpt lat="43.48681" lon="6.59757">
        <ele>50.13</ele>
        <time>2016-11-10T09:57:26Z</time>
      </trkpt>
      <trkpt lat="43.48684" lon="6.59746">
        <ele>48.2</ele>
        <time>2016-11-10T09:57:37Z</time>
      </trkpt>
      <trkpt lat="43.48683" lon="6.59745">
        <ele>48.2</ele>
        <time>2016-11-10T09:57:38Z</time>
      </trkpt>
      <trkpt lat="43.48682" lon="6.5973">
        <ele>44.36</ele>
        <time>2016-11-10T09:57:51Z</time>
      </trkpt>
      <trkpt lat="43.4868" lon="6.59721">
        <ele>41.47</ele>
        <time>2016-11-10T09:58:05Z</time>
      </trkpt>
      <trkpt lat="43.48682" lon="6.59719">
        <ele>39.07</ele>
        <time>2016-11-10T09:58:18Z</time>
      </trkpt>
      <trkpt lat="43.48684" lon="6.59717">
        <ele>36.67</ele>
        <time>2016-11-10T09:58:35Z</time>
      </trkpt>
      <trkpt lat="43.48684" lon="6.59717">
        <ele>36.19</ele>
        <time>2016-11-10T09:58:50Z</time>
      </trkpt>
      <trkpt lat="43.48689" lon="6.59712">
        <ele>32.82</ele>
        <time>2016-11-10T09:59:05Z</time>
      </trkpt>
      <trkpt lat="43.48694" lon="6.59709">
        <ele>31.38</ele>
        <time>2016-11-10T09:59:24Z</time>
      </trkpt>
      <trkpt lat="43.48699" lon="6.59703">
        <ele>28.5</ele>
        <time>2016-11-10T09:59:39Z</time>
      </trkpt>
      <trkpt lat="43.48702" lon="6.59695">
        <ele>26.57</ele>
        <time>2016-11-10T09:59:53Z</time>
      </trkpt>
      <trkpt lat="43.48706" lon="6.59684">
        <ele>24.65</ele>
        <time>2016-11-10T10:00:01Z</time>
      </trkpt>
      <trkpt lat="43.4872" lon="6.59666">
        <ele>25.13</ele>
        <time>2016-11-10T10:00:18Z</time>
      </trkpt>
      <trkpt lat="43.48729" lon="6.59649">
        <ele>25.61</ele>
        <time>2016-11-10T10:00:32Z</time>
      </trkpt>
      <trkpt lat="43.48731" lon="6.59642">
        <ele>25.61</ele>
        <time>2016-11-10T10:00:37Z</time>
      </trkpt>
      <trkpt lat="43.48734" lon="6.59637">
        <ele>25.61</ele>
        <time>2016-11-10T10:00:42Z</time>
      </trkpt>
      <trkpt lat="43.48741" lon="6.59626">
        <ele>25.61</ele>
        <time>2016-11-10T10:00:55Z</time>
      </trkpt>
      <trkpt lat="43.48744" lon="6.59622">
        <ele>25.61</ele>
        <time>2016-11-10T10:00:59Z</time>
      </trkpt>
      <trkpt lat="43.48759" lon="6.59605">
        <ele>25.61</ele>
        <time>2016-11-10T10:01:14Z</time>
      </trkpt>
      <trkpt lat="43.48762" lon="6.59603">
        <ele>25.61</ele>
        <time>2016-11-10T10:01:17Z</time>
      </trkpt>
      <trkpt lat="43.48766" lon="6.59598">
        <ele>25.61</ele>
        <time>2016-11-10T10:01:21Z</time>
      </trkpt>
      <trkpt lat="43.48774" lon="6.59593">
        <ele>25.61</ele>
        <time>2016-11-10T10:01:33Z</time>
      </trkpt>
      <trkpt lat="43.48774" lon="6.59594">
        <ele>25.61</ele>
        <time>2016-11-10T10:01:35Z</time>
      </trkpt>
      <trkpt lat="43.48779" lon="6.59595">
        <ele>27.05</ele>
        <time>2016-11-10T10:01:49Z</time>
      </trkpt>
      <trkpt lat="43.48782" lon="6.59591">
        <ele>27.05</ele>
        <time>2016-11-10T10:02:04Z</time>
      </trkpt>
      <trkpt lat="43.48784" lon="6.59585">
        <ele>26.57</ele>
        <time>2016-11-10T10:02:14Z</time>
      </trkpt>
      <trkpt lat="43.48786" lon="6.59579">
        <ele>23.21</ele>
        <time>2016-11-10T10:02:20Z</time>
      </trkpt>
      <trkpt lat="43.48786" lon="6.59579">
        <ele>30.42</ele>
        <time>2016-11-10T10:02:21Z</time>
      </trkpt>
      <trkpt lat="43.48786" lon="6.59579">
        <ele>24.17</ele>
        <time>2016-11-10T10:02:22Z</time>
      </trkpt>
      <trkpt lat="43.48786" lon="6.59579">
        <ele>29.46</ele>
        <time>2016-11-10T10:02:24Z</time>
      </trkpt>
      <trkpt lat="43.48787" lon="6.59578">
        <ele>25.61</ele>
        <time>2016-11-10T10:02:26Z</time>
      </trkpt>
      <trkpt lat="43.48786" lon="6.59578">
        <ele>27.05</ele>
        <time>2016-11-10T10:02:30Z</time>
      </trkpt>
      <trkpt lat="43.48789" lon="6.59574">
        <ele>27.05</ele>
        <time>2016-11-10T10:02:42Z</time>
      </trkpt>
      <trkpt lat="43.48795" lon="6.59565">
        <ele>27.05</ele>
        <time>2016-11-10T10:02:53Z</time>
      </trkpt>
      <trkpt lat="43.488" lon="6.59562">
        <ele>26.09</ele>
        <time>2016-11-10T10:03:01Z</time>
      </trkpt>
      <trkpt lat="43.48809" lon="6.59552">
        <ele>25.61</ele>
        <time>2016-11-10T10:03:14Z</time>
      </trkpt>
      <trkpt lat="43.48809" lon="6.59549">
        <ele>25.61</ele>
        <time>2016-11-10T10:03:18Z</time>
      </trkpt>
      <trkpt lat="43.48801" lon="6.59559">
        <ele>25.61</ele>
        <time>2016-11-10T10:03:30Z</time>
      </trkpt>
      <trkpt lat="43.48799" lon="6.59561">
        <ele>25.61</ele>
        <time>2016-11-10T10:03:32Z</time>
      </trkpt>
      <trkpt lat="43.48797" lon="6.59563">
        <ele>26.09</ele>
        <time>2016-11-10T10:03:34Z</time>
      </trkpt>
      <trkpt lat="43.48795" lon="6.59565">
        <ele>26.09</ele>
        <time>2016-11-10T10:03:37Z</time>
      </trkpt>
      <trkpt lat="43.4879" lon="6.59569">
        <ele>26.57</ele>
        <time>2016-11-10T10:03:42Z</time>
      </trkpt>
      <trkpt lat="43.48788" lon="6.59572">
        <ele>26.57</ele>
        <time>2016-11-10T10:03:46Z</time>
      </trkpt>
      <trkpt lat="43.48784" lon="6.59582">
        <ele>26.09</ele>
        <time>2016-11-10T10:04:00Z</time>
      </trkpt>
      <trkpt lat="43.48785" lon="6.59585">
        <ele>27.05</ele>
        <time>2016-11-10T10:04:18Z</time>
      </trkpt>
      <trkpt lat="43.4879" lon="6.59575">
        <ele>26.09</ele>
        <time>2016-11-10T10:04:37Z</time>
      </trkpt>
      <trkpt lat="43.48796" lon="6.59564">
        <ele>26.09</ele>
        <time>2016-11-10T10:04:50Z</time>
      </trkpt>
      <trkpt lat="43.48803" lon="6.59556">
        <ele>25.13</ele>
        <time>2016-11-10T10:05:04Z</time>
      </trkpt>
      <trkpt lat="43.48805" lon="6.59554">
        <ele>25.61</ele>
        <time>2016-11-10T10:05:06Z</time>
      </trkpt>
      <trkpt lat="43.48809" lon="6.59549">
        <ele>25.61</ele>
        <time>2016-11-10T10:05:10Z</time>
      </trkpt>
      <trkpt lat="43.4881" lon="6.59544">
        <ele>25.13</ele>
        <time>2016-11-10T10:05:13Z</time>
      </trkpt>
      <trkpt lat="43.48815" lon="6.59539">
        <ele>25.13</ele>
        <time>2016-11-10T10:05:26Z</time>
      </trkpt>
      <trkpt lat="43.48814" lon="6.59539">
        <ele>25.61</ele>
        <time>2016-11-10T10:05:40Z</time>
      </trkpt>
      <trkpt lat="43.48823" lon="6.59534">
        <ele>26.09</ele>
        <time>2016-11-10T10:05:58Z</time>
      </trkpt>
      <trkpt lat="43.48825" lon="6.59533">
        <ele>26.09</ele>
        <time>2016-11-10T10:05:59Z</time>
      </trkpt>
      <trkpt lat="43.48838" lon="6.59531">
        <ele>24.17</ele>
        <time>2016-11-10T10:06:08Z</time>
      </trkpt>
      <trkpt lat="43.48848" lon="6.5953">
        <ele>25.61</ele>
        <time>2016-11-10T10:06:15Z</time>
      </trkpt>
      <trkpt lat="43.48854" lon="6.59529">
        <ele>26.09</ele>
        <time>2016-11-10T10:06:24Z</time>
      </trkpt>
      <trkpt lat="43.48858" lon="6.59529">
        <ele>26.57</ele>
        <time>2016-11-10T10:06:26Z</time>
      </trkpt>
      <trkpt lat="43.48874" lon="6.59529">
        <ele>26.09</ele>
        <time>2016-11-10T10:06:38Z</time>
      </trkpt>
      <trkpt lat="43.48882" lon="6.59529">
        <ele>31.38</ele>
        <time>2016-11-10T10:06:44Z</time>
      </trkpt>
      <trkpt lat="43.48884" lon="6.59529">
        <ele>26.57</ele>
        <time>2016-11-10T10:06:45Z</time>
      </trkpt>
      <trkpt lat="43.48902" lon="6.59528">
        <ele>26.57</ele>
        <time>2016-11-10T10:06:58Z</time>
      </trkpt>
      <trkpt lat="43.48918" lon="6.59515">
        <ele>26.57</ele>
        <time>2016-11-10T10:07:11Z</time>
      </trkpt>
      <trkpt lat="43.48935" lon="6.59498">
        <ele>28.02</ele>
        <time>2016-11-10T10:07:27Z</time>
      </trkpt>
      <trkpt lat="43.48951" lon="6.59494">
        <ele>27.53</ele>
        <time>2016-11-10T10:07:40Z</time>
      </trkpt>
      <trkpt lat="43.48952" lon="6.59495">
        <ele>28.02</ele>
        <time>2016-11-10T10:07:51Z</time>
      </trkpt>
      <trkpt lat="43.48953" lon="6.59496">
        <ele>28.02</ele>
        <time>2016-11-10T10:08:06Z</time>
      </trkpt>
      <trkpt lat="43.48959" lon="6.59496">
        <ele>28.02</ele>
        <time>2016-11-10T10:08:14Z</time>
      </trkpt>
      <trkpt lat="43.48961" lon="6.59497">
        <ele>28.02</ele>
        <time>2016-11-10T10:08:16Z</time>
      </trkpt>
      <trkpt lat="43.48972" lon="6.59506">
        <ele>27.05</ele>
        <time>2016-11-10T10:08:26Z</time>
      </trkpt>
      <trkpt lat="43.48978" lon="6.59509">
        <ele>27.05</ele>
        <time>2016-11-10T10:08:38Z</time>
      </trkpt>
      <trkpt lat="43.4898" lon="6.5951">
        <ele>28.02</ele>
        <time>2016-11-10T10:08:49Z</time>
      </trkpt>
      <trkpt lat="43.48991" lon="6.59511">
        <ele>28.02</ele>
        <time>2016-11-10T10:08:59Z</time>
      </trkpt>
      <trkpt lat="43.49003" lon="6.59511">
        <ele>28.02</ele>
        <time>2016-11-10T10:09:10Z</time>
      </trkpt>
      <trkpt lat="43.49005" lon="6.59512">
        <ele>28.02</ele>
        <time>2016-11-10T10:09:12Z</time>
      </trkpt>
      <trkpt lat="43.49009" lon="6.59512">
        <ele>25.13</ele>
        <time>2016-11-10T10:09:16Z</time>
      </trkpt>
      <trkpt lat="43.49009" lon="6.59512">
        <ele>28.5</ele>
        <time>2016-11-10T10:09:17Z</time>
      </trkpt>
      <trkpt lat="43.49009" lon="6.59512">
        <ele>31.38</ele>
        <time>2016-11-10T10:09:18Z</time>
      </trkpt>
      <trkpt lat="43.49009" lon="6.59512">
        <ele>29.46</ele>
        <time>2016-11-10T10:09:19Z</time>
      </trkpt>
      <trkpt lat="43.49011" lon="6.59512">
        <ele>28.5</ele>
        <time>2016-11-10T10:09:32Z</time>
      </trkpt>
      <trkpt lat="43.49013" lon="6.59513">
        <ele>28.5</ele>
        <time>2016-11-10T10:09:39Z</time>
      </trkpt>
      <trkpt lat="43.49017" lon="6.59518">
        <ele>28.02</ele>
        <time>2016-11-10T10:09:46Z</time>
      </trkpt>
      <trkpt lat="43.49019" lon="6.59522">
        <ele>27.53</ele>
        <time>2016-11-10T10:09:49Z</time>
      </trkpt>
      <trkpt lat="43.49029" lon="6.59548">
        <ele>28.5</ele>
        <time>2016-11-10T10:10:05Z</time>
      </trkpt>
      <trkpt lat="43.4903" lon="6.59551">
        <ele>28.5</ele>
        <time>2016-11-10T10:10:07Z</time>
      </trkpt>
      <trkpt lat="43.49036" lon="6.5956">
        <ele>29.46</ele>
        <time>2016-11-10T10:10:14Z</time>
      </trkpt>
      <trkpt lat="43.49049" lon="6.59573">
        <ele>30.42</ele>
        <time>2016-11-10T10:10:26Z</time>
      </trkpt>
      <trkpt lat="43.49071" lon="6.59588">
        <ele>29.94</ele>
        <time>2016-11-10T10:10:42Z</time>
      </trkpt>
      <trkpt lat="43.49087" lon="6.59611">
        <ele>28.98</ele>
        <time>2016-11-10T10:10:58Z</time>
      </trkpt>
      <trkpt lat="43.49097" lon="6.59624">
        <ele>29.46</ele>
        <time>2016-11-10T10:11:09Z</time>
      </trkpt>
      <trkpt lat="43.49098" lon="6.59627">
        <ele>29.46</ele>
        <time>2016-11-10T10:11:13Z</time>
      </trkpt>
      <trkpt lat="43.49105" lon="6.59641">
        <ele>29.46</ele>
        <time>2016-11-10T10:11:21Z</time>
      </trkpt>
      <trkpt lat="43.49117" lon="6.59671">
        <ele>30.9</ele>
        <time>2016-11-10T10:11:39Z</time>
      </trkpt>
      <trkpt lat="43.49126" lon="6.59696">
        <ele>31.38</ele>
        <time>2016-11-10T10:11:53Z</time>
      </trkpt>
      <trkpt lat="43.4913" lon="6.59705">
        <ele>31.38</ele>
        <time>2016-11-10T10:11:58Z</time>
      </trkpt>
      <trkpt lat="43.49143" lon="6.59735">
        <ele>31.86</ele>
        <time>2016-11-10T10:12:15Z</time>
      </trkpt>
      <trkpt lat="43.49145" lon="6.5974">
        <ele>31.86</ele>
        <time>2016-11-10T10:12:18Z</time>
      </trkpt>
      <trkpt lat="43.49154" lon="6.59768">
        <ele>33.3</ele>
        <time>2016-11-10T10:12:33Z</time>
      </trkpt>
      <trkpt lat="43.49161" lon="6.59786">
        <ele>33.3</ele>
        <time>2016-11-10T10:12:42Z</time>
      </trkpt>
      <trkpt lat="43.49168" lon="6.598">
        <ele>33.3</ele>
        <time>2016-11-10T10:12:51Z</time>
      </trkpt>
      <trkpt lat="43.49184" lon="6.59825">
        <ele>34.74</ele>
        <time>2016-11-10T10:13:07Z</time>
      </trkpt>
      <trkpt lat="43.49197" lon="6.59847">
        <ele>36.19</ele>
        <time>2016-11-10T10:13:22Z</time>
      </trkpt>
      <trkpt lat="43.49201" lon="6.59861">
        <ele>37.63</ele>
        <time>2016-11-10T10:13:30Z</time>
      </trkpt>
      <trkpt lat="43.49211" lon="6.59888">
        <ele>39.07</ele>
        <time>2016-11-10T10:13:46Z</time>
      </trkpt>
      <trkpt lat="43.49222" lon="6.59915">
        <ele>40.99</ele>
        <time>2016-11-10T10:14:01Z</time>
      </trkpt>
      <trkpt lat="43.49233" lon="6.59943">
        <ele>41.47</ele>
        <time>2016-11-10T10:14:16Z</time>
      </trkpt>
      <trkpt lat="43.4924" lon="6.5997">
        <ele>42.44</ele>
        <time>2016-11-10T10:14:31Z</time>
      </trkpt>
      <trkpt lat="43.49241" lon="6.59976">
        <ele>42.44</ele>
        <time>2016-11-10T10:14:34Z</time>
      </trkpt>
      <trkpt lat="43.49244" lon="6.59983">
        <ele>42.92</ele>
        <time>2016-11-10T10:14:38Z</time>
      </trkpt>
      <trkpt lat="43.4925" lon="6.60019">
        <ele>45.32</ele>
        <time>2016-11-10T10:14:56Z</time>
      </trkpt>
      <trkpt lat="43.49254" lon="6.60046">
        <ele>45.8</ele>
        <time>2016-11-10T10:15:10Z</time>
      </trkpt>
      <trkpt lat="43.49257" lon="6.60072">
        <ele>46.28</ele>
        <time>2016-11-10T10:15:24Z</time>
      </trkpt>
      <trkpt lat="43.49258" lon="6.60102">
        <ele>48.2</ele>
        <time>2016-11-10T10:15:40Z</time>
      </trkpt>
      <trkpt lat="43.49257" lon="6.60128">
        <ele>49.16</ele>
        <time>2016-11-10T10:15:53Z</time>
      </trkpt>
      <trkpt lat="43.49258" lon="6.60152">
        <ele>51.09</ele>
        <time>2016-11-10T10:16:06Z</time>
      </trkpt>
      <trkpt lat="43.49258" lon="6.60162">
        <ele>51.57</ele>
        <time>2016-11-10T10:16:11Z</time>
      </trkpt>
      <trkpt lat="43.49258" lon="6.60177">
        <ele>52.53</ele>
        <time>2016-11-10T10:16:19Z</time>
      </trkpt>
      <trkpt lat="43.49259" lon="6.60214">
        <ele>54.45</ele>
        <time>2016-11-10T10:16:36Z</time>
      </trkpt>
      <trkpt lat="43.49259" lon="6.60241">
        <ele>56.86</ele>
        <time>2016-11-10T10:16:50Z</time>
      </trkpt>
      <trkpt lat="43.49254" lon="6.60264">
        <ele>57.82</ele>
        <time>2016-11-10T10:17:03Z</time>
      </trkpt>
      <trkpt lat="43.49254" lon="6.60266">
        <ele>57.82</ele>
        <time>2016-11-10T10:17:04Z</time>
      </trkpt>
      <trkpt lat="43.49253" lon="6.60274">
        <ele>58.3</ele>
        <time>2016-11-10T10:17:08Z</time>
      </trkpt>
      <trkpt lat="43.49251" lon="6.60285">
        <ele>59.26</ele>
        <time>2016-11-10T10:17:14Z</time>
      </trkpt>
      <trkpt lat="43.49244" lon="6.60314">
        <ele>60.7</ele>
        <time>2016-11-10T10:17:28Z</time>
      </trkpt>
      <trkpt lat="43.49241" lon="6.60345">
        <ele>60.7</ele>
        <time>2016-11-10T10:17:43Z</time>
      </trkpt>
      <trkpt lat="43.49241" lon="6.60361">
        <ele>61.66</ele>
        <time>2016-11-10T10:17:50Z</time>
      </trkpt>
      <trkpt lat="43.49241" lon="6.60372">
        <ele>62.14</ele>
        <time>2016-11-10T10:17:55Z</time>
      </trkpt>
      <trkpt lat="43.49235" lon="6.60407">
        <ele>63.58</ele>
        <time>2016-11-10T10:18:12Z</time>
      </trkpt>
      <trkpt lat="43.49228" lon="6.60437">
        <ele>65.03</ele>
        <time>2016-11-10T10:18:28Z</time>
      </trkpt>
      <trkpt lat="43.49224" lon="6.60464">
        <ele>66.47</ele>
        <time>2016-11-10T10:18:41Z</time>
      </trkpt>
      <trkpt lat="43.49222" lon="6.60499">
        <ele>66.95</ele>
        <time>2016-11-10T10:18:58Z</time>
      </trkpt>
      <trkpt lat="43.49223" lon="6.60532">
        <ele>66.95</ele>
        <time>2016-11-10T10:19:15Z</time>
      </trkpt>
      <trkpt lat="43.49224" lon="6.60562">
        <ele>67.43</ele>
        <time>2016-11-10T10:19:29Z</time>
      </trkpt>
      <trkpt lat="43.49224" lon="6.60591">
        <ele>66.95</ele>
        <time>2016-11-10T10:19:42Z</time>
      </trkpt>
      <trkpt lat="43.49224" lon="6.60626">
        <ele>66.95</ele>
        <time>2016-11-10T10:19:58Z</time>
      </trkpt>
      <trkpt lat="43.49224" lon="6.6063">
        <ele>66.47</ele>
        <time>2016-11-10T10:20:00Z</time>
      </trkpt>
      <trkpt lat="43.49224" lon="6.60662">
        <ele>67.91</ele>
        <time>2016-11-10T10:20:15Z</time>
      </trkpt>
      <trkpt lat="43.49224" lon="6.60702">
        <ele>67.43</ele>
        <time>2016-11-10T10:20:34Z</time>
      </trkpt>
      <trkpt lat="43.4922" lon="6.60736">
        <ele>68.87</ele>
        <time>2016-11-10T10:20:51Z</time>
      </trkpt>
      <trkpt lat="43.49216" lon="6.60764">
        <ele>69.83</ele>
        <time>2016-11-10T10:21:06Z</time>
      </trkpt>
      <trkpt lat="43.49214" lon="6.60782">
        <ele>70.31</ele>
        <time>2016-11-10T10:21:15Z</time>
      </trkpt>
      <trkpt lat="43.49215" lon="6.60815">
        <ele>71.27</ele>
        <time>2016-11-10T10:21:30Z</time>
      </trkpt>
      <trkpt lat="43.49217" lon="6.60836">
        <ele>72.24</ele>
        <time>2016-11-10T10:21:40Z</time>
      </trkpt>
      <trkpt lat="43.49222" lon="6.60865">
        <ele>72.24</ele>
        <time>2016-11-10T10:21:55Z</time>
      </trkpt>
      <trkpt lat="43.49219" lon="6.60889">
        <ele>72.72</ele>
        <time>2016-11-10T10:22:08Z</time>
      </trkpt>
      <trkpt lat="43.49211" lon="6.60916">
        <ele>72.24</ele>
        <time>2016-11-10T10:22:24Z</time>
      </trkpt>
      <trkpt lat="43.4921" lon="6.60921">
        <ele>72.72</ele>
        <time>2016-11-10T10:22:41Z</time>
      </trkpt>
      <trkpt lat="43.49211" lon="6.60922">
        <ele>72.72</ele>
        <time>2016-11-10T10:23:07Z</time>
      </trkpt>
      <trkpt lat="43.49211" lon="6.60922">
        <ele>69.35</ele>
        <time>2016-11-10T10:23:09Z</time>
      </trkpt>
      <trkpt lat="43.49211" lon="6.60922">
        <ele>76.08</ele>
        <time>2016-11-10T10:23:10Z</time>
      </trkpt>
      <trkpt lat="43.49211" lon="6.60922">
        <ele>72.72</ele>
        <time>2016-11-10T10:23:12Z</time>
      </trkpt>
      <trkpt lat="43.49211" lon="6.60922">
        <ele>68.87</ele>
        <time>2016-11-10T10:23:21Z</time>
      </trkpt>
      <trkpt lat="43.49211" lon="6.60922">
        <ele>75.6</ele>
        <time>2016-11-10T10:23:22Z</time>
      </trkpt>
      <trkpt lat="43.49211" lon="6.60923">
        <ele>73.2</ele>
        <time>2016-11-10T10:23:40Z</time>
      </trkpt>
      <trkpt lat="43.49212" lon="6.60923">
        <ele>73.2</ele>
        <time>2016-11-10T10:24:03Z</time>
      </trkpt>
      <trkpt lat="43.49211" lon="6.60923">
        <ele>73.2</ele>
        <time>2016-11-10T10:24:17Z</time>
      </trkpt>
      <trkpt lat="43.49212" lon="6.60922">
        <ele>73.2</ele>
        <time>2016-11-10T10:24:47Z</time>
      </trkpt>
      <trkpt lat="43.49212" lon="6.60922">
        <ele>73.68</ele>
        <time>2016-11-10T10:25:08Z</time>
      </trkpt>
      <trkpt lat="43.49212" lon="6.60922">
        <ele>72.72</ele>
        <time>2016-11-10T10:25:25Z</time>
      </trkpt>
      <trkpt lat="43.49211" lon="6.60921">
        <ele>73.2</ele>
        <time>2016-11-10T10:25:43Z</time>
      </trkpt>
      <trkpt lat="43.49212" lon="6.60921">
        <ele>73.2</ele>
        <time>2016-11-10T10:26:04Z</time>
      </trkpt>
      <trkpt lat="43.49212" lon="6.6092">
        <ele>72.72</ele>
        <time>2016-11-10T10:26:26Z</time>
      </trkpt>
      <trkpt lat="43.49212" lon="6.6092">
        <ele>72.72</ele>
        <time>2016-11-10T10:26:43Z</time>
      </trkpt>
      <trkpt lat="43.49213" lon="6.6092">
        <ele>73.68</ele>
        <time>2016-11-10T10:27:06Z</time>
      </trkpt>
      <trkpt lat="43.49213" lon="6.60921">
        <ele>72.24</ele>
        <time>2016-11-10T10:27:36Z</time>
      </trkpt>
      <trkpt lat="43.49212" lon="6.60921">
        <ele>74.16</ele>
        <time>2016-11-10T10:27:54Z</time>
      </trkpt>
      <trkpt lat="43.49213" lon="6.60918">
        <ele>72.24</ele>
        <time>2016-11-10T10:27:57Z</time>
      </trkpt>
      <trkpt lat="43.49219" lon="6.60903">
        <ele>72.24</ele>
        <time>2016-11-10T10:28:07Z</time>
      </trkpt>
      <trkpt lat="43.49223" lon="6.60888">
        <ele>73.2</ele>
        <time>2016-11-10T10:28:16Z</time>
      </trkpt>
      <trkpt lat="43.49223" lon="6.60875">
        <ele>72.72</ele>
        <time>2016-11-10T10:28:22Z</time>
      </trkpt>
      <trkpt lat="43.49224" lon="6.60862">
        <ele>71.76</ele>
        <time>2016-11-10T10:28:29Z</time>
      </trkpt>
      <trkpt lat="43.49221" lon="6.60838">
        <ele>71.27</ele>
        <time>2016-11-10T10:28:43Z</time>
      </trkpt>
      <trkpt lat="43.49218" lon="6.60823">
        <ele>71.76</ele>
        <time>2016-11-10T10:28:51Z</time>
      </trkpt>
      <trkpt lat="43.49215" lon="6.60808">
        <ele>69.83</ele>
        <time>2016-11-10T10:28:59Z</time>
      </trkpt>
      <trkpt lat="43.49214" lon="6.60799">
        <ele>69.83</ele>
        <time>2016-11-10T10:29:04Z</time>
      </trkpt>
      <trkpt lat="43.49216" lon="6.60784">
        <ele>69.35</ele>
        <time>2016-11-10T10:29:11Z</time>
      </trkpt>
      <trkpt lat="43.49217" lon="6.60776">
        <ele>68.87</ele>
        <time>2016-11-10T10:29:15Z</time>
      </trkpt>
      <trkpt lat="43.49221" lon="6.60747">
        <ele>69.35</ele>
        <time>2016-11-10T10:29:29Z</time>
      </trkpt>
      <trkpt lat="43.49225" lon="6.60718">
        <ele>67.91</ele>
        <time>2016-11-10T10:29:43Z</time>
      </trkpt>
      <trkpt lat="43.49226" lon="6.60686">
        <ele>67.91</ele>
        <time>2016-11-10T10:29:58Z</time>
      </trkpt>
      <trkpt lat="43.49228" lon="6.6066">
        <ele>66.47</ele>
        <time>2016-11-10T10:30:11Z</time>
      </trkpt>
      <trkpt lat="43.49228" lon="6.60625">
        <ele>66.95</ele>
        <time>2016-11-10T10:30:28Z</time>
      </trkpt>
      <trkpt lat="43.49227" lon="6.60603">
        <ele>65.51</ele>
        <time>2016-11-10T10:30:39Z</time>
      </trkpt>
      <trkpt lat="43.49226" lon="6.6057">
        <ele>66.47</ele>
        <time>2016-11-10T10:30:54Z</time>
      </trkpt>
      <trkpt lat="43.49227" lon="6.60545">
        <ele>68.39</ele>
        <time>2016-11-10T10:31:07Z</time>
      </trkpt>
      <trkpt lat="43.49227" lon="6.60522">
        <ele>68.87</ele>
        <time>2016-11-10T10:31:18Z</time>
      </trkpt>
      <trkpt lat="43.49226" lon="6.6051">
        <ele>68.39</ele>
        <time>2016-11-10T10:31:23Z</time>
      </trkpt>
      <trkpt lat="43.49226" lon="6.60473">
        <ele>67.43</ele>
        <time>2016-11-10T10:31:36Z</time>
      </trkpt>
      <trkpt lat="43.49226" lon="6.60472">
        <ele>65.03</ele>
        <time>2016-11-10T10:31:37Z</time>
      </trkpt>
      <trkpt lat="43.49227" lon="6.60467">
        <ele>67.91</ele>
        <time>2016-11-10T10:31:40Z</time>
      </trkpt>
      <trkpt lat="43.49227" lon="6.60464">
        <ele>67.43</ele>
        <time>2016-11-10T10:31:41Z</time>
      </trkpt>
      <trkpt lat="43.49233" lon="6.60432">
        <ele>65.51</ele>
        <time>2016-11-10T10:31:54Z</time>
      </trkpt>
      <trkpt lat="43.49236" lon="6.60419">
        <ele>65.51</ele>
        <time>2016-11-10T10:32:00Z</time>
      </trkpt>
      <trkpt lat="43.49236" lon="6.60409">
        <ele>64.07</ele>
        <time>2016-11-10T10:32:11Z</time>
      </trkpt>
      <trkpt lat="43.49239" lon="6.60405">
        <ele>63.1</ele>
        <time>2016-11-10T10:32:21Z</time>
      </trkpt>
      <trkpt lat="43.49239" lon="6.60404">
        <ele>63.1</ele>
        <time>2016-11-10T10:32:22Z</time>
      </trkpt>
      <trkpt lat="43.49241" lon="6.60394">
        <ele>62.62</ele>
        <time>2016-11-10T10:32:27Z</time>
      </trkpt>
      <trkpt lat="43.49244" lon="6.6038">
        <ele>62.14</ele>
        <time>2016-11-10T10:32:33Z</time>
      </trkpt>
      <trkpt lat="43.49246" lon="6.60367">
        <ele>62.14</ele>
        <time>2016-11-10T10:32:42Z</time>
      </trkpt>
      <trkpt lat="43.49247" lon="6.60362">
        <ele>62.14</ele>
        <time>2016-11-10T10:32:44Z</time>
      </trkpt>
      <trkpt lat="43.49247" lon="6.60351">
        <ele>62.14</ele>
        <time>2016-11-10T10:32:49Z</time>
      </trkpt>
      <trkpt lat="43.49246" lon="6.60324">
        <ele>60.7</ele>
        <time>2016-11-10T10:32:59Z</time>
      </trkpt>
      <trkpt lat="43.49245" lon="6.60317">
        <ele>60.22</ele>
        <time>2016-11-10T10:33:02Z</time>
      </trkpt>
      <trkpt lat="43.49245" lon="6.60302">
        <ele>58.78</ele>
        <time>2016-11-10T10:33:12Z</time>
      </trkpt>
      <trkpt lat="43.4925" lon="6.60289">
        <ele>57.82</ele>
        <time>2016-11-10T10:33:20Z</time>
      </trkpt>
      <trkpt lat="43.49253" lon="6.60276">
        <ele>57.82</ele>
        <time>2016-11-10T10:33:29Z</time>
      </trkpt>
      <trkpt lat="43.49255" lon="6.60259">
        <ele>56.86</ele>
        <time>2016-11-10T10:33:39Z</time>
      </trkpt>
      <trkpt lat="43.49255" lon="6.60246">
        <ele>55.89</ele>
        <time>2016-11-10T10:33:45Z</time>
      </trkpt>
      <trkpt lat="43.49254" lon="6.60211">
        <ele>54.45</ele>
        <time>2016-11-10T10:33:56Z</time>
      </trkpt>
      <trkpt lat="43.49255" lon="6.602">
        <ele>53.97</ele>
        <time>2016-11-10T10:33:59Z</time>
      </trkpt>
      <trkpt lat="43.49254" lon="6.60187">
        <ele>52.53</ele>
        <time>2016-11-10T10:34:03Z</time>
      </trkpt>
      <trkpt lat="43.49253" lon="6.6018">
        <ele>53.97</ele>
        <time>2016-11-10T10:34:05Z</time>
      </trkpt>
      <trkpt lat="43.49254" lon="6.60142">
        <ele>52.05</ele>
        <time>2016-11-10T10:34:15Z</time>
      </trkpt>
      <trkpt lat="43.49259" lon="6.60125">
        <ele>51.57</ele>
        <time>2016-11-10T10:34:27Z</time>
      </trkpt>
      <trkpt lat="43.49259" lon="6.60119">
        <ele>50.13</ele>
        <time>2016-11-10T10:34:32Z</time>
      </trkpt>
      <trkpt lat="43.49259" lon="6.60112">
        <ele>49.16</ele>
        <time>2016-11-10T10:34:38Z</time>
      </trkpt>
      <trkpt lat="43.49259" lon="6.60105">
        <ele>48.68</ele>
        <time>2016-11-10T10:34:47Z</time>
      </trkpt>
      <trkpt lat="43.4926" lon="6.601">
        <ele>48.2</ele>
        <time>2016-11-10T10:34:50Z</time>
      </trkpt>
      <trkpt lat="43.49258" lon="6.60095">
        <ele>47.72</ele>
        <time>2016-11-10T10:34:52Z</time>
      </trkpt>
      <trkpt lat="43.4925" lon="6.60055">
        <ele>47.24</ele>
        <time>2016-11-10T10:35:05Z</time>
      </trkpt>
      <trkpt lat="43.49249" lon="6.60045">
        <ele>47.24</ele>
        <time>2016-11-10T10:35:07Z</time>
      </trkpt>
      <trkpt lat="43.4925" lon="6.60025">
        <ele>46.28</ele>
        <time>2016-11-10T10:35:13Z</time>
      </trkpt>
      <trkpt lat="43.49251" lon="6.60016">
        <ele>45.8</ele>
        <time>2016-11-10T10:35:19Z</time>
      </trkpt>
      <trkpt lat="43.49251" lon="6.60011">
        <ele>44.84</ele>
        <time>2016-11-10T10:35:30Z</time>
      </trkpt>
      <trkpt lat="43.49253" lon="6.6001">
        <ele>44.84</ele>
        <time>2016-11-10T10:35:33Z</time>
      </trkpt>
      <trkpt lat="43.49245" lon="6.59977">
        <ele>42.92</ele>
        <time>2016-11-10T10:35:45Z</time>
      </trkpt>
      <trkpt lat="43.49238" lon="6.59956">
        <ele>42.92</ele>
        <time>2016-11-10T10:35:54Z</time>
      </trkpt>
      <trkpt lat="43.49229" lon="6.5993">
        <ele>42.92</ele>
        <time>2016-11-10T10:36:06Z</time>
      </trkpt>
      <trkpt lat="43.49229" lon="6.59925">
        <ele>41.95</ele>
        <time>2016-11-10T10:36:13Z</time>
      </trkpt>
      <trkpt lat="43.49222" lon="6.5991">
        <ele>41.95</ele>
        <time>2016-11-10T10:36:19Z</time>
      </trkpt>
      <trkpt lat="43.49219" lon="6.59898">
        <ele>41.47</ele>
        <time>2016-11-10T10:36:28Z</time>
      </trkpt>
      <trkpt lat="43.49218" lon="6.59896">
        <ele>40.99</ele>
        <time>2016-11-10T10:36:40Z</time>
      </trkpt>
      <trkpt lat="43.49218" lon="6.59896">
        <ele>40.99</ele>
        <time>2016-11-10T10:36:53Z</time>
      </trkpt>
      <trkpt lat="43.49219" lon="6.59895">
        <ele>41.95</ele>
        <time>2016-11-10T10:37:03Z</time>
      </trkpt>
      <trkpt lat="43.49222" lon="6.59895">
        <ele>41.95</ele>
        <time>2016-11-10T10:37:08Z</time>
      </trkpt>
      <trkpt lat="43.49223" lon="6.59893">
        <ele>41.95</ele>
        <time>2016-11-10T10:37:15Z</time>
      </trkpt>
      <trkpt lat="43.4923" lon="6.59888">
        <ele>41.95</ele>
        <time>2016-11-10T10:37:27Z</time>
      </trkpt>
      <trkpt lat="43.49233" lon="6.59887">
        <ele>42.92</ele>
        <time>2016-11-10T10:37:44Z</time>
      </trkpt>
      <trkpt lat="43.49234" lon="6.59887">
        <ele>42.92</ele>
        <time>2016-11-10T10:37:49Z</time>
      </trkpt>
      <trkpt lat="43.49238" lon="6.5989">
        <ele>42.92</ele>
        <time>2016-11-10T10:37:54Z</time>
      </trkpt>
      <trkpt lat="43.49251" lon="6.59902">
        <ele>43.88</ele>
        <time>2016-11-10T10:38:08Z</time>
      </trkpt>
      <trkpt lat="43.49254" lon="6.59903">
        <ele>43.88</ele>
        <time>2016-11-10T10:38:11Z</time>
      </trkpt>
      <trkpt lat="43.49261" lon="6.59911">
        <ele>44.36</ele>
        <time>2016-11-10T10:38:18Z</time>
      </trkpt>
      <trkpt lat="43.49276" lon="6.59925">
        <ele>44.84</ele>
        <time>2016-11-10T10:38:31Z</time>
      </trkpt>
      <trkpt lat="43.49277" lon="6.59926">
        <ele>44.84</ele>
        <time>2016-11-10T10:38:32Z</time>
      </trkpt>
      <trkpt lat="43.49281" lon="6.59931">
        <ele>44.84</ele>
        <time>2016-11-10T10:38:36Z</time>
      </trkpt>
      <trkpt lat="43.49284" lon="6.59932">
        <ele>44.84</ele>
        <time>2016-11-10T10:38:38Z</time>
      </trkpt>
      <trkpt lat="43.49296" lon="6.59946">
        <ele>45.32</ele>
        <time>2016-11-10T10:38:49Z</time>
      </trkpt>
      <trkpt lat="43.49299" lon="6.5995">
        <ele>45.8</ele>
        <time>2016-11-10T10:38:53Z</time>
      </trkpt>
      <trkpt lat="43.49302" lon="6.59955">
        <ele>45.8</ele>
        <time>2016-11-10T10:38:57Z</time>
      </trkpt>
      <trkpt lat="43.4931" lon="6.59959">
        <ele>47.24</ele>
        <time>2016-11-10T10:39:03Z</time>
      </trkpt>
      <trkpt lat="43.49315" lon="6.59964">
        <ele>48.68</ele>
        <time>2016-11-10T10:39:09Z</time>
      </trkpt>
      <trkpt lat="43.49328" lon="6.59973">
        <ele>50.13</ele>
        <time>2016-11-10T10:39:20Z</time>
      </trkpt>
      <trkpt lat="43.49334" lon="6.59978">
        <ele>51.09</ele>
        <time>2016-11-10T10:39:26Z</time>
      </trkpt>
      <trkpt lat="43.49342" lon="6.59984">
        <ele>53.01</ele>
        <time>2016-11-10T10:39:35Z</time>
      </trkpt>
      <trkpt lat="43.4935" lon="6.59996">
        <ele>54.93</ele>
        <time>2016-11-10T10:39:47Z</time>
      </trkpt>
      <trkpt lat="43.49361" lon="6.6001">
        <ele>56.37</ele>
        <time>2016-11-10T10:39:59Z</time>
      </trkpt>
      <trkpt lat="43.49378" lon="6.60021">
        <ele>57.82</ele>
        <time>2016-11-10T10:40:13Z</time>
      </trkpt>
      <trkpt lat="43.49386" lon="6.60027">
        <ele>59.26</ele>
        <time>2016-11-10T10:40:20Z</time>
      </trkpt>
      <trkpt lat="43.49401" lon="6.60044">
        <ele>60.22</ele>
        <time>2016-11-10T10:40:35Z</time>
      </trkpt>
      <trkpt lat="43.49405" lon="6.60049">
        <ele>60.7</ele>
        <time>2016-11-10T10:40:39Z</time>
      </trkpt>
      <trkpt lat="43.49408" lon="6.60052">
        <ele>60.22</ele>
        <time>2016-11-10T10:40:42Z</time>
      </trkpt>
      <trkpt lat="43.49428" lon="6.6007">
        <ele>60.7</ele>
        <time>2016-11-10T10:40:59Z</time>
      </trkpt>
      <trkpt lat="43.49432" lon="6.60075">
        <ele>60.22</ele>
        <time>2016-11-10T10:41:03Z</time>
      </trkpt>
      <trkpt lat="43.49451" lon="6.60092">
        <ele>60.7</ele>
        <time>2016-11-10T10:41:18Z</time>
      </trkpt>
      <trkpt lat="43.49453" lon="6.60094">
        <ele>60.7</ele>
        <time>2016-11-10T10:41:20Z</time>
      </trkpt>
      <trkpt lat="43.49461" lon="6.60105">
        <ele>60.7</ele>
        <time>2016-11-10T10:41:37Z</time>
      </trkpt>
      <trkpt lat="43.49462" lon="6.60105">
        <ele>60.7</ele>
        <time>2016-11-10T10:41:46Z</time>
      </trkpt>
      <trkpt lat="43.49465" lon="6.60107">
        <ele>60.7</ele>
        <time>2016-11-10T10:41:51Z</time>
      </trkpt>
      <trkpt lat="43.49468" lon="6.60109">
        <ele>60.7</ele>
        <time>2016-11-10T10:41:54Z</time>
      </trkpt>
      <trkpt lat="43.49472" lon="6.60111">
        <ele>61.18</ele>
        <time>2016-11-10T10:41:58Z</time>
      </trkpt>
      <trkpt lat="43.49478" lon="6.60118">
        <ele>61.66</ele>
        <time>2016-11-10T10:42:05Z</time>
      </trkpt>
      <trkpt lat="43.49485" lon="6.60126">
        <ele>62.62</ele>
        <time>2016-11-10T10:42:12Z</time>
      </trkpt>
      <trkpt lat="43.49488" lon="6.60131">
        <ele>63.58</ele>
        <time>2016-11-10T10:42:16Z</time>
      </trkpt>
      <trkpt lat="43.49495" lon="6.60138">
        <ele>64.55</ele>
        <time>2016-11-10T10:42:23Z</time>
      </trkpt>
      <trkpt lat="43.49512" lon="6.6016">
        <ele>65.51</ele>
        <time>2016-11-10T10:42:40Z</time>
      </trkpt>
      <trkpt lat="43.49518" lon="6.60168">
        <ele>65.51</ele>
        <time>2016-11-10T10:42:46Z</time>
      </trkpt>
      <trkpt lat="43.49528" lon="6.6018">
        <ele>66.95</ele>
        <time>2016-11-10T10:42:56Z</time>
      </trkpt>
      <trkpt lat="43.49551" lon="6.60194">
        <ele>66.47</ele>
        <time>2016-11-10T10:43:13Z</time>
      </trkpt>
      <trkpt lat="43.49566" lon="6.60199">
        <ele>66.95</ele>
        <time>2016-11-10T10:43:24Z</time>
      </trkpt>
      <trkpt lat="43.49584" lon="6.602">
        <ele>67.91</ele>
        <time>2016-11-10T10:43:39Z</time>
      </trkpt>
      <trkpt lat="43.49589" lon="6.602">
        <ele>68.39</ele>
        <time>2016-11-10T10:43:43Z</time>
      </trkpt>
      <trkpt lat="43.49611" lon="6.60201">
        <ele>68.87</ele>
        <time>2016-11-10T10:44:01Z</time>
      </trkpt>
      <trkpt lat="43.49622" lon="6.60201">
        <ele>69.83</ele>
        <time>2016-11-10T10:44:10Z</time>
      </trkpt>
      <trkpt lat="43.49641" lon="6.60199">
        <ele>69.83</ele>
        <time>2016-11-10T10:44:25Z</time>
      </trkpt>
      <trkpt lat="43.4965" lon="6.60202">
        <ele>69.35</ele>
        <time>2016-11-10T10:44:33Z</time>
      </trkpt>
      <trkpt lat="43.49653" lon="6.60207">
        <ele>69.35</ele>
        <time>2016-11-10T10:44:37Z</time>
      </trkpt>
      <trkpt lat="43.49657" lon="6.60216">
        <ele>70.31</ele>
        <time>2016-11-10T10:44:48Z</time>
      </trkpt>
      <trkpt lat="43.49661" lon="6.60225">
        <ele>69.35</ele>
        <time>2016-11-10T10:44:55Z</time>
      </trkpt>
      <trkpt lat="43.4967" lon="6.60233">
        <ele>69.35</ele>
        <time>2016-11-10T10:45:04Z</time>
      </trkpt>
      <trkpt lat="43.49678" lon="6.60242">
        <ele>65.51</ele>
        <time>2016-11-10T10:45:11Z</time>
      </trkpt>
      <trkpt lat="43.49679" lon="6.60244">
        <ele>71.27</ele>
        <time>2016-11-10T10:45:12Z</time>
      </trkpt>
      <trkpt lat="43.4968" lon="6.60248">
        <ele>69.83</ele>
        <time>2016-11-10T10:45:15Z</time>
      </trkpt>
      <trkpt lat="43.49682" lon="6.60251">
        <ele>69.35</ele>
        <time>2016-11-10T10:45:19Z</time>
      </trkpt>
      <trkpt lat="43.49688" lon="6.60264">
        <ele>70.31</ele>
        <time>2016-11-10T10:45:26Z</time>
      </trkpt>
      <trkpt lat="43.49691" lon="6.6027">
        <ele>70.79</ele>
        <time>2016-11-10T10:45:32Z</time>
      </trkpt>
      <trkpt lat="43.497" lon="6.60288">
        <ele>72.24</ele>
        <time>2016-11-10T10:45:43Z</time>
      </trkpt>
      <trkpt lat="43.4971" lon="6.60301">
        <ele>73.2</ele>
        <time>2016-11-10T10:45:53Z</time>
      </trkpt>
      <trkpt lat="43.49725" lon="6.60316">
        <ele>74.16</ele>
        <time>2016-11-10T10:46:08Z</time>
      </trkpt>
      <trkpt lat="43.4973" lon="6.60322">
        <ele>74.64</ele>
        <time>2016-11-10T10:46:14Z</time>
      </trkpt>
      <trkpt lat="43.49746" lon="6.60333">
        <ele>75.6</ele>
        <time>2016-11-10T10:46:28Z</time>
      </trkpt>
      <trkpt lat="43.4975" lon="6.60332">
        <ele>76.08</ele>
        <time>2016-11-10T10:46:39Z</time>
      </trkpt>
      <trkpt lat="43.49751" lon="6.60331">
        <ele>76.08</ele>
        <time>2016-11-10T10:46:56Z</time>
      </trkpt>
      <trkpt lat="43.49753" lon="6.60334">
        <ele>75.12</ele>
        <time>2016-11-10T10:47:15Z</time>
      </trkpt>
      <trkpt lat="43.49754" lon="6.60341">
        <ele>75.12</ele>
        <time>2016-11-10T10:47:31Z</time>
      </trkpt>
      <trkpt lat="43.49754" lon="6.60348">
        <ele>75.6</ele>
        <time>2016-11-10T10:47:35Z</time>
      </trkpt>
      <trkpt lat="43.49754" lon="6.60358">
        <ele>76.08</ele>
        <time>2016-11-10T10:47:40Z</time>
      </trkpt>
      <trkpt lat="43.49759" lon="6.60371">
        <ele>76.56</ele>
        <time>2016-11-10T10:47:49Z</time>
      </trkpt>
      <trkpt lat="43.49772" lon="6.60387">
        <ele>77.04</ele>
        <time>2016-11-10T10:48:00Z</time>
      </trkpt>
      <trkpt lat="43.49775" lon="6.6039">
        <ele>77.04</ele>
        <time>2016-11-10T10:48:07Z</time>
      </trkpt>
      <trkpt lat="43.49785" lon="6.60401">
        <ele>77.04</ele>
        <time>2016-11-10T10:48:13Z</time>
      </trkpt>
      <trkpt lat="43.49794" lon="6.60417">
        <ele>77.04</ele>
        <time>2016-11-10T10:48:23Z</time>
      </trkpt>
      <trkpt lat="43.49801" lon="6.60426">
        <ele>78</ele>
        <time>2016-11-10T10:48:34Z</time>
      </trkpt>
      <trkpt lat="43.49813" lon="6.60446">
        <ele>77.52</ele>
        <time>2016-11-10T10:48:41Z</time>
      </trkpt>
      <trkpt lat="43.4982" lon="6.60458">
        <ele>78.48</ele>
        <time>2016-11-10T10:48:52Z</time>
      </trkpt>
      <trkpt lat="43.49822" lon="6.60461">
        <ele>78</ele>
        <time>2016-11-10T10:49:01Z</time>
      </trkpt>
      <trkpt lat="43.49836" lon="6.60483">
        <ele>78</ele>
        <time>2016-11-10T10:49:11Z</time>
      </trkpt>
      <trkpt lat="43.49838" lon="6.60488">
        <ele>78</ele>
        <time>2016-11-10T10:49:13Z</time>
      </trkpt>
      <trkpt lat="43.49841" lon="6.60492">
        <ele>77.04</ele>
        <time>2016-11-10T10:49:16Z</time>
      </trkpt>
      <trkpt lat="43.49843" lon="6.60497">
        <ele>77.04</ele>
        <time>2016-11-10T10:49:19Z</time>
      </trkpt>
      <trkpt lat="43.49847" lon="6.60511">
        <ele>77.52</ele>
        <time>2016-11-10T10:49:26Z</time>
      </trkpt>
      <trkpt lat="43.49852" lon="6.60529">
        <ele>76.56</ele>
        <time>2016-11-10T10:49:35Z</time>
      </trkpt>
      <trkpt lat="43.49853" lon="6.60532">
        <ele>77.04</ele>
        <time>2016-11-10T10:49:37Z</time>
      </trkpt>
      <trkpt lat="43.49856" lon="6.60538">
        <ele>77.04</ele>
        <time>2016-11-10T10:49:41Z</time>
      </trkpt>
      <trkpt lat="43.49858" lon="6.6055">
        <ele>77.04</ele>
        <time>2016-11-10T10:49:47Z</time>
      </trkpt>
      <trkpt lat="43.49859" lon="6.60557">
        <ele>76.56</ele>
        <time>2016-11-10T10:49:51Z</time>
      </trkpt>
      <trkpt lat="43.49862" lon="6.60578">
        <ele>76.56</ele>
        <time>2016-11-10T10:50:02Z</time>
      </trkpt>
      <trkpt lat="43.4988" lon="6.60578">
        <ele>76.56</ele>
        <time>2016-11-10T10:50:15Z</time>
      </trkpt>
      <trkpt lat="43.49904" lon="6.60566">
        <ele>75.6</ele>
        <time>2016-11-10T10:50:32Z</time>
      </trkpt>
      <trkpt lat="43.49927" lon="6.60552">
        <ele>75.6</ele>
        <time>2016-11-10T10:50:49Z</time>
      </trkpt>
      <trkpt lat="43.49941" lon="6.60543">
        <ele>74.64</ele>
        <time>2016-11-10T10:51:00Z</time>
      </trkpt>
      <trkpt lat="43.49947" lon="6.60538">
        <ele>74.16</ele>
        <time>2016-11-10T10:51:04Z</time>
      </trkpt>
      <trkpt lat="43.49966" lon="6.60526">
        <ele>74.16</ele>
        <time>2016-11-10T10:51:18Z</time>
      </trkpt>
      <trkpt lat="43.49991" lon="6.60512">
        <ele>74.16</ele>
        <time>2016-11-10T10:51:35Z</time>
      </trkpt>
      <trkpt lat="43.5001" lon="6.605">
        <ele>74.64</ele>
        <time>2016-11-10T10:51:49Z</time>
      </trkpt>
      <trkpt lat="43.50035" lon="6.6048">
        <ele>74.64</ele>
        <time>2016-11-10T10:52:07Z</time>
      </trkpt>
      <trkpt lat="43.50052" lon="6.60466">
        <ele>74.64</ele>
        <time>2016-11-10T10:52:21Z</time>
      </trkpt>
      <trkpt lat="43.50071" lon="6.60455">
        <ele>75.6</ele>
        <time>2016-11-10T10:52:36Z</time>
      </trkpt>
      <trkpt lat="43.50091" lon="6.60443">
        <ele>76.08</ele>
        <time>2016-11-10T10:52:51Z</time>
      </trkpt>
      <trkpt lat="43.50111" lon="6.60433">
        <ele>76.56</ele>
        <time>2016-11-10T10:53:06Z</time>
      </trkpt>
      <trkpt lat="43.50136" lon="6.60421">
        <ele>76.56</ele>
        <time>2016-11-10T10:53:22Z</time>
      </trkpt>
      <trkpt lat="43.50158" lon="6.60412">
        <ele>76.08</ele>
        <time>2016-11-10T10:53:38Z</time>
      </trkpt>
      <trkpt lat="43.50164" lon="6.60407">
        <ele>75.6</ele>
        <time>2016-11-10T10:53:43Z</time>
      </trkpt>
      <trkpt lat="43.50177" lon="6.60402">
        <ele>75.12</ele>
        <time>2016-11-10T10:53:51Z</time>
      </trkpt>
      <trkpt lat="43.50196" lon="6.60392">
        <ele>74.64</ele>
        <time>2016-11-10T10:54:05Z</time>
      </trkpt>
      <trkpt lat="43.50218" lon="6.60381">
        <ele>75.12</ele>
        <time>2016-11-10T10:54:20Z</time>
      </trkpt>
      <trkpt lat="43.50238" lon="6.60374">
        <ele>75.6</ele>
        <time>2016-11-10T10:54:34Z</time>
      </trkpt>
      <trkpt lat="43.50265" lon="6.60368">
        <ele>75.12</ele>
        <time>2016-11-10T10:54:51Z</time>
      </trkpt>
      <trkpt lat="43.50278" lon="6.60364">
        <ele>75.12</ele>
        <time>2016-11-10T10:55:00Z</time>
      </trkpt>
      <trkpt lat="43.50294" lon="6.60359">
        <ele>75.6</ele>
        <time>2016-11-10T10:55:13Z</time>
      </trkpt>
      <trkpt lat="43.50316" lon="6.60348">
        <ele>75.6</ele>
        <time>2016-11-10T10:55:26Z</time>
      </trkpt>
      <trkpt lat="43.50339" lon="6.60335">
        <ele>75.6</ele>
        <time>2016-11-10T10:55:42Z</time>
      </trkpt>
      <trkpt lat="43.5036" lon="6.60327">
        <ele>76.56</ele>
        <time>2016-11-10T10:55:57Z</time>
      </trkpt>
      <trkpt lat="43.50375" lon="6.60315">
        <ele>77.52</ele>
        <time>2016-11-10T10:56:09Z</time>
      </trkpt>
      <trkpt lat="43.50392" lon="6.603">
        <ele>79.45</ele>
        <time>2016-11-10T10:56:24Z</time>
      </trkpt>
      <trkpt lat="43.50411" lon="6.60287">
        <ele>80.89</ele>
        <time>2016-11-10T10:56:38Z</time>
      </trkpt>
      <trkpt lat="43.50423" lon="6.60281">
        <ele>81.37</ele>
        <time>2016-11-10T10:56:47Z</time>
      </trkpt>
      <trkpt lat="43.50445" lon="6.60265">
        <ele>83.77</ele>
        <time>2016-11-10T10:57:04Z</time>
      </trkpt>
      <trkpt lat="43.50456" lon="6.60258">
        <ele>84.25</ele>
        <time>2016-11-10T10:57:13Z</time>
      </trkpt>
      <trkpt lat="43.50468" lon="6.60254">
        <ele>86.66</ele>
        <time>2016-11-10T10:57:23Z</time>
      </trkpt>
      <trkpt lat="43.50486" lon="6.60242">
        <ele>86.18</ele>
        <time>2016-11-10T10:57:37Z</time>
      </trkpt>
      <trkpt lat="43.50507" lon="6.60221">
        <ele>87.14</ele>
        <time>2016-11-10T10:57:51Z</time>
      </trkpt>
      <trkpt lat="43.50513" lon="6.60218">
        <ele>86.66</ele>
        <time>2016-11-10T10:57:57Z</time>
      </trkpt>
      <trkpt lat="43.50537" lon="6.60199">
        <ele>86.66</ele>
        <time>2016-11-10T10:58:12Z</time>
      </trkpt>
      <trkpt lat="43.50553" lon="6.60182">
        <ele>87.14</ele>
        <time>2016-11-10T10:58:24Z</time>
      </trkpt>
      <trkpt lat="43.5056" lon="6.60175">
        <ele>86.66</ele>
        <time>2016-11-10T10:58:30Z</time>
      </trkpt>
      <trkpt lat="43.5057" lon="6.60161">
        <ele>86.18</ele>
        <time>2016-11-10T10:58:41Z</time>
      </trkpt>
      <trkpt lat="43.50576" lon="6.60155">
        <ele>86.18</ele>
        <time>2016-11-10T10:58:46Z</time>
      </trkpt>
      <trkpt lat="43.50584" lon="6.60144">
        <ele>86.66</ele>
        <time>2016-11-10T10:58:54Z</time>
      </trkpt>
      <trkpt lat="43.50603" lon="6.60119">
        <ele>86.18</ele>
        <time>2016-11-10T10:59:09Z</time>
      </trkpt>
      <trkpt lat="43.5062" lon="6.60092">
        <ele>84.73</ele>
        <time>2016-11-10T10:59:25Z</time>
      </trkpt>
      <trkpt lat="43.50635" lon="6.60069">
        <ele>83.29</ele>
        <time>2016-11-10T10:59:40Z</time>
      </trkpt>
      <trkpt lat="43.5065" lon="6.60046">
        <ele>80.89</ele>
        <time>2016-11-10T10:59:55Z</time>
      </trkpt>
      <trkpt lat="43.50661" lon="6.6003">
        <ele>79.45</ele>
        <time>2016-11-10T11:00:06Z</time>
      </trkpt>
      <trkpt lat="43.5067" lon="6.60013">
        <ele>78.97</ele>
        <time>2016-11-10T11:00:16Z</time>
      </trkpt>
      <trkpt lat="43.50685" lon="6.59991">
        <ele>77.04</ele>
        <time>2016-11-10T11:00:31Z</time>
      </trkpt>
      <trkpt lat="43.50698" lon="6.59975">
        <ele>75.12</ele>
        <time>2016-11-10T11:00:45Z</time>
      </trkpt>
      <trkpt lat="43.507" lon="6.59974">
        <ele>74.64</ele>
        <time>2016-11-10T11:00:48Z</time>
      </trkpt>
      <trkpt lat="43.50705" lon="6.59976">
        <ele>74.64</ele>
        <time>2016-11-10T11:00:52Z</time>
      </trkpt>
      <trkpt lat="43.50726" lon="6.59982">
        <ele>75.6</ele>
        <time>2016-11-10T11:01:08Z</time>
      </trkpt>
      <trkpt lat="43.50739" lon="6.59982">
        <ele>75.6</ele>
        <time>2016-11-10T11:01:18Z</time>
      </trkpt>
      <trkpt lat="43.50748" lon="6.59984">
        <ele>76.08</ele>
        <time>2016-11-10T11:01:30Z</time>
      </trkpt>
      <trkpt lat="43.50749" lon="6.5998">
        <ele>79.45</ele>
        <time>2016-11-10T11:01:42Z</time>
      </trkpt>
      <trkpt lat="43.50749" lon="6.5998">
        <ele>76.08</ele>
        <time>2016-11-10T11:01:43Z</time>
      </trkpt>
      <trkpt lat="43.5075" lon="6.59978">
        <ele>76.56</ele>
        <time>2016-11-10T11:02:02Z</time>
      </trkpt>
      <trkpt lat="43.5075" lon="6.59977">
        <ele>75.12</ele>
        <time>2016-11-10T11:02:12Z</time>
      </trkpt>
    </trkseg>
  </trk>
</gpx>